Aviation Digital Data Service (ADDS)

Output produced by METARs form (2349 UTC 24 October 2014)
found at http://aviationweather.gov/adds/metars/
 
K04V 242333Z AUTO 19003KT 10SM CLR 19/M02 A3038 RMK AO2
K04W 242344Z AUTO 00000KT 10SM CLR 14/11 A2981 RMK AO2
K06D 242335Z AUTO 28011G20KT 10SM CLR 13/00 A2985 RMK AO2
K08D 242335Z AUTO 27009KT 10SM CLR 09/M01 A2994 RMK AO2
K0A9 242335Z AUTO 00000KT 10SM CLR 08/06 A3007 RMK
K0CO 242330Z AUTO 29012KT 10SM CLR 05/03 A3066 RMK AO2
K0E0 242335Z AUTO 27008KT 10SM CLR 24/M03 A3028 RMK AO2 T02371035
K0F2 242335Z AUTO 16004KT 10SM CLR 26/16 A3005 RMK AO2 T02580160
K0J4 242258Z AUTO 00000KT 10SM -RA CLR 19/09 A3002 RMK AO2 SLP163 P0000 T01940089 $
K0V4 242335Z AUTO 24003KT 10SM CLR 13/11 A2997 RMK AO1 T01310106
K0VG 242335Z AUTO 00000KT 10SM CLR 13/05 A3008 RMK AO2
K11R 242335Z AUTO 00000KT 10SM CLR 26/15 A3010 RMK AO2 T02620146
K12N 242254Z AUTO 34005KT 16/04 A2983 RMK AO1 SLP100 T01560039
K14Y 242342Z AUTO 22004KT 10SM CLR 17/06 A2984 RMK AO2
K19A 242335Z AUTO 00000KT 10SM CLR 16/08 A3000 RMK AO2
K1A5 242335Z AUTO 00000KT 10SM 09/06 A3005 RMK AO2 T00880057
K1A6 242335Z AUTO 00000KT 10SM CLR 12/05 A3007 RMK AO2 T01180053
K1A9 242335Z AUTO 00000KT 10SM CLR 15/10 A3002 RMK AO2 T01540102
K1B7 242139Z 02007KT 10SM SKC 22/12 A3003 RMK LAST
K1F0 242335Z AUTO 00000KT 10SM CLR 24/16 A3005 RMK AO2
K1H2 242335Z AUTO 00000KT 10SM CLR 14/10 A3002 RMK AO2 T01430097
K1II 242335Z AUTO 23003KT 10SM CLR 15/09 A3004 RMK AO2
K1L0 242335Z AUTO 00000KT 10SM CLR M37/M43 A3006 RMK AO2 T13721429
K1M4 242256Z AUTO 00000KT 10SM CLR 17/09 A3009 RMK AO2 T01660088 SLP201
K1P1 242355Z AUTO 27010G16KT 10SM BKN025 OVC030 08/07 A2974 RMK AO2 T00800068 10090 20077
K1R7 242335Z AUTO 00000KT 10SM CLR 19/09 A3010 RMK AO2
K1V4 242254Z AUTO 07/04 A2978 RMK AO1 SLP089 T00720044
K1V6 242335Z AUTO 12004KT 10SM CLR 27/M06 A3015 RMK AO2
K1YT 242256Z AUTO 20001KT 10SM -RA OVC065 11/06 A3001 RMK AO2 SLPNO T01110060
K20U 242335Z AUTO 29008KT 10SM 10/M02 A3004 RMK AO2
K20V 242335Z AUTO 24016G19KT 10SM CLR 20/M13 RMK AO2
K21D 242331Z AUTO 19004KT 5SM BR CLR 13/12 A2986 RMK AO2
K24J 242335Z AUTO 00000KT 2SM CLR 16/12 A3000 RMK AO1
K2C8 242335Z AUTO 29016KT 10SM CLR 17/02 A2976 RMK AO2
K2D5 242335Z AUTO 28010KT 10SM 19/06 A2991 RMK AO2
K2DP 242256Z AUTO 29004KT 10SM CLR 14/10 A2995 RMK AO2 SLPNO T01400102
K2G4 242335Z AUTO 28007KT 252V312 10SM CLR 07/01 A3002 RMK AO1
K2I0 242335Z AUTO 00000KT 10SM CLR 16/12 A3006 RMK AO2 T01550121
K2J9 242315Z AUTO 9SM FEW030 BKN037 16/11 A3001 RMK AO1
K2V5 242335Z AUTO 26003KT 10SM CLR 27/M03 A3006 RMK AO2 T02731034
K2W6 242336Z AUTO 00000KT 10SM CLR 12/05 A2994 RMK AO1
K2WX 242256Z AUTO 32010KT 16/M02 A3000 RMK AO1 SLP159 T01561017 $
K33V 242335Z AUTO 24008KT 10SM CLR 15/M06 A3036 RMK AO2
K36U 242335Z AUTO 25005KT 10SM CLR 22/M01 A3017 RMK AO2
K3I2 242335Z AUTO 00000KT 10SM CLR 11/05 A3005 RMK AO2
K3J7 242335Z AUTO 00000KT 10SM CLR 17/12 A2997 RMK AO2
K3K3 242335Z AUTO 33003KT 10SM CLR 27/03 A3005 RMK AO2
K3LF 242335Z AUTO 17005KT 10SM CLR 15/10 A3001 RMK AO2 T01470095
K3N8 242335Z AUTO 30008KT 10SM CLR 18/05 A2980 RMK AO2 T01810046
K3R7 242335Z AUTO 03004KT 10SM CLR 21/09 A3009 RMK AO2 T02050090
K3T5 242335Z AUTO 00000KT 5SM HZ CLR 27/17 A3007 RMK AO2 T02690170
K40B 242316Z AUTO VRB02KT 05/04 A2972 RMK AO1 SLP078 T00470037 55006
K40J 242335Z AUTO 00000KT 10SM CLR 16/11 A2999 RMK AO2
K42J 242335Z AUTO 07005KT 10SM 18/12 A2997 RMK AO1 TSNO
K46D 242335Z AUTO 29010KT 10SM CLR 14/00 A2989 RMK AO2
K4A6 242335Z AUTO 00000KT 10SM 14/08 A3005 RMK AO2
K4A9 242335Z AUTO 00000KT 10SM CLR 13/06 A3004 RMK AO2
K4I3 242335Z AUTO 00000KT 10SM CLR 13/03 A3003 RMK AO2
K4I7 242335Z AUTO 00000KT 10SM CLR 12/10 A3003 RMK AO2
K4M9 242335Z AUTO 17004KT 10SM CLR 18/15 A3006 RMK AO2
K4MR 242256Z AUTO 21009KT 10SM CLR 27/04 A3016 RMK AO2 SLP162 T02670041
K4O4 242335Z AUTO 16004KT 10SM CLR 22/14 A3008 RMK AO2
K54J 242335Z AUTO 00000KT 10SM CLR 17/09 A3001 RMK AO2 T01720089
K5C1 242335Z AUTO 13003KT 10SM BKN060 28/12 A3012 RMK AO1
K5H4 242335Z AUTO 28013G20KT 10SM CLR 15/M02 A2989 RMK AO2
K5M9 242335Z AUTO 22003KT 10SM CLR 15/12 A3006 RMK AO2 T01540119
K5R8 242335Z AUTO 00000KT 10SM CLR 18/14 A3010 RMK AO2 T01800139
K5SM 242338Z AUTO 00000KT 10SM CLR 10/M05 A3057 RMK AO2
K5W8 242335Z AUTO 00000KT 10SM CLR 12/11 A2998 RMK AO2 T01150110
K65S 242335Z AUTO 00000KT 10SM OVC060 10/06 A3008 RMK AO2
K66R 242335Z AUTO 00000KT 7SM CLR 25/15 A3008 RMK AO2 T02500151
K6A2 242335Z AUTO 00000KT 10SM SCT110 13/09 A3001 RMK AO2
K6B0 242335Z AUTO 34003KT 10SM SCT032 BKN037 OVC090 08/07 A2983 RMK AO2 T00760068
K6L4 242335Z AUTO 28003KT 10SM CLR 11/06 A3006 RMK AO2
K6R3 242215Z AUTO 02003KT 7SM CLR 25/16 A3010 RMK AO2 T02500158
K6R6 242253Z AUTO 12010KT 28/15 A3009 RMK AO1 SLP160 T02780150
K79J 242256Z AUTO 00000KT 10SM CLR 23/07 A3001 RMK AO2 SLP157 T02330072
K7BM 242334Z AUTO 31005KT 10SM CLR 16/M12 A3048 RMK AO2
K7L2 242335Z AUTO 30006KT 10SM CLR 17/03 A2996 RMK AO2 PWINO PNO
K7R3 241802Z 32005KT 10SM CLR 24/11 A3009
K7R4 242241Z 35004KT 7SM SKC 21/14 A3009
K7W4 242335Z AUTO 00000KT 10SM CLR 11/08 A2995 RMK AO1 T01080079
K82V 242335Z AUTO 28006KT 10SM CLR 21/M01 A3013 RMK AO2
K8A0 242335Z AUTO 31003KT 10SM CLR 16/08 A3004 RMK AO2
K8D3 242256Z AUTO 28007KT 22/05 A2985 RMK AO1 SLP105 T02170050
K8S0 242315Z 26010KT
K8W2 242335Z AUTO 00000KT 10SM CLR 09/04 A2997 RMK AO1 T00880038
K96D 242335Z AUTO 30008G17KT 10SM 16/02 A2977 RMK AO2
K9D7 242335Z AUTO 29011KT 10SM CLR 13/00 A2984 RMK AO2
K9F2 242130Z 03010KT 7SM SKC 22/10 A3003 RMK LAST
K9L2 242255Z AUTO 26004KT 10SM CLR 30/M06 A2996 RMK AO2 SLP137 T03001056 $
K9MN 242334Z AUTO 16004KT 7SM BKN010 15/14 A2989 RMK AO1 T01490135
K9V9 242335Z AUTO 00000KT 10SM CLR 19/03 A2995 RMK AO2 T01940027
KAAA 242335Z AUTO 00000KT 10SM CLR 15/12 A2997 RMK AO2 T01470116
KAAF 242253Z AUTO 25003KT 10SM CLR 22/11 A2999 RMK AO2 SLP154 T02170111 TSNO
KAAO 242254Z AUTO 21006KT 10SM CLR 26/16 A2999 RMK AO2 SLP147 T02610156 $
KAAT 242255Z AUTO 22016G26KT 10SM CLR 22/M01 A2992 RMK AO2 PK WND 21026/2249 SLP100 T02221011
KABE 242251Z 33004KT 10SM CLR 16/06 A2984 RMK AO2 SLP104 T01610056
KABI 242252Z 20009KT 10SM CLR 29/11 A3009 RMK AO2 SLP166 T02940111 $
KABQ 242252Z 20005KT 10SM CLR 25/M01 A3024 RMK AO2 SLP174 T02501006
KABR 242253Z AUTO 29008KT 10SM CLR 23/04 A2990 RMK AO2 SLP128 T02280044
KABY 242253Z 00000KT 10SM CLR 19/13 A3000 RMK AO2 SLP159 T01940128
KACB 242339Z AUTO 00000KT 10SM OVC016 11/09 A2994 RMK AO2 T01140090
KACJ 242335Z AUTO 00000KT 10SM CLR 15/11 A3001 RMK AO2
KACK 242253Z 32009KT 10SM BKN019 OVC023 12/09 A2971 RMK AO2 SLP062 T01170089
KACP 242335Z AUTO 00000KT 10SM CLR 16/13 A3010 RMK AO2 T01570130
KACQ 242335Z AUTO 26004KT 10SM CLR 15/08 A2990 RMK AO2
KACT 242251Z 16006KT 10SM CLR 27/16 A3008 RMK AO2 SLP179 T02720156
KACV 242253Z AUTO 20014G21KT 10SM CLR 22/12 A2973 RMK AO2 SLP070 T02170122
KACY 242254Z 24006KT 10SM CLR 16/08 A2983 RMK AO2 SLP101 T01610083
KADC 242334Z AUTO 22004KT 10SM CLR 17/06 A2981 RMK AO2
KADF 242256Z AUTO 00000KT 10SM CLR 21/17 A3010 RMK AO2 T02110172 SLP206
KADG 242253Z AUTO 21003KT 10SM OVC037 12/08 A3000 RMK AO2 SLP166 T01220078
KADH 242335Z AUTO 20005KT 10SM CLR 25/18 A3005 RMK AO2
KADM 242255Z 18007KT 10SM SKC 27/18 A3004
KADS 242150Z 18006KT 20SM SKC 28/15 A3008
KADU 242335Z AUTO 24003KT 10SM CLR 18/13 A2994 RMK AO2
KADW 242258Z AUTO 28009KT 10SM CLR 16/04 A2991 RMK AO2 SLP135 T01560044 $
KAEG 242250Z 26005KT 10SM SKC 25/00 A3027
KAEJ 242335Z AUTO 25012G17KT 10SM CLR 19/M09 A3035 RMK AO2 T01931094
KAEL 242334Z AUTO 00000KT 10SM CLR 17/13 A2989 RMK AO2
KAEX 242253Z 01005KT 10SM CLR 22/10 A3009 RMK AO2 SLP192 T02220100
KAFF 242258Z AUTO 14011KT 10SM CLR 23/M09 A3022 RMK AO2 SLP164 T02321091
KAFJ 242335Z AUTO 00000KT 10SM CLR 07/03 A3003 RMK AO1
KAFK 242335Z AUTO 00000KT 7SM CLR 22/13 A2992 RMK AO2 T02160132
KAFN 242252Z AUTO 33003KT 10SM OVC015 08/04 A2975 RMK AO2 SLP082 T00780044
KAFO 242335Z AUTO 20007KT 10SM CLR 17/M04 A3018 RMK AO2
KAFP 242335Z AUTO 00000KT 10SM CLR 15/10 A2998 RMK AO2 T01500095
KAFW 242253Z 20005KT 10SM FEW300 28/15 A3005 RMK AO2 SLP167 T02780150
KAGC 242253Z 25005KT 10SM CLR 13/01 A3000 RMK AO2 SLP167 T01330011
KAGS 242253Z 00000KT 10SM CLR 16/09 A2998 RMK AO2 SLP150 T01610089
KAHN 242251Z 00000KT 10SM CLR 16/10 A2999 RMK AO2 SLP157 T01610100
KAHQ 242335Z AUTO 34004KT 10SM CLR 21/10 A2994 RMK AO2 T02050095
KAIA 242253Z AUTO 36004KT 10SM CLR 26/03 A3002 RMK AO2 SLP139 T02560028 $
KAIB 242335Z AUTO 00000KT 10SM CLR 23/M03 A3031 RMK AO2
KAID 241956Z 26010KT 10SM CLR 18/07 A3004
KAIG 242335Z AUTO 18005KT 10SM OVC024 11/10 A2988 RMK AO2 T01120097
KAIK 242355Z AUTO 00000KT 10SM CLR 16/09 A3003 RMK AO2 PNO
KAIO 242015Z AUTO 22010KT 10SM CLR 22/16 A2989 RMK AO2
KAIT 242334Z AUTO 22004KT 10SM CLR 18/04 A2978 RMK AO2
KAIZ 242335Z AUTO 20007KT 10SM CLR 22/14 A3001 RMK AO1
KAJG 242335Z AUTO 00000KT 10SM CLR 18/11 A3003 RMK AO2
KAJO 242304Z AUTO 27010KT 10SM FEW001 32/07 A2992 RMK AO2 $
KAJZ 242335Z AUTO 21005KT 7SM CLR 25/00 A3022 RMK AO2 T02510001
KAKH 242254Z AUTO 00000KT 10SM CLR 14/09 A2999 RMK AO2 SLP156 T01390089
KAKO 242253Z AUTO 23003KT 10SM CLR 26/M04 A3012 RMK AO2 SLP150 T02611044
KAKQ 242254Z AUTO 00000KT 10SM CLR 12/10 A2994 RMK AO2 SLP141 T01220100 TSNO $
KAKR 242254Z AUTO 23003KT 10SM CLR 13/04 A2999 RMK AO2 SLP161 T01280039
KALB 242251Z 03007KT 10SM FEW008 SCT035 OVC060 08/07 A2984 RMK AO2 SLP106 T00830067 $
KALI 242253Z AUTO 10006KT 10SM CLR 29/14 A3006 RMK AO2 SLP175 T02940144
KALK 242256Z AUTO VRB03KT 10SM CLR 28/04 A3019 RMK AO2 SLP138 T02780039 TSNO
KALN 242145Z 22006KT 10SM SCT150 21/08 A3002
KALO 242345Z 20005KT 2SM BR BKN008 14/14 A2991 RMK AO2 T01440139
KALS 242252Z AUTO 00000KT 10SM CLR 21/M07 A3034 RMK AO2 SLP225 T02111067
KALW 242253Z VRB03KT 6SM -RA BKN065 OVC085 14/11 A2999 RMK AO2 SLP156 P0001 T01440106
KALX 242335Z AUTO 00000KT 10SM CLR 16/10 A3004 RMK AO2 T01570095
KAMA 242253Z 19010KT 10SM CLR 28/06 A3010 RMK AO2 SLP152 T02780061
KAMG 242253Z AUTO 00000KT 10SM CLR 16/10 A2998 RMK AO2 SLP152 T01610100
KAMN 242335Z AUTO 27004KT 7SM CLR 10/08 A2998 RMK AO2 T01020083
KAMW 242253Z AUTO 23005KT 9SM CLR 19/14 A2990 RMK AO2 SLP120 T01940144
KANB 242253Z AUTO 30004KT 10SM CLR 21/05 A3003 RMK AO2 SLP167 T02060050
KAND 242256Z AUTO 00000KT 10SM CLR 16/08 A3000 RMK AO2 SLP156 T01610083
KANE 242259Z 20004KT 10SM BKN250 18/12 A2984
KANJ 242255Z AUTO 20007KT 10SM OVC014 11/08 A2989 RMK AO2 SLP123 T01060078
KANK 242335Z AUTO 22007KT 10SM CLR 20/M08 A3039 RMK AO1 T02021076
KANQ 242355Z AUTO 00000KT 10SM FEW034 12/10 A2999 RMK
KANW 242335Z AUTO 00000KT 7SM CLR 20/03 A2999 RMK AO2 T02030027
KAOH 242253Z AUTO 00000KT 10SM FEW041 14/07 A3001 RMK AO2 SLP165 T01440067
KAOO 242253Z AUTO 29004KT 10SM CLR 11/03 A2997 RMK AO2 SLP151 T01060033
KAPA 242253Z 11008KT 10SM FEW200 24/M05 A3016 RMK AO2 SLP148 T02441050
KAPC 242254Z AUTO 20016KT 10SM CLR 20/14 A2989 RMK AO2 SLP112 T02000139
KAPF 242253Z 06009KT 10SM FEW048 26/18 A2984 RMK AO2 SLP102 T02560178
KAPG 242050Z 32008KT 7SM BKN120 20/07 A2986
KAPN 242254Z AUTO 22003KT 10SM OVC020 12/08 A2993 RMK AO2 SLP138 T01220083
KAPY 242335Z AUTO 10005KT 10SM SCT070 29/12 A3005 RMK AO2 T02960122
KAQP 242334Z AUTO 26006KT 10SM CLR 18/04 A2986 RMK AO2
KAQR 242335Z AUTO 00000KT 10SM CLR 24/16 A3006 RMK AO2
KAQV 242256Z AUTO 36003KT 10SM CLR 22/11 A3010 RMK AO2 SLP191 T02170111
KAQW 242314Z AUTO 27010KT 10SM BKN011 BKN015 OVC021 08/06 A2982 RMK AO2 T00780056
KARA 242253Z 02008KT 10SM CLR 23/08 A3008 RMK AO2 SLP186 T02280083
KARB 242253Z AUTO 22005KT 10SM SCT038 12/06 A2998 RMK AO2 SLP158 T01220061
KARG 242335Z AUTO 19005KT 3SM CLR 19/13 A3006 RMK AO1
KARM 242335Z AUTO 06003KT 10SM CLR 25/13 A3010 RMK AO2 T02450131
KARR 242252Z 20004KT 8SM SCT090 17/07 A2996 RMK AO2 SLP144 T01670072
KART 242256Z AUTO 21005KT 10SM CLR 11/07 A2988 RMK AO2 SLP120 T01060067
KARV 242335Z AUTO 23007KT 10SM OVC019 14/10 A2984 RMK AO2 T01400100
KARW 242335Z AUTO 19003KT 10SM CLR 15/12 A2998 RMK AO2
KASD 242253Z AUTO 35004KT 10SM CLR 22/08 A3005 RMK AO2 SLP174 T02220083
KASE 242253Z 34005KT 10SM CLR 19/M02 A3035 RMK AO2 SLP191 T01891022
KASG 242248Z 18004KT 10SM BKN250 21/16 A3010
KASH 242251Z 33011KT 10SM OVC025 10/05 A2974 RMK AO2 T01000050 SLP320 $
KASJ 242335Z AUTO 00000KT 10SM CLR 12/10 A2996 RMK AO2 T01190096
KASL 242335Z AUTO 00000KT 10SM CLR 23/18 A3012 RMK AO1 T02300176
KASN 242335Z AUTO 00000KT 7SM CLR 20/04 A3004 RMK AO2 T01970037
KAST 242255Z AUTO 10004KT 10SM -RA OVC080 13/10 A2983 RMK AO2 RAB22 SLP100 P0000 T01280100
KASW 242335Z AUTO 00000KT 10SM CLR 15/09 A2999 RMK AO2
KASX 242253Z AUTO 21012KT 10SM CLR 16/11 A2978 RMK AO2 SLP089 T01560111
KATL 242252Z 32006KT 10SM CLR 19/06 A3000 RMK AO2 SLP158 T01940056
KATP 242335Z AUTO 36010KT 8SM CLR 24/14 A3002 RMK A01
KATT 242251Z AUTO 13003KT 10SM CLR 28/16 A3009 RMK AO2 SLP181 T02780156
KATW 242245Z VRB04KT 10SM BKN065 11/09 A2991
KATY 242253Z AUTO 26005KT 10SM CLR 17/06 A2991 RMK AO2 SLP131 T01720061
KAUG 242253Z AUTO 34014G22KT 10SM OVC018 08/05 A2968 RMK AO2 RAB2159E08 SLP052 P0000 T00780050
KAUH 242335Z AUTO 01005KT 10SM CLR 20/09 A2996 RMK AO2 T02000089
KAUM 242336Z AUTO 00000KT 3/4SM BR VV005 13/12 A2989 RMK AO2
KAUN 242335Z AUTO 22006KT 3SM CLR 23/08 A2991 RMK AO1
KAUO 242335Z AUTO 00000KT 10SM CLR 17/07 A3004 RMK AO1
KAUS 242253Z 08004KT 10SM FEW055 28/15 A3008 RMK AO2 SLP178 T02830150
KAUW 242254Z AUTO 17004KT 10SM OVC027 13/09 A2986 RMK AO2 SLP120 T01330089
KAVC 242335Z AUTO 00000KT 10SM SCT090 12/12 A3001 RMK AO2
KAVK 242335Z AUTO 19007KT 10SM CLR 25/16 A3000 RMK AO2
KAVL 242254Z 36005KT 10SM CLR 16/00 A3003 RMK AO2 SLP160 T01560000
KAVP 242254Z AUTO 34011KT 10SM CLR 15/04 A2987 RMK AO2 SLP112 T01500039
KAVX 242251Z AUTO VRB03KT 10SM CLR 26/08 A3000 RMK AO2 SLP127 T02610083
KAWG 242335Z AUTO 20004KT 9SM OVC010 16/16 A2994 RMK AO2
KAWM 242253Z AUTO 00000KT 10SM CLR 22/14 A3006 RMK AO2 SLP179 T02170139
KAWO 242335Z AUTO 34005KT 10SM CLR 13/09 A2993 RMK AO1
KAXA 242335Z AUTO 26004KT 10SM CLR 17/13 A2991 RMK AO2
KAXH 242335Z AUTO 00000KT 10SM CLR 22/13 A3009 RMK AO2 T02160130
KAXN 242253Z AUTO 25006KT 10SM CLR 19/06 A2984 RMK AO2 SLP108 T01940056
KAXO 242150Z 36010KT 7SM SKC 24/12 A3002 RMK LAST
KAXS 242335Z AUTO 19008KT 10SM CLR 31/12 A3003 RMK AO2 T03060123
KAXV 242334Z AUTO 00000KT 10SM BKN041 13/06 A3002 RMK AO2
KAXX 242335Z AUTO 25008KT 10SM CLR 18/M09 A3041 RMK AO2 T01831092
KAYS 242335Z AUTO 00000KT 10SM CLR 18/12 A2999 RMK AO2 T01750122
KAZC 242335Z AUTO 11003KT 10SM CLR 27/02 A3020 RMK AO2 T02690017
KAZE 242335Z AUTO 00000KT 10SM CLR 16/11 A2999 RMK AO2 T01640113
KAZO 242253Z 00000KT 10SM CLR 13/08 A2998 RMK AO2 SLP156 T01330083
KBAB 242258Z AUTO 20005KT 10SM CLR 25/10 A2986 RMK AO2 SLP187 T02490102 $
KBAC 242335Z AUTO 29014G19KT 10SM CLR 17/00 A2988 RMK AO2
KBAD 242258Z AUTO 11003KT 10SM CLR 23/13 A3010 RMK AO2 SLP195 T02300127
KBAF 242253Z 33011G18KT 10SM OVC034 11/05 A2977 RMK AO2 SLP084 T01060050
KBAK 242247Z 17006KTS 10SM FEW045 SCT200 17/09 A3003
KBAN 242252Z AUTO 24010G19KT CLR 21/M12 A3008 RMK AO2 SLP065 T02111122 $
KBAX 242339Z AUTO 00000KT 10SM BKN028 11/09 A2996 RMK AO2 T01140085
KBAZ 242251Z 00000KT 10SM CLR 30/13 A3006 RMK AO2 SLP174 T03000133
KBBB 242334Z AUTO 29007KT 10SM CLR 17/06 A2986 RMK AO2
KBBD 242335Z AUTO 15004KT 10SM CLR 28/11 A3010 RMK
KBBF 242335Z AUTO 08009KT 8SM CLR 24/12 A3008 RMK A01
KBBG 242345Z 21004KT 10SM CLR 18/15 A3008
KBBP 242335Z AUTO 00000KT 10SM CLR 13/05 A2998 RMK AO2
KBBW 242253Z AUTO 34004KT 10SM CLR 27/04 A2998 RMK AO2 SLP133 T02670044
KBCB 242335Z AUTO 00000KT 10SM CLR 11/04 A3005 RMK AO2
KBCE 242253Z AUTO 15013KT 10SM CLR 19/M02 A3035 RMK AO2 SLP205 T01891017 TSNO
KBCK 242335Z AUTO 22003KT 7SM OVC010 15/15 A2989 RMK AO2 T01510149
KBCT 242253Z 04016KT 10SM BKN030 OVC040 24/21 A2984
KBDE 242253Z AUTO 25007G19KT 220V280 10SM CLR 20/04 A2965 RMK AO2 SLP043 T02000039 TSNO
KBDG 242335Z AUTO 00000KT 10SM CLR 22/00 A3034 RMK AO1 T02150003
KBDH 242335Z AUTO 22006KT 10SM 18/04 A2987 RMK AO2
KBDL 242251Z 33008G15KT 10SM OVC031 12/05 A2977 RMK AO2 SLP082 T01170050
KBDN 242335Z AUTO 33004KT 10SM CLR 12/08 A2991 RMK AO2
KBDR 242252Z 34006KT 10SM OVC044 13/07 A2979 RMK AO2 SLP086 T01330072
KBDU 242336Z AUTO 31005KT 10SM CLR 25/M03 A3014 RMK AO2
KBEA 242335Z AUTO 12008KT 10SM SCT070 28/13 A3007 RMK AO2 T02750131
KBED 242256Z 28007KT 10SM OVC026 10/06 A2972 RMK AO2 SLP076 T01000061
KBEH 242253Z AUTO 00000KT 7SM CLR 12/09 A2997 RMK AO2 SLP151 T01170089
KBFD 242253Z AUTO 30005KT 10SM CLR 10/02 A2996 RMK AO2 SLP151 T01000017
KBFF 242253Z AUTO 30012KT 10SM CLR 27/ A3003 RMK AO2 SLP137 T0267 $
KBFI 242253Z 30005KT 10SM OVC120 14/09 A2993 RMK AO2 SLP136 T01440089
KBFL 242254Z 28007KT 5SM HZ CLR 28/09 A2988 RMK AO2 SLP112 T02830089
KBFM 242253Z 01007KT 10SM CLR 22/09 A3004 RMK AO2 SLP170 T02170089
KBFW 242334Z AUTO 21004KT 10SM CLR 16/11 A2972 RMK AO2
KBGD 242251Z AUTO 21003KT 10SM CLR 31/04 A3006 RMK AO2 SLP145 T03060044
KBGE 242335Z AUTO 34005KT 10SM CLR 18/11 A3000 RMK AO2
KBGF 242335Z AUTO 00000KT 10SM CLR 14/06 A3007 RMK
KBGM 242253Z 31007KT 10SM CLR 11/04 A2989 RMK AO2 SLP125 T01060039
KBGR 242253Z 36011KT 3SM -RA BR BKN009 OVC011 07/06 A2966 RMK AO2 DZE07RAB07 SLP045 P0003 T00670056
KBHB 242335Z AUTO 36008KT 330V030 10SM OVC012 07/07 A2963 RMK AO1
KBHC 242335Z AUTO 00000KT 10SM CLR 16/11 A2999 RMK AO2
KBHK 242251Z AUTO 29007KT 10SM OVC100 14/M01 A3006 RMK AO2 SLP171 T01391011
KBHM 242253Z 34006KT 10SM FEW250 19/03 A3006 RMK AO2 SLP176 T01890033
KBID 242335Z AUTO 33009G19KT 10SM OVC034 12/05 A2975 RMK AO1
KBIE 242335Z AUTO 00000KT 10SM CLR 21/14 A2993 RMK AO2 T02070143
KBIF 242258Z AUTO 06005KT 9SM CLR 28/06 A3016 RMK AO2 SLP159 T02760058
KBIH 242256Z AUTO 16021G26KT 10SM CLR 28/M07 A2996 RMK AO2 PK WND 17030/2200 SLP110 T02831067
KBIJ 242335Z AUTO 00000KT 10SM CLR 16/11 RMK AO2
KBIL 242253Z 06004KT 10SM OVC100 14/03 A3007 RMK AO2 SLP177 T01390028
KBIS 242252Z 28012KT 10SM BKN120 18/01 A2995 RMK AO2 SLP148 T01780011
KBIV 242253Z AUTO 23003KT 9SM CLR 13/09 A2998 RMK AO2 SLP133 T01280089
KBIX 242258Z AUTO 01005KT 10SM CLR 23/09 A3003 RMK AO2 SLP172 T02280088
KBJC 242250Z 00000KT 50SM SKC 27/M05 A3016
KBJI 242333Z AUTO 27011G16KT 10SM CLR 17/06 A2977 RMK AO2 T01670055
KBJJ 242256Z AUTO 23003KT 10SM OVC042 15/04 A3000 RMK AO2 SLP163 T01500039 TSNO
KBKB 242254Z AUTO VRB03KT 10SM CLR 22/10 A3008 RMK AO2 SLP213 T02220100
KBKD 242335Z AUTO 19005KT 5SM HZ CLR 29/13 A3006 RMK AO2 T02850126
KBKE 242253Z AUTO 09007KT 10SM BKN018 BKN024 OVC036 11/08 A3002 RMK AO2 SLP168 T01110078
KBKF 242258Z 11007KT 10SM CLR 25/M05 A3016 RMK AO2A SLP146 T02521055
KBKL 242253Z 00000KT 10SM BKN044 13/07 A2999 RMK AO2 SLP157 T01330072
KBKN 242335Z AUTO 19006KT 10SM CLR 24/18 A2999 RMK AO2
KBKS 242335Z AUTO 10006KT 10SM CLR 27/16 A3007 RMK AO1 T02680155
KBKT 242335Z AUTO 00000KT 10SM CLR 12/10 A2996 RMK AO1 T01190097
KBKV 242253Z AUTO 02004KT 10SM CLR 22/14 A2993 RMK AO2 SLP134 T02220144
KBKW 242251Z AUTO 00000KT 10SM CLR 11/03 A3005 RMK AO2 SLP184 T01060028 TSNO
KBLF 242252Z AUTO 30005KT 10SM CLR 12/02 A3007 RMK AO2 SLP178 T01170022
KBLH 242252Z AUTO 20008KT 10SM CLR 35/07 A2990 RMK AO2 SLP118 T03500072
KBLI 242253Z 01010KT 10SM CLR 13/07 A2996 RMK AO2 SLP153 T01280067
KBLM 242335Z AUTO 12004KT 10SM SCT055 14/08 A2981 RMK AO1
KBLU 242252Z AUTO 17014KT 10SM CLR 18/M01 A3008 RMK AO2 SLP122 T01781011
KBLV 242258Z AUTO 19002KT 10SM CLR 19/11 A3000 RMK AO2 SLP161 T01870106 $
KBMC 242335Z AUTO 34003KT 10SM CLR 23/00 A3010 RMK AO1 T02301003
KBMG 242253Z 00000KT 10SM CLR 15/11 A3004 RMK AO2 SLP172 T01500106
KBMI 242256Z 21006KT 6SM HZ CLR 16/11 A3001 RMK AO2 T01550111 SLP161
KBML 242252Z AUTO 00000KT 10SM OVC016 07/06 A2975 RMK AO2 SLP081 T00670056
KBMQ 242253Z AUTO 14005KT 10SM CLR 28/14 A3012 RMK AO2 SLP184 T02830139
KBMT 242335Z AUTO 00000KT 10SM CLR 21/12 A3010 RMK AO2 T02090116
KBNA 242253Z 31004KT 10SM FEW140 BKN250 18/08 A3007 RMK AO2 SLP180 T01830078
KBNL 242355Z AUTO 00000KT 10SM CLR 18/10 A3000 RMK AO2
KBNO 242253Z AUTO 04013KT 10SM CLR 14/08 A2997 RMK AO2 SLP139 T01440078
KBNW 242335Z AUTO 23004KT 10SM CLR 19/15 A2991 RMK AO2
KBOI 242253Z AUTO 32008KT 9SM CLR 19/10 A2998 RMK AO2 SLP138 T01890100
KBOK 242256Z AUTO 15011G17KT 9SM OVC044 19/14 A2976 RMK AO2 T01880138 OVC V BKN SLP078
KBOS 242254Z 31007KT 10SM FEW016 BKN029 OVC050 11/06 A2972 RMK AO2 SLP064 T01060061
KBOW 242335Z AUTO 05005KT 10SM CLR 21/13 A2993 RMK AO2
KBPC 242335Z AUTO 17005KT 10SM CLR 28/06 A3004 RMK AO2
KBPG 242335Z AUTO 04003KT 10SM CLR 28/10 A3012 RMK AO2 T02750102
KBPI 242253Z AUTO 27019KT 10SM CLR 18/M07 A3024 RMK AO2 RAB18E53 SLP186 P0000 T01831072
KBPK 242253Z AUTO 00000KT 8SM CLR 19/15 A3006 RMK AO2 SLP175 T01940150
KBPT 242253Z 01007KT 10SM CLR 24/09 A3008 RMK AO2 SLP187 T02390094
KBQK 242335Z AUTO 00000KT 10SM CLR 15/11 A3000 RMK AO1
KBQP 242335Z AUTO 00000KT 10SM CLR 15/13 A3011 RMK AO2 T01500130
KBRD 242253Z AUTO 25005KT 10SM CLR 17/04 A2980 RMK AO2 SLP093 T01670044
KBRL 242253Z AUTO 19008KT 10SM CLR 18/14 A2991 RMK AO2 SLP128 T01780144
KBRO 242253Z 03009KT 10SM CLR 27/18 A3008 RMK AO2 SLP183 T02670183
KBTA 242335Z AUTO 24003KT 10SM CLR 21/13 A2993 RMK AO2 T02120125
KBTL 242253Z 27003KT 10SM CLR 14/07 A2998 RMK AO2 SLP155 T01390072
KBTM 242253Z AUTO 00000KT 10SM OVC065 08/04 A3012 RMK AO2 RAE10 SLP187 P0000 T00830039
KBTP 242335Z AUTO 00000KT 10SM CLR 10/01 A3002 RMK AO1
KBTR 242253Z 34003KT 10SM CLR 23/08 A3008 RMK AO2 SLP183 T02280078
KBTV 242254Z 00000KT 10SM BKN038 OVC050 09/06 A2985 RMK AO2 SLP111 T00890056
KBUF 242254Z 25008KT 10SM FEW190 FEW280 11/06 A2995 RMK AO2 SLP147 T01060061
KBUR 242253Z 15008KT 10SM CLR 31/M03 A2994 RMK AO2 SLP125 T03061033
KBUU 242335Z AUTO 00000KT 10SM SCT080 10/09 A2994 RMK AO2 T01040090
KBUY 242254Z AUTO 00000KT 10SM CLR 14/06 A2997 RMK AO2 SLP148 T01390061
KBVE 242251Z AUTO 00000KT 10SM CLR 22/11 A3004 RMK AO2 SLP172 T02170111
KBVI 242247Z 26003KT 10SM CLR 12/03 A3000
KBVN 242335Z AUTO 00000KT 5SM HZ CLR 20/04 A2997 RMK AO2 T02010043
KBVO 242253Z AUTO 16005KT 10SM CLR 25/18 A3002 RMK AO2 SLP157 T02500178
KBVS 242335Z AUTO 33004KT 10SM CLR A2995 RMK A01 P000
KBVU 242335Z AUTO 14012KT 10SM CLR 31/M04 A3000 RMK AO2
KBVX 242335Z AUTO 19003KT 10SM CLR 21/14 A3008 RMK AO1
KBVY 242253Z 30006KT 10SM BKN036 OVC050 10/06 A2971 RMK AO2 SLP057 T01000061
KBWD 242335Z AUTO 14004KT 10SM CLR 27/14 A3009 RMK AO2
KBWG 242253Z AUTO 00000KT 10SM CLR 18/08 A3007 RMK AO2 SLP182 T01780078
KBWI 242254Z 30003KT 10SM FEW160 BKN250 16/02 A2990 RMK AO2 SLP125 T01560017
KBWP 242335Z AUTO 30011KT 10SM CLR 19/02 A2984 RMK AO1
KBXA 242335Z AUTO 34003KT 10SM 19/08 A3008 RMK AO2 T01880083
KBXK 242335Z AUTO 15003KT 10SM CLR 33/09 A2994 RMK AO1
KBYG 242253Z AUTO 36007KT 10SM 17/M01 A3009 RMK AO2 SLP155 T01671006 $
KBYH 242050Z 27008KT 10SM SKC 22/13 A3007 RMK LAST
KBYI 242253Z AUTO 01006KT 10SM CLR 23/01 A3002 RMK AO2 SLP136 T02330011
KBYS 242255Z AUTO 11015G19KT 10SM CLR 29/01 A2998 RMK AO2 SLP114 T02930005 $
KBYY 242335Z AUTO 09003KT 10SM 24/15 A3008 RMK AO2 T02480152
KBZN 242256Z 32003KT 10SM -RA SCT065 BKN080 OVC090 09/06 A3012 RMK AO2 RAE2157B56 SLP187 P0000 T00940056
KC09 242335Z AUTO 21005KT 10SM BKN090 16/08 A2995 RMK AO2 T01560082
KC29 242335Z AUTO 22003KT 10SM OVC031 16/10 A2993 RMK AO1 T01570095
KC35 242335Z AUTO 19006KT 10SM OVC021 15/11 A2991 RMK AO2 T01480107
KC75 242335Z AUTO 15003KT 10SM CLR 14/08 A2995 RMK AO2 T01430081
KCAD 242334Z AUTO 23006KT 10SM OVC011 10/08 A2995 RMK AO2 T01020087
KCAE 242256Z 36003KT 10SM BKN150 18/09 A2998 RMK AO2 SLP151 T01830094
KCAG 242253Z AUTO 27016KT 10SM CLR 22/M06 A3024 RMK AO2 WSHFT 2225 SLP206 T02221056
KCAK 242251Z 21003KT 10SM FEW200 13/04 A3000 RMK AO2 SLP165 T01330039
KCAO 242255Z AUTO 17009KT 10SM CLR 27/M02 A3015 RMK AO2 SLP150 T02721017
KCAR 242254Z AUTO 35007KT 7SM -RA OVC034 06/04 A2967 RMK AO2 SLP056 P0004 T00560039
KCAV 242335Z AUTO 00000KT 10SM CLR 17/14 A2991 RMK AO2
KCBE 242338Z AUTO 00000KT 10SM CLR 14/02 A3003 RMK AO1
KCBF 242335Z AUTO 00000KT 10SM CLR 20/16 A2992 RMK AO2
KCBG 242335Z AUTO 18003KT 10SM CLR 17/10 A2981 RMK AO2
KCBK 242335Z AUTO 00000KT 10SM CLR 27/03 A3004 RMK AO2
KCBM 242258Z AUTO 34004KT 10SM CLR 19/08 A3007 RMK AO2 SLP185 T01920080 $
KCCO 242335Z AUTO 00000KT 10SM CLR 16/11 A3002 RMK AO2 T01630112
KCCR 242253Z 25013KT 10SM CLR 22/13 A2988 RMK AO2 SLP105 T02170128
KCCU 242337Z AUTO 26013KT 10SM CLR 10/M10 A3064 RMK AO2
KCCY 242335Z AUTO 17004KT 1/4SM FG OVC008 14/14 A2991 RMK AO2
KCDA 242335Z AUTO 30007KT 10SM BKN013 OVC035 06/03 A2981 RMK AO2 T00630033
KCDC 242253Z AUTO 22014KT 10SM CLR 23/M04 A3019 RMK AO2 SLP175 T02331044 TSNO
KCDD 242333Z AUTO 00000KT 10SM CLR 17/04 A2969 RMK AO2
KCDH 242335Z AUTO 00000KT 10SM CLR 17/13 A3010 RMK AO2
KCDJ 242252Z AUTO 18006KT 22/17 A2992 RMK AO1 SLP126 T02220167
KCDN 242335Z AUTO 00000KT 10SM CLR 15/10 A2999 RMK AO2 TSNO
KCDR 242253Z AUTO 07003KT 10SM CLR 25/04 A2999 RMK AO2 SLP147 T02500044
KCDS 242253Z AUTO 24008KT 10SM CLR 32/09 A3004 RMK AO2 SLP148 T03170094
KCDW 242253Z 32007KT 10SM FEW055 17/04 A2980 RMK AO2 SLP097 T01720039
KCEC 242256Z AUTO 17015KT 10SM BKN047 BKN055 20/13 A2974 RMK AO2 SLP071 T02000133
KCEF 242301Z AUTO 33005KT 10SM OVC030 10/06 A2976 RMK AO2
KCEU 242254Z AUTO 15003KT 10SM CLR 17/09 A3001 RMK AO2 SLP159 T01670094
KCEW 242253Z AUTO 34003KT 10SM CLR 22/09 A3002 RMK AO2 SLP164 T02220089
KCEY 242335Z AUTO 25003KT 10SM CLR 15/11 A3006 RMK AO1
KCEZ 242253Z AUTO 28009KT 10SM CLR 23/M04 A3029 RMK AO2 SLP214 T02281044
KCFD 242335Z AUTO 00000KT 10SM CLR 24/15 A3011 RMK AO2 T02390151
KCFE 242335Z AUTO 20003KT 10SM CLR 17/11 A2985 RMK AO2 T01700106
KCFS 242334Z AUTO 00000KT 10SM SCT036 11/09 A2995 RMK AO2 T01100085
KCFV 242252Z AUTO 16007KT 10SM CLR 23/17 A3001 RMK AO2 SLP160 T02280167
KCGC 242335Z AUTO 00000KT 10SM CLR 19/12 A2993 RMK AO2 PWINO
KCGE 242336Z AUTO 28005KT 10SM CLR 15/06 A2991 RMK AO1
KCGF 242245Z 00000KT 10SM SCT100 10/08 A3000
KCGI 242253Z AUTO 00000KT 10SM CLR 20/12 A3005 RMK AO2 SLP173 T02000117 TSNO
KCGS 242335Z AUTO 00000KT 10SM CLR 12/06 A2992 RMK AO1
KCGZ 242335Z AUTO 00000KT 10SM CLR 33/07 A2997 RMK AO1
KCHA 242253Z 31003KT 10SM SCT200 18/08 A3003 RMK AO2 SLP165 T01830078
KCHD 242247Z VRB03KT 40SM SKC 34/09 A2996
KCHO 242253Z 00000KT 10SM CLR 17/04 A2994 RMK AO2 SLP136 T01720044
KCHS 242256Z 31003KT 10SM FEW200 19/10 A2998 RMK AO2 SLP152 T01890100
KCIC 242248Z 14010KT 10SM BKN250 24/09 A2988 RMK FU DSNT S THRU WEST
KCID 242252Z 20006KT 2 1/2SM BR FEW008 BKN018 OVC029 16/16 A2992 RMK AO2 RAE2157B27E37 SLP132 P0000 T01560156
KCIN 242335Z AUTO 27005KT 10SM CLR 18/12 A2991 RMK AO2
KCIR 242335Z AUTO 00000KT 1 3/4SM HZ VV007 17/12 A3005 RMK AO2 T01700121
KCIU 242335Z AUTO 20006KT 10SM OVC011 10/09 A2989 RMK AO1
KCJR 242335Z AUTO 00000KT 10SM CLR 10/06 A2995 RMK AO2
KCKB 242253Z 22003KT 10SM CLR 12/03 A3002 RMK AO2 SLP165 T01170033
KCKC 242334Z AUTO 21004KT 10SM CLR 10/07 A2972 RMK AO2
KCKF 242335Z AUTO 00000KT 10SM CLR 17/11 A3000 RMK AO2 T01690110
KCKI 242335Z AUTO 00000KT 10SM CLR 16/12 A2998 RMK AO2
KCKM 242335Z AUTO 00000KT 10SM CLR 20/13 A3010 RMK AO1
KCKN 242335Z AUTO 29012KT 10SM CLR 17/01 A2981 RMK AO2
KCKP 242335Z AUTO 00000KT 10SM CLR 17/10 A2992 RMK AO2 T01720096
KCKV 242252Z AUTO 30004KT 10SM SCT040 18/11 A3007 RMK AO2 SLP182 T01830111
KCLE 242251Z 00000KT 10SM OVC042 13/07 A3002 RMK AO2 SLP167 T01330072
KCLI 242335Z AUTO 19004KT 10SM BKN055 BKN070 BKN080 11/10 A2989 RMK AO2
KCLK 242335Z AUTO 20003KT 10SM CLR 27/13 A3003 RMK AO2
KCLL 242253Z 08005KT 10SM CLR 27/14 A3009 RMK AO2 SLP185 T02670139
KCLM 242253Z AUTO 11004KT 10SM OVC017 11/08 A2996 RMK AO2 SLPNO T01110078 TSNO
KCLS 242335Z AUTO 00000KT 10SM CLR 12/11 A2987 RMK AO2
KCLT 242252Z 27003KT 10SM BKN200 16/08 A2999 RMK AO2 SLP154 T01610078
KCLW 242335Z AUTO 35005KT 10SM CLR 21/15 A2991 RMK AO2
KCMA 242255Z 23008KT 10SM CLR 24/15 A2993 RMK AO2 SLP142 T02390150
KCMD 242335Z AUTO 00000KT 10SM CLR 13/07 A3008 RMK AO2 T01300065
KCMH 242251Z 19003KT 10SM CLR 16/01 A3001 RMK AO2 SLP164 T01560011
KCMI 242253Z 22007KT 9SM CLR 16/12 A3001 RMK AO2 SLP164 T01560122 $
KCMX 242253Z AUTO 10003KT 10SM FEW040 12/07 A2974 RMK AO2 SLP077 T01220072
KCMY 242335Z AUTO 00000KT 10SM OVC010 15/13 A2991 RMK AO2 T01510129
KCNB 242333Z AUTO 26007KT 10SM CLR 19/05 A2990 RMK AO2 T01850047
KCNC 242335Z AUTO 17006KT 3SM BR CLR 16/15 A2991 RMK AO2
KCNI 242335Z AUTO 00000KT 10SM CLR 15/03 A3003 RMK AO2
KCNK 242255Z AUTO 26003KT 10SM CLR 27/14 A2993 RMK AO2 SLP124 T02670144
KCNM 242253Z AUTO 14008KT 10SM CLR 28/12 A3010 RMK AO2 SLP148 T02830122
KCNO 242253Z 25011KT 10SM CLR 32/06 A2993 RMK AO2 SLP131 T03220056
KCNU 242252Z AUTO 19010KT 10SM CLR 23/17 A3001 RMK AO2 SLP155 T02330172
KCNW 242153Z 15004KT 10SM SKC 28/15 A3008
KCNY 242253Z AUTO 13007KT 10SM CLR 26/01 A3015 RMK AO2 SLP170 T02560006
KCOD 242335Z 04009G16KT 10SM BKN120 16/03 A3006 RMK AO1
KCOE 242335Z AUTO 02007KT 10SM CLR 12/05 A3005 RMK AO1
KCOF 242312Z AUTO 05012KT 10SM OVC046 24/15 A2991 RMK AO2 WSHFT 2257
KCOM 242335Z AUTO 00000KT 10SM CLR 29/13 A3009 RMK AO2 T02900132
KCON 242336Z AUTO 31008KT 10SM BKN021 BKN110 08/04 A2973 RMK AO2 T00780044
KCOQ 242336Z AUTO 20006KT 10SM CLR 16/10 A2977 RMK AO2
KCOS 242254Z 15011KT 10SM CLR 24/M06 A3021 RMK AO2 SLP167 T02391056
KCOT 242253Z AUTO VRB03KT 10SM CLR 32/14 A3006 RMK AO2 SLP170 T03170139
KCOU 242254Z 20007KT 10SM CLR 21/16 A2999 RMK AO2 SLP151 T02060156
KCPC 242335Z AUTO 00000KT 10SM CLR 15/11 A2998 RMK AO2 T01470111
KCPK 242335Z AUTO 00000KT 10SM CLR 12/11 A2994 RMK AO2
KCPR 242253Z 24018KT 10SM CLR 23/M08 A3008 RMK AO2 PK WND 24031/2213 SLP135 T02281078
KCPS 242253Z 15004KT 10SM CLR 21/11 A3000 RMK AO2 SLP158 T02060106
KCPT 242335Z AUTO 16006KT 10SM CLR 26/17 A3009 RMK AO2
KCPW 242337Z AUTO 24011G17KT 10SM CLR 08/M02 RMK AO2
KCQB 242335Z AUTO 19003KT 7SM CLR 25/20 A3003 RMK AO2
KCQC 242253Z AUTO 29014KT 10SM CLR 23/M08 A3030 RMK AO2 SLP185 T02281078
KCQF 242335Z AUTO 00000KT 10SM CLR 18/08 A3003 RMK AO2
KCQM 242335Z AUTO 22006KT 10SM CLR 18/04 A2971 RMK AO2
KCQT 242347Z AUTO 00000KT 10SM CLR 28/11 A2991 RMK AO2 SLP127 T02830106 10311 20272 58003
KCQW 242335Z AUTO 00000KT 10SM CLR 13/09 A2998 RMK AO2
KCQX 242252Z AUTO VRB04KT 8SM OVC016 10/09 A2972 RMK AO2 RAB19E33 SLP063 P0000 T01000094
KCRE 242253Z 00000KT 10SM CLR 14/12 A2997 RMK AO1 SLP151 T01440117
KCRG 242253Z 04005KT 10SM CLR 19/13 A2997 RMK AO2 SLP147 T01890128
KCRH 242335Z AUTO 01010KT 10SM CLR 22/13 A3010 RMK A01
KCRP 242251Z 11008KT 10SM FEW037 27/16 A3007 RMK AO2 SLP181 T02670161
KCRQ 242253Z AUTO VRB03KT 10SM CLR 26/09 A2993 RMK AO2 SLP131 T02610094 TSNO
KCRS 242253Z AUTO 16006KT 10SM CLR 27/15 A3010 RMK AO2 SLP187 T02670150
KCRW 242254Z 22003KT 10SM CLR 14/05 A3004 RMK AO2 SLP172 T01390050
KCRX 242335Z AUTO 00000KT 10SM CLR 17/12 A3008 RMK AO2
KCSG 242251Z 35003KT 10SM CLR 22/07 A3000 RMK AO2 SLP155 T02170067
KCSM 242253Z 21007KT 10SM CLR 29/14 A3004 RMK AO2 SLP154 T02940144
KCSQ 242335Z AUTO 23004KT 10SM CLR 19/17 A2992 RMK AO2
KCSV 242253Z AUTO 32005KT 10SM CLR 16/02 A3007 RMK AO2 SLP179 T01610022
KCTB 242256Z AUTO 25021G28KT 10SM CLR 11/M01 A3003 RMK AO2 PK WND 25028/2252 SLP172 T01061011
KCTJ 242335Z AUTO 00000KT 10SM CLR 15/07 A3004 RMK AO2
KCTY 242253Z AUTO 34005KT 19/12 A2995 RMK AO1 SLP141 T01890122
KCTZ 242335Z AUTO 00000KT 10SM CLR 14/12 A2998 RMK AO2 T01350119
KCUB 242253Z AUTO 00000KT 10SM CLR 18/11 A2999 RMK AO2 SLP155 T01780111
KCUH 242335Z AUTO 20003KT 10SM CLR 25/18 A3002 RMK AO2
KCUL 242335Z AUTO 25003KT 10SM CLR 16/12 A3004 RMK AO2 T01620116
KCUT 242253Z AUTO 10007KT 10SM CLR 16/01 A3011 RMK AO2 SLP152 T01610011
KCVB 242335Z AUTO 15003KT 10SM BKN070 29/12 A3009 RMK AO2 T02920117
KCVC 242335Z AUTO 00000KT 10SM CLR 16/11 A3000 RMK AO2
KCVG 242252Z 19004KT 10SM FEW150 BKN250 14/03 A3003 RMK AO2 SLP168 T01440033
KCVH 242335Z AUTO 24019G22KT 10SM CLR 20/14 A2992 RMK AO1
KCVN 242335Z AUTO 23008KT 10SM CLR 26/04 A3017 RMK AO1
KCVO 242335Z AUTO 32003KT 7SM FEW005 SCT026 BKN035 12/11 A2983 RMK AO1
KCVS 242258Z AUTO 22010KT 10SM CLR 28/05 A3015 RMK AO2 SLP158 T02780046 $
KCVW 242335Z AUTO 01006KT 10SM CLR 21/11 A3011 RMK A01
KCVX 242335Z AUTO 00000KT 10SM OVC014 11/09 A2996 RMK AO2 T01130094
KCWA 242345Z 18005KT 10SM OVC024 12/11 A2989
KCWC 242335Z AUTO 22005KT 10SM CLR 28/13 A3004 RMK AO2 T02830134
KCWF 241950Z 36007KT 10SM SKC 24/09 A3009
KCWI 242335Z 00000KT 10SM OVC034 18/11 A2995 RMK AO1
KCWN 242256Z AUTO 17008KT 10SM CLR 20/M09 A3024 RMK AO2 SLP167 T02041086
KCWV 242335Z AUTO 00000KT 10SM CLR 15/13 A3000 RMK AO2
KCXO 242253Z 00000KT 10SM CLR 26/14 A3010 RMK AO2 SLP189 T02560139
KCXP 242335Z AUTO 20014G23KT 10SM CLR 25/M12 A2997 RMK AO2
KCXY 242256Z 27007KT 10SM CLR 16/02 A2990 RMK AO2 SLP125 T01610017
KCYS 242253Z 25010G22KT 10SM CLR 23/M08 A3018 RMK AO2 PK WND 28028/2201 SLP145 T02331078 $
KCZT 242335Z AUTO 00000KT 10SM CLR 29/15 A3005 RMK AO2
KCZZ 242252Z AUTO 25011KT 29/04 A2999 RMK AO1 SLP125 T02890044
KD07 242256Z AUTO 34010KT 18/01 A3002 RMK AO1 SLP167 T01780006
KD25 242335Z AUTO 21012G16KT 10SM OVC018 14/10 A2982 RMK AO2 T01360097
KD39 242332Z AUTO 27004KT 10SM CLR 17/07 A2984 RMK AO2 T01730066
KD50 242335Z AUTO 28009KT 10SM CLR 11/M02 A2994 RMK AO2
KD55 242335Z AUTO 30019KT 10SM CLR 14/00 A2980 RMK AO2
KD57 242335Z AUTO 26007KT 10SM SCT120 13/M01 A2998 RMK AO2 TSNO
KD60 242335Z AUTO 25009KT 10SM CLR 09/M02 A2998 RMK AO2
KD95 242333Z AUTO 00000KT 10SM SCT040 12/08 A2997 RMK AO2 T01210077
KDAA 242258Z AUTO 27003KT 10SM FEW230 16/04 A2993 RMK AO2 SLP138 T01570044
KDAB 242253Z 36005KT 10SM SCT042 SCT130 22/14 A2994 RMK AO2 SLP136 T02170144
KDAG 242250Z AUTO 09015KT 10SM CLR 33/02 A2993 RMK AO2 SLP114 T03280022
KDAL 242253Z 20006KT 10SM FEW250 28/16 A3006 RMK AO2 SLP172 T02830156
KDAN 242253Z AUTO 00000KT 10SM CLR 12/09 A2997 RMK AO2 SLP144 T01220094
KDAW 242251Z AUTO 30006KT 10SM OVC024 10/07 A2970 RMK AO2 SLP056 T01000067
KDAY 242256Z 20005KT 10SM SCT040 BKN150 16/04 A3003 RMK AO2 SLP170 T01560039
KDBN 242335Z AUTO 00000KT 10SM CLR 11/10 A3001 RMK AO2
KDBQ 242253Z 23011KT 10SM OVC028 17/12 A2991 RMK AO2 SLP130 T01720122
KDCA 242252Z 28007KT 10SM FEW150 BKN250 19/03 A2993 RMK AO2 SLP133 T01890033
KDCU 242253Z AUTO 00000KT 10SM CLR 18/07 A3006 RMK AO2 SLP177 T01780072
KDCY 242335Z AUTO 20003KT 10SM SCT041 SCT048 13/12 A3003 RMK AO2 T01260120
KDDC 242252Z AUTO 19007KT 10SM CLR 28/08 A3002 RMK AO2 SLP141 T02830078
KDDH 242254Z AUTO 30006KT 10SM BKN017 BKN022 OVC027 07/06 A2982 RMK AO2 SLP102 T00720056
KDEC 242254Z 19006KT 9SM CLR 16/12 A3001 RMK AO2 SLP164 T01560122
KDED 242335Z AUTO 35003KT 10SM CLR 19/14 A2995 RMK AO1
KDEH 242335Z AUTO 21004KT 9SM OVC006 15/14 A2990 RMK AO2
KDEN 242253Z 09011KT 10SM CLR 26/M06 A3014 RMK AO2 SLP134 T02611056
KDEQ 242253Z AUTO 00000KT 10SM CLR 23/16 A3008 RMK AO2 SLP181 T02330161
KDET 242253Z 23008KT 10SM BKN040 15/07 A2998 RMK AO2 SLP154 T01500067
KDEW 242253Z AUTO 02004KT 10SM CLR 12/05 A3007 RMK AO2 SLP188 T01170050
KDFI 242253Z AUTO 00000KT 10SM CLR 14/08 A3000 RMK AO2 SLP161 T01390083
KDFW 242253Z 18008KT 10SM FEW050 FEW300 28/16 A3006 RMK AO2 SLP170 T02780161
KDGW 242253Z AUTO 27015G20KT 10SM CLR 24/M07 A3008 RMK AO2 PK WND 28028/2158 SLP141 T02441067
KDHN 242253Z 35004KT 10SM CLR 20/08 A3003 RMK AO2 SLP167 T02000078
KDHT 242253Z AUTO 19008KT 10SM CLR 29/M01 A3012 RMK AO2 SLP154 T02891011
KDIJ 242256Z AUTO 27007KT 10SM CLR 18/M04 A3018 RMK AO2 T01831038 SLP153
KDIK 242256Z AUTO 28010KT 10SM FEW120 14/M01 A3000 RMK AO2 SLP164 T01391011
KDKB 242335Z AUTO 19005KT 10SM SCT085 12/06 A2996 RMK AO2 T01220057
KDKK 242253Z AUTO 23006KT 10SM CLR 11/07 A2998 RMK AO2 SLP155 T01060067
KDKR 242335Z AUTO 00000KT 10SM CLR 23/18 A3013 RMK AO2
KDLF 242258Z AUTO 17007KT 10SM CLR 29/18 A3007 RMK AO2 SLP172 T02870183 $
KDLH 242255Z 22010KT 10SM FEW120 18/10 A2975 RMK AO2 SLP080 T01780100
KDLL 242335Z AUTO 20006KT 10SM OVC026 15/09 A2991 RMK AO2 T01500092
KDLN 242253Z AUTO 36007KT 10SM OVC095 10/06 A3009 RMK AO2 SLP168 T01000061
KDLS 242253Z AUTO 00000KT 3SM -RA BR FEW050 OVC070 11/09 A2998 RMK AO2 SLP152 P0006 T01110094
KDLZ 242336Z AUTO 00000KT 10SM CLR 11/02 A3002 RMK AO2
KDMA 242258Z AUTO 01003KT 10SM CLR 32/06 A3003 RMK AO2 SLP131 T03240062 $
KDMH 242254Z AUTO 18/01 A2990 RMK AO1 SLP123 T01780006
KDMN 242253Z AUTO 26007KT 10SM CLR 27/04 A3018 RMK AO2 SLP163 T02670039
KDMO 242253Z AUTO 21008KT 10SM CLR 23/16 A2999 RMK AO2 SLP150 T02280161
KDMW 242335Z AUTO 28008KT 10SM CLR 14/03 A2993 RMK AO2
KDNL 242253Z AUTO 34005KT 10SM CLR 21/05 A2999 RMK AO2 SLP154 T02060050
KDNN 242335Z AUTO 00000KT 10SM CLR 13/09 A3003 RMK AO2
KDNS 242335Z AUTO 29003KT 10SM CLR 20/11 A2991 RMK AO2
KDNV 242335Z AUTO 23005KT 10SM CLR 15/11 A2998 RMK AO2 T01510106
KDOV 242258Z AUTO 25004KT 10SM CLR 16/07 A2985 RMK AO2 SLP111 T01630069
KDPA 242252Z 20003KT 10SM FEW090 16/08 A2995 RMK AO2 SLP141 T01560083
KDPL 242335Z AUTO 00000KT 10SM CLR 12/10 A2998 RMK AO2 T01150100
KDQH 242335Z AUTO 00000KT 10SM CLR 18/08 A3000 RMK AO2
KDRA 242252Z AUTO 13006KT 10SM CLR 29/M01 A3002 RMK AO2 SLP128 T02941011
KDRI 242335Z AUTO 00000KT 7SM CLR 19/11 A3012 RMK AO2 T01920105
KDRM 242335Z AUTO 00000KT 10SM OVC018 10/09 A2991 RMK AO2 T00970087
KDRO 242253Z AUTO 23008KT 10SM CLR 21/01 A3031 RMK AO2 SLP223 T02110006
KDRT 242253Z AUTO 16006KT 10SM CLR 29/17 A3006 RMK AO2 SLP165 T02890167
KDSM 242254Z 21004KT 6SM HZ FEW220 OVC300 19/16 A2990 RMK AO2 SLP123 T01890156
KDSV 242254Z AUTO 30003KT 10SM CLR 11/00 A2995 RMK AO2 SLP153 T01060000
KDTA 242335Z AUTO 20011KT 10SM CLR 26/M04 A3012 RMK AO1 T02561039
KDTL 242335Z AUTO 28010KT 10SM CLR 20/05 A2982 RMK AO2
KDTN 242253Z 00000KT 10SM CLR 23/13 A3010 RMK AO2 SLP191 T02280128
KDTO 242253Z 20009KT 10SM CLR 28/16 A3005 RMK AO2 SLP168 T02780156
KDTS 242253Z AUTO 00000KT 10SM CLR 23/11 A3000 RMK AO2 SLP156 T02280106 TSNO
KDTW 242253Z 21009KT 10SM OVC040 14/07 A2999 RMK AO2 SLP158 T01440067
KDUA 242335Z AUTO 00000KT 10SM CLR 25/17 A3007 RMK AO2
KDUB 242335Z AUTO 28014G21KT 10SM CLR 15/M08 A3018 RMK AO2
KDUC 242335Z AUTO 00000KT 10SM CLR 27/17 A3004 RMK AO2
KDUG 242256Z AUTO VRB03KT 10SM CLR 29/06 A3015 RMK AO2 SLP156 T02890056
KDUH 242335Z AUTO 00000KT 10SM BKN040 11/07 A3001 RMK AO2
KDUJ 242253Z AUTO 28005KT 10SM CLR 11/02 A2996 RMK AO2 SLP150 T01110017
KDUX 242335Z AUTO 16005KT 10SM 27/05 A3010 RMK AO2 T02670050
KDVK 242335Z AUTO 00000KT 10SM CLR 11/04 A3008 RMK AO2
KDVL 242335Z AUTO 28012KT 10SM CLR 15/00 A2983 RMK AO1
KDVN 242334Z AUTO 25010KT 10SM BKN027 OVC036 18/12 A2994 RMK AO2 PRESRR T01830117 TSNO
KDVO 242335Z AUTO 21010KT CLR 21/13 A2990 RMK AO2
KDVP 242334Z AUTO 00000KT 7SM CLR 18/04 A2993 RMK AO2 T01770044
KDVT 242253Z AUTO 00000KT 10SM CLR 33/06 A2996 RMK AO2 SLP123 T03330056 TSNO
KDWH 242253Z 35004KT 10SM CLR 26/13 A3009 RMK AO2 SLP187 T02610133
KDWU 242335Z AUTO 00000KT 10SM CLR 11/06 A3002 RMK AO1
KDWX 241950Z AUTO 22014G20KT 10SM CLR 21/M02 A3029 RMK AO2 T02121023
KDXR 242253Z 34005KT 10SM BKN043 12/06 A2980 RMK AO2 SLP090 T01170061
KDXX 242333Z AUTO 26006KT 10SM CLR 21/04 A2988 RMK AO2
KDYA 242335Z AUTO 00000KT 10SM CLR 15/09 A3005 RMK AO2 T01500093
KDYB 242355Z AUTO 00000KT 10SM CLR 15/14 A3000 RMK AO1
KDYL 242254Z AUTO 32005KT 10SM CLR 16/05 A2983 RMK AO2 SLP102 T01610050
KDYR 242335Z 00000KT 10SM CLR 16/07 A3009 RMK AO1
KDYS 242258Z AUTO 18009KT 10SM CLR 30/13 A3007 RMK AO2 SLP143 T03000126 $
KDYT 242334Z AUTO 22011KT 10SM CLR 18/12 A2976 RMK AO2
KDZB 242335Z AUTO 00000KT 10SM SCT060 27/14 A3009 RMK AO2 T02670137
KE11 242335Z AUTO 25004KT 10SM CLR 27/08 A3013 RMK AO2 T02720084
KE16 242335Z AUTO 21010KT 10SM CLR 22/10 A2991 RMK AO2
KE38 242335Z AUTO 26003KT 10SM CLR 26/06 A3026 RMK AO2 T02580061
KE80 242335Z AUTO 09005KT 10SM CLR 25/00 A3022 RMK AO2 T02530000
KEAR 242335Z 03007KT 10SM CLR 19/08 A2998 RMK AO1
KEAT 242255Z AUTO 00000KT 10SM CLR 12/03 A3003 RMK AO2 SLP171 T01170033
KEAU 242256Z 20006KT 3SM BR OVC006 14/13 A2987 RMK AO2 SLP117 T01390128
KEBG 242335Z AUTO 08009KT 10SM CLR 27/18 A3008 RMK AO2 T02710177
KEBS 242335Z AUTO 24005KT 10SM CLR 18/13 A2989 RMK AO2
KECG 242254Z 24005KT 10SM CLR 15/08 A2994 RMK AO2 SLP137 T01500083
KECP 242253Z 00000KT 10SM CLR 21/11 A2998 RMK AO2 SLP165 T02060106 $
KECS 242335Z AUTO 14005KT 10SM CLR 19/M02 A3003 RMK AO2
KECU 242330Z AUTO 17005KT 10SM CLR 26/13 A3016 RMK AO2
KEDC 242335Z AUTO 14004KT 10SM CLR 26/15 A3009 RMK AO2
KEDE 242335Z AUTO 30003KT 10SM CLR 13/10 A2995 RMK AO2 T01330104
KEDJ 242335Z AUTO 00000KT 10SM SCT041 11/03 A3003 RMK AO1
KEDN 242335Z AUTO 00000KT 10SM CLR 17/08 A3000 RMK AO2
KEDU 242335Z AUTO 22008KT 10SM 25/10 A2985 RMK AO1
KEDW 242258Z 24003KT 80SM CLR 31/M07 A2996 RMK AO2A SLP128 T03081068
KEED 242256Z AUTO 00000KT 10SM CLR 35/03 A2993 RMK AO2 SLP107 T03500033
KEEN 242335Z AUTO 35005KT 10SM OVC024 09/02 A2977 RMK AO1
KEEO 242253Z AUTO 23014KT 10SM CLR 22/M05 A3027 RMK AO2 SLP195 T02221050
KEET 242253Z AUTO 31004KT 10SM CLR 20/06 A3004 RMK AO2 SLP168 T02000061
KEFD 242250Z 05004KT 10SM CLR 25/11 A3010
KEFK 242335Z AUTO 34005KT 10SM SCT035 OVC048 06/03 A2983 RMK AO2 T00600032
KEFT 242335Z AUTO 18005KT 10SM BKN035 BKN046 BKN055 13/10 A2992 RMK AO2
KEGE 242250Z 25011KT 10SM SKC 22/M04 A3031
KEGI 242255Z 00000KT 10SM CLR 21/08 A3001 RMK AO2A SLP161 T02140083 $
KEGV 242335Z AUTO 22008KT 10SM OVC020 13/07 A2984 RMK AO2 T01330068
KEHA 242328Z AUTO 21004KT 28/04 RMK AO1 PK WND 06 000 T02830045
KEHC 242335Z AUTO 02013KT 10SM CLR 22/12 A3007 RMK A01
KEHO 242335Z AUTO 00000KT 10SM CLR 13/09 A3001 RMK AO2 T01320085
KEHR 242335Z AUTO 18003KT 10SM BKN045 A3004 RMK AO1
KEHY 242335Z AUTO 24015KT 10SM CLR 17/M08 A3024 RMK AO2
KEIK 242335Z AUTO 12003KT 10SM CLR 24/M04 A3013 RMK AO2 T02431044
KEIR 242335Z AUTO 03010KT 10SM 22/12 A3008 RMK A01
KEKM 242250Z 00000KT 10SM CLR 14/08 A2998 RMK AO2
KEKN 242251Z AUTO 00000KT 10SM CLR 08/04 A3004 RMK AO2 SLP182 T00780044 TSNO
KEKO 242256Z AUTO 18013G18KT 10SM CLR 26/M07 A3004 RMK AO2 SLP139 T02611072
KEKQ 242256Z AUTO 00000KT 10SM CLR 11/06 A3008 RMK AO2 T01050055 SLP194
KELD 242253Z AUTO 31003KT 10SM CLR 19/14 A3011 RMK AO2 SLP194 T01890139
KELM 242253Z 00000KT 10SM CLR 09/01 A2991 RMK AO2 SLP131 T00940011
KELN 242253Z AUTO 16003KT 10SM OVC100 11/05 A3001 RMK AO2 SLP168 T01110050
KELO 242333Z AUTO 22006KT 10SM CLR 17/04 A2971 RMK AO2
KELP 242251Z 33003KT 10SM CLR 28/06 A3016 RMK AO2 SLP149 T02830061
KELY 242253Z AUTO 20014G20KT 10SM CLR 23/M06 A3018 RMK AO2 SLP136 T02281061
KELZ 242256Z AUTO 30009KT 10SM CLR 09/M04 A2996 RMK AO2 SLP155 T00941044
KEMK 242335Z AUTO 02013KT 10SM CLR 24/13 A3007 RMK A01
KEMM 242335Z AUTO 26011G16KT 10SM CLR 17/M07 A3026 RMK AO2
KEMP 242253Z AUTO 21010KT 10SM CLR 22/16 A2996 RMK AO2 SLP143 T02170156
KEMT 242245Z 21006KT 10SM CLR 32/M01 A2994
KEMV 242335Z AUTO 00000KT 10SM CLR 10/09 A2997 RMK AO2
KEND 242255Z 20007KT 10SM SCT250 27/18 A3002 RMK AO2A SLP159
KENL 242335Z AUTO 15004KT 10SM CLR 14/10 A3003 RMK AO2 T01430103
KENV 242335Z AUTO 00000KT 10SM CLR 18/00 A3008 RMK AO1
KENW 242253Z 13004KT 6SM BR SCT095 12/10 A2995 RMK AO2 SLP143 T01220100
KEOE 242335Z AUTO 00000KT 10SM CLR 13/11 A3002 RMK AO2
KEOK 242335Z AUTO 20008KT 10SM CLR 19/15 A2992 RMK AO2
KEPH 242253Z AUTO 03006KT 10SM CLR 13/06 A3002 RMK AO2 SLP170 T01280056
KEQA 242335Z AUTO 20006KT 10SM CLR 23/17 A2999 RMK AO2
KEQY 242253Z AUTO 00000KT 10SM CLR 16/08 A2998 RMK AO2 SLP162 T01560083
KERI 242251Z 23003KT 10SM CLR 12/07 A2999 RMK AO2 SLP161 T01170067
KERV 242335Z AUTO 14004KT 10SM CLR 26/16 A3012 RMK AO2 T02610156
KERY 242334Z AUTO 21013G19KT 10SM OVC007 09/08 A2988 RMK AO2 T00860077
KESC 242335Z AUTO 19007KT 4SM OVC005 10/08 A2987 RMK AO1
KESF 242253Z AUTO 34003KT 10SM CLR 19/13 A3010 RMK AO2 SLP191 T01890128
KESN 242150Z 31005KT 10SM SKC 18/08 A2991
KEST 242252Z AUTO 32007KT 10SM CLR 21/02 A2989 RMK AO2 SLP120 T02110022
KETB 242335Z AUTO 20005KT 10SM OVC080 13/08 A2993 RMK AO2
KETC 242335Z AUTO 00000KT 10SM CLR 13/11 A2997 RMK AO2 T01250112
KETH 242336Z AUTO 25007KT 10SM CLR 19/06 A2986 RMK AO2
KEUF 242258Z AUTO 00000KT 10SM CLR 16/12 A2999 RMK AO2 SLP155 T01560117 $
KEUG 242254Z 01009KT 3SM BR OVC006 12/11 A2984 RMK AO2 SFC VIS 4 RAE13 SLP104 P0000 T01170106
KEUL 242335Z AUTO 32005KT 10SM CLR 17/08 A3000 RMK AO1
KEVB 242347Z 03007KT 10SM SCT040 24/14 A2994
KEVM 242331Z AUTO 22005KT 10SM CLR 16/04 A2975 RMK AO2
KEVV 242254Z 18003KT 10SM CLR 18/12 A3004 RMK AO2 SLP173 T01780117
KEVW 242253Z AUTO 26014KT 10SM CLR 19/M04 A3025 RMK AO2 SLP175 T01941044 TSNO
KEWB 242253Z 30004KT 10SM BKN027 OVC033 11/07 A2972 RMK AO2 SLP063 T01060067
KEWK 242335Z AUTO 21007KT 10SM CLR 23/15 A3001 RMK AO1
KEWN 242254Z 00000KT 10SM CLR 16/11 A2996 RMK AO2 SLP146 T01560111
KEWR 242251Z 31007KT 10SM SCT055 SCT120 BKN250 18/06 A2980 RMK AO2 SLP089 T01830056
KEXX 242335Z AUTO 00000KT 10SM CLR 12/08 A2999 RMK AO2 T01240075
KEYE 242253Z AUTO 24003KT 10SM BKN042 17/11 A3002 RMK AO2 SLP166 T01720106
KEYF 242335Z AUTO 00000KT 10SM CLR 15/11 A2997 RMK AO2 T01450106
KEYW 242253Z 03012KT 10SM SCT044 27/22 A2982 RMK AO2 SLP097 T02670222
KEZF 242335Z AUTO 00000KT 10SM CLR 13/09 A2994 RMK AO2 T01250093
KEZM 242335Z AUTO 00000KT 10SM CLR 15/12 A3001 RMK AO2 T01510116
KEZS 242335Z AUTO 19003KT 10SM BKN065 OVC070 12/10 A2989 RMK AO2 T01220096
KF05 242336Z AUTO 20007KT 10SM CLR 29/12 A3002 RMK AO2
KF44 242335Z AUTO 00000KT 10SM CLR 22/15 A3009 RMK AO2
KF46 242335Z AUTO 16004KT 10SM CLR 25/16 A3007 RMK AO2 T02510161
KF70 242335Z AUTO 21010KT 10SM CLR 30/03 A2996 RMK AO1
KFAF 242258Z AUTO 25003KT 10SM FEW210 15/07 A2992 RMK AO2 SLP135 T01540069 $
KFAM 242335Z AUTO 15005KT 10SM CLR 19/10 A3006 RMK AO1
KFAR 242253Z 28017KT 10SM CLR 22/04 A2980 RMK AO2 SLP091 T02220044
KFAT 242253Z 13005KT 9SM CLR 30/07 A2988 RMK AO2 SLP115 MTNS PTLY OBSC HZ DSNT N-E-SE T03000067
KFAY 242253Z AUTO 32003KT 10SM CLR 17/09 A2997 RMK AO2 SLP144 T01670094
KFBG 242258Z AUTO 00000KT 10SM BKN220 16/12 A2997 RMK AO2 SLP152 T01560116 $
KFBL 242334Z AUTO 22003KT 10SM CLR 16/12 A2988 RMK AO2
KFBR 242335Z AUTO 27012KT CLR 21/M05 A3026 RMK AO2 T02051051 PWINO
KFCM 242253Z 24004KT 10SM CLR 19/12 A2984 RMK AO2 SLP104 T01890117
KFCS 242258Z 13009KT 10SM CLR 25/M06 A3018 RMK AO2A SLP185
KFDK 242250Z 31009KT 10SM SKC 18/M01 A2995
KFDR 242253Z AUTO 21011KT 10SM CLR 31/13 A2999 RMK AO2 SLP141 T03060133
KFDW 242355Z AUTO 00000KT 10SM CLR 14/12 A2999 RMK AO1
KFDY 242253Z AUTO 26004KT 9SM OVC042 16/08 A3000 RMK AO2 SLP157 T01560078
KFEP 242335Z AUTO 18005KT 10SM SCT050 SCT080 SCT085 14/08 A2993 RMK AO2 T01430083
KFET 242335Z AUTO 00000KT 10SM CLR 20/12 A2994 RMK AO2 T02010119
KFEW 242256Z AUTO 23011KT 10SM CLR 23/M07 A3015 RMK AO2 SLP143 T02321071 $
KFFA 242335Z AUTO 29003KT 10SM CLR 16/12 A2992 RMK AO2 T01550117
KFFC 242253Z AUTO 00000KT 10SM CLR 15/11 A3001 RMK AO2 SLP162 T01500111
KFFL 242335Z AUTO 19004KT OVC022 17/15 A2993 RMK AO2
KFFM 242334Z AUTO 27007KT 10SM CLR 18/03 A2982 RMK AO2
KFFO 242258Z AUTO 19005KT 10SM CLR 13/05 A3002 RMK AO2 SLP171 T01250047
KFFT 242253Z AUTO 00000KT 10SM CLR 13/06 A3005 RMK AO2 SLP177 T01280061
KFFX 242331Z AUTO 25006KT 10SM OVC011 11/09 A2997 RMK AO2 T01090091
KFFZ 242248Z 00000KT 40SM SKC 34/08 A2996
KFGN 242334Z AUTO 26017G23KT 10SM CLR 18/00 A2963 RMK AO2
KFGX 242335Z AUTO 25004KT 10SM CLR 12/05 A3007 RMK AO2 T01240045
KFHB 242335Z AUTO 01003KT 10SM CLR 19/13 A2998 RMK AO1
KFHR 242253Z AUTO 01006KT 10SM CLR 13/07 A2996 RMK AO2 SLP147 T01280072
KFHU 242255Z 00000KT 10SM FEW085 29/06 A3018 RMK SLP163
KFIG 242254Z AUTO 25005KT 10SM CLR 12/02 A2997 RMK AO2 SLP152 T01170022
KFIT 242252Z AUTO 31007KT 10SM OVC024 10/05 A2975 RMK AO2 SLP076 T01000050
KFKA 242336Z AUTO 20003KT 5SM BR BKN011 OVC016 14/13 A2991 RMK AO2 T01370125
KFKL 242335Z 26004KT 10SM CLR 10/02 A3001 RMK AO1
KFKN 242335Z AUTO 00000KT 10SM CLR 12/09 A2995 RMK AO1
KFKR 242335Z AUTO 00000KT 10SM CLR 13/10 A3003 RMK AO2 T01310104
KFKS 242333Z AUTO 19003KT 10SM OVC009 11/08 A2994 RMK AO2 T01060081
KFLD 242253Z AUTO 18005KT 10SM OVC080 13/10 A2991 RMK AO2 SLP131 T01280100
KFLG 242257Z 21010KT 10SM CLR 21/M04 A3035 RMK AO2 SLP208 T02111039
KFLL 242253Z 03011KT 10SM FEW030 FEW034 BKN048 OVC250 26/20 A2981 RMK AO2 SLP096 T02610200
KFLO 242253Z 00000KT 10SM CLR 17/10 A2998 RMK AO2 SLP150 T01720100
KFLP 242335Z AUTO 00000KT 10SM CLR 19/13 A3006 RMK AO1
KFLY 242333Z AUTO 16007KT 10SM CLR 20/M05 A3027 RMK AO2 T02001054
KFME 242339Z AUTO 29004KT 10SM CLR 11/05 A2994 RMK AO1
KFMH 242335Z AUTO 30007KT 10SM OVC024 11/08 A2972 RMK AO2
KFMM 242335Z AUTO 00000KT 10SM CLR 25/M04 A3011 RMK AO2 T02451045
KFMN 242253Z 27009KT 10SM CLR 24/M02 A3025 RMK AO2 SLP207 T02391022
KFMY 242253Z 05008KT 10SM CLR 26/16 A2985 RMK AO2 SLP108 T02560156
KFNB 242253Z AUTO 22005KT 10SM CLR 26/18 A2989 RMK AO2 SLP116 T02560178
KFNL 242335Z AUTO 11008KT 10SM CLR 24/M01 A3012 RMK AO1
KFNT 242253Z 00000KT 10SM OVC041 15/09 A2997 RMK AO2 SLP150 T01500089
KFOA 242335Z AUTO 21003KT 10SM CLR 14/10 A3003 RMK AO2 T01440104
KFOD 242335Z AUTO 26004KT 10SM CLR 17/11 A2991 RMK AO1
KFOE 242253Z 19008KT 10SM CLR 24/17 A2993 RMK AO2 SLP130 T02440172
KFOK 242253Z 34007KT 10SM OVC047 12/07 A2979 RMK AO2 SLP087 T01220072
KFOT 242330Z AUTO 15016G27KT 10SM CLR 19/13 A2976 RMK AO1
KFOZ 242333Z AUTO 24005KT 10SM CLR 17/04 A2973 RMK AO2
KFPK 242335Z AUTO 00000KT 10SM CLR 11/08 A2997 RMK AO2 T01060079
KFPR 242253Z 03004KT 10SM FEW050 23/15 A2988 RMK AO2 SLP118 T02330150
KFQD 242335Z AUTO 00000KT 10SM CLR 14/09 A3002 RMK AO2 T01350085
KFRG 242253Z 00000KT 10SM BKN050 13/07 A2980 RMK AO2 SLP090 T01330072
KFRI 242258Z AUTO 23010KT 10SM CLR 26/17 A2993 RMK AO2 SLP127 T02590170
KFRM 242335Z AUTO 33003KT 10SM CLR 18/M12 A2990 RMK AO1
KFRR 242335Z AUTO 00000KT 10SM CLR 13/00 A2995 RMK AO1
KFSD 242256Z 32005KT 10SM BKN230 22/05 A2991 RMK AO2 SLP127 T02220050
KFSE 242335Z AUTO 28014G19KT 10SM CLR 16/03 A2980 RMK AO2
KFSI 242258Z AUTO 20009KT 10SM CLR 30/15 A3001 RMK AO2 SLP155 T02990152
KFSM 242253Z AUTO 00000KT 10SM CLR 24/16 A3005 RMK AO2 SLP173 T02390156 TSNO
KFSO 242335Z AUTO 00000KT 10SM BKN085 BKN110 06/05 A2984 RMK AO2 T00600045
KFST 242253Z AUTO 27004KT 10SM CLR 29/07 A3012 RMK AO2 SLP157 T02890072
KFSW 242335Z AUTO 19004KT 10SM CLR 18/16 A2993 RMK AO2
KFTG 242147Z 11013KT 50SM FEW180 28/M04 A3016
KFTK 242258Z AUTO 00000KT 10SM CLR 16/09 A3004 RMK AO2 RAB2231E2240 SLP176 P0000 T01620088
KFTN 250030Z AUTO 18004KT 10SM CLR 29/14 A3007 RMK AO1
KFTW 242253Z 16008KT 10SM CLR 29/16 A3005 RMK AO2 SLP169 T02890156
KFTY 242253Z 32003KT 10SM CLR 18/07 A3001 RMK AO2 SLP158 T01830067
KFUL 242253Z 24005KT 10SM CLR 30/04 A2992 RMK AO2 SLP129 T03000044
KFVE 242253Z AUTO 35008KT 10SM -RA OVC047 04/03 A2971 RMK AO2 SLP063 P0001 T00440028
KFVX 242335Z AUTO 00000KT 10SM CLR 12/07 A2994 RMK AO2
KFWA 242254Z 24004KT 10SM SCT036 BKN043 BKN250 14/10 A3001 RMK AO2 SLP165 T01440100
KFWB 242335Z AUTO 00000KT 10SM CLR 20/15 A3007 RMK AO2
KFWC 242335Z AUTO 00000KT 10SM CLR 14/11 A3003 RMK AO1 T01350107
KFWN 242253Z AUTO 33003KT 10SM CLR 17/04 A2981 RMK AO2 SLP094 T01720044
KFWS 242250Z 17008KT 10SM CLR 28/16 A3008
KFWZ 242335Z AUTO 10SM CLR 15/M07 A3022 RMK AO2
KFXE 242253Z 01007KT 10SM BKN038 OVC060 25/20 A2983 RMK AO2 RAB2154E03 SLP102 P0000 T02500200
KFXY 242335Z AUTO 22003KT 10SM CLR 17/13 A2990 RMK AO2
KFYG 242335Z AUTO 00000KT 10SM OVC046 20/12 A3000 RMK AO2
KFYJ 242335Z AUTO 00000KT 10SM CLR 11/07 A2995 RMK AO2 T01120067
KFYM 242335Z AUTO 33005KT 10SM CLR 14/05 A3007 RMK
KFYV 242253Z 18003KT 10SM CLR 20/16 A3008 RMK AO2 SLP181 T02000156
KFZG 242335Z AUTO 00000KT 10SM CLR 13/09 A3001 RMK AO2 T01340094
KFZY 242254Z AUTO 29007KT 10SM CLR 09/03 A2990 RMK AO2 SLP128 T00940033
KGAD 242335Z 32004KT 10SM CLR 16/04 A3004 RMK AO1
KGAF 242335Z AUTO 28013G20KT 10SM CLR 17/02 A2977 RMK AO2
KGAG 242253Z AUTO 21006KT 10SM CLR 30/08 A3002 RMK AO2 SLP143 T03000078
KGAI 242335Z 30009G15KT 10SM CLR 14/01 A2997 RMK AO1
KGBD 242335Z AUTO 15004KT 10SM CLR 26/13 A2998 RMK AO1
KGBG 242335Z AUTO 16004KT 10SM OVC033 18/12 A2994 RMK AO2 T01760120
KGBK 242335Z AUTO VRB04KT 10SM CLR 24/14 A3006 RMK A01
KGCC 242253Z AUTO 05009KT 10SM CLR 17/01 A3006 RMK AO2 SLP152 T01720011
KGCD 242335Z AUTO 10003KT 10SM CLR 15/07 A2995 RMK AO2 T01490072
KGCK 242254Z 22004KT 10SM CLR 29/07 A3002 RMK AO2 SLP141 T02890067
KGCM 242335Z AUTO 16006KT 10SM CLR 22/16 A3006 RMK AO2
KGCN 242254Z 24008KT 10SM FU CLR 23/M07 A3031 RMK AO2 SLP206 T02331072
KGDB 242333Z AUTO 00000KT 10SM CLR 17/08 A2989 RMK AO2 T01710075
KGDJ 242335Z AUTO 15005KT 10SM CLR 28/16 A3007 RMK AO2 T02840155
KGDP 242251Z AUTO 24011KT 10SM CLR 24/07 A3028 RMK AO2 SLP185 T02390067
KGDV 242335Z AUTO 26007KT 10SM CLR 11/M01 A3005 RMK AO1
KGED 242254Z AUTO 25004KT 10SM CLR 16/07 A2989 RMK AO2 SLP119 T01610072
KGEG 242253Z 04008KT 10SM SCT035 OVC150 12/07 A3005 RMK AO2 SLP182 T01170067
KGEU 242247Z 00000KT 20SM SKC 34/09 A2996
KGEV 242335Z AUTO 31005KT 10SM CLR 12/M07 A3005 RMK AO2 T01241068
KGEY 242253Z AUTO 32007KT 10SM CLR 24/M03 A2998 RMK AO2 SLP134 T02391028
KGEZ 242253Z AUTO 20004KT 10SM CLR 16/09 A3002 RMK AO2 SLP167 T01610094
KGFA 242256Z AUTO 22015G20KT 10SM FEW090 FEW130 SCT160 13/02 A3005 RMK AO2 SLP187 T01280017
KGFK 242253Z 29012KT 10SM SCT250 19/00 A2978 RMK AO2 PK WND 27026/2155 SLP089 T01890000
KGFL 242253Z AUTO 00000KT 10SM OVC014 08/06 A2985 RMK AO2 SLP112 T00780061
KGGE 242335Z AUTO 00000KT 10SM CLR 13/12 A3000 RMK AO2
KGGG 242253Z 13003KT 10SM CLR 24/15 A3010 RMK AO2 SLP189 T02390150
KGGI 242335Z AUTO 19003KT 7SM OVC017 16/15 A2993 RMK AO2 T01630148
KGGP 242335Z AUTO 21003KT 10SM CLR 11/08 A3001 RMK AO2
KGGW 242253Z AUTO 30013KT 10SM CLR 15/M03 A3000 RMK AO2 SLP165 T01501028
KGHB 242340Z AUTO 01012KT 10SM CLR 23/14 A3006 RMK A01
KGHG 242330Z AUTO 29003KT 10SM BKN027 OVC037 A2973 RMK AO2
KGHW 242333Z AUTO 24007KT 10SM CLR 17/06 A2986 RMK AO2
KGIC 242335Z AUTO 05003KT 10SM BKN007 OVC042 09/08 A3008 RMK AO1 T00920078
KGIF 242253Z AUTO 06008KT 10SM CLR 23/13 A2992 RMK AO2 SLP131 T02280133
KGJT 242253Z 34007KT 10SM CLR 23/01 A3021 RMK AO2 SLP184 T02280006
KGKJ 242253Z AUTO 27004KT 10SM CLR 11/04 A2999 RMK AO2 SLP158 T01110039 TSNO
KGKT 242335Z AUTO 00000KT 10SM BKN100 13/05 A3006 RMK
KGKY 242253Z AUTO 18007KT 10SM CLR 28/14 A3006 RMK AO2 SLP174 T02830144
KGLD 242253Z AUTO 00000KT 10SM CLR 31/M05 A3007 RMK AO2 SLP143 T03061050
KGLE 242335Z AUTO 14006KT 10SM CLR 25/16 A3007 RMK AO2 T02450163
KGLH 242253Z AUTO 34004KT 10SM CLR 21/11 A3010 RMK AO2 SLP198 T02110106
KGLR 242253Z AUTO 22007KT 10SM OVC012 10/08 A2994 RMK AO2 SLP143 T01000078
KGLS 242252Z 35007KT 10SM CLR 24/13 A3009 RMK AO2 SLP189 T02390128
KGLW 242335Z AUTO 00000KT 10SM CLR 14/07 A3007 RMK AO2 T01360074
KGLY 242335Z AUTO 18004KT 5SM HZ CLR 22/17 A2999 RMK AO2
KGMJ 242335Z AUTO 17003KT 10SM CLR 21/17 A3006 RMK AO2
KGMU 242253Z 00000KT 10SM CLR 17/08 A3001 RMK AO2 SLP159 T01720078
KGNA 242256Z AUTO 27003KT 09/08 A2971 RMK AO1 SLP064 T00940078
KGNC 242335Z AUTO 20004KT 10SM CLR 26/09 A3014 RMK AO2 T02580093
KGNR 241956Z AUTO 35007G15KT 06/04 A2964 RMK AO1 SLP049 T00560044
KGNT 242336Z AUTO 35007KT 10SM CLR 24/M06 A3032 RMK AO2
KGNV 242253Z 05003KT 10SM CLR 20/12 A2995 RMK AO2 SLP141 T02000122
KGOK 242253Z AUTO 20006KT 10SM CLR 28/16 A3001 RMK AO2 SLP156 T02780161
KGON 242256Z 32009KT 10SM OVC036 11/06 A2975 RMK AO2 SLP075 T01060056
KGOO 242340Z AUTO 18004KT 10SM CLR 22/04 A2997 RMK AO1
KGOP 242335Z AUTO 15003KT 10SM CLR 27/16 A3010 RMK AO2
KGOV 242335Z AUTO 00000KT 10SM OVC015 12/10 A2995 RMK AO2 T01220102
KGPH 242355Z AUTO 19004KT 10SM CLR 23/16 A2992 RMK AO2
KGPI 242255Z 13004KT 10SM CLR 11/04 A3009 RMK AO2 SLP196 T01110039
KGPM 242250Z 17005KTS 10SM SKC 28/17 A3008
KGPT 242253Z 35006KT 10SM CLR 23/08 A3003 RMK AO2 SLP169 T02280078
KGPZ 242335Z AUTO 21004KT 10SM CLR 18/04 A2975 RMK AO1
KGRB 242300Z 19005KT 4SM BR BKN090 11/09 A2991 RMK AO2 T01110094
KGRD 242256Z AUTO 00000KT 10SM CLR 14/11 A3001 RMK AO2 SLP162 T01390111
KGRF 242258Z AUTO 33004KT 10SM CLR 13/10 A2991 RMK AO2 RAB2244DZE2244 SLP133 P0000 T01270095 $
KGRI 242253Z 01004KT 10SM CLR 24/09 A2996 RMK AO2 SLP136 T02390094
KGRK 242258Z AUTO 17007KT 10SM CLR 28/15 A3008 RMK AO2 SLP178 T02760147
KGRR 242253Z 26005KT 7SM FEW140 SCT250 13/09 A2998 RMK AO2 SLP154 T01280094
KGRY 242335Z AUTO VRB06G15KT 10SM CLR 24/14 A3003 RMK A01
KGSB 242258Z AUTO 24002KT 10SM BKN220 17/12 A2995 RMK AO2 SLP145 T01660124 $
KGSH 242253Z AUTO 21005KT 9SM CLR 15/09 A2998 RMK AO2 SLP152 T01500094
KGSO 242254Z 22003KT 10SM SCT160 BKN250 16/05 A2997 RMK AO2 SLP145 T01610050
KGSP 242253Z 00000KT 10SM CLR 15/09 A2999 RMK AO2 SLP152 T01500089
KGTB 242258Z AUTO 24007KT 10SM CLR 10/07 A2987 RMK AO2 SLP118 T00990070
KGTF 242253Z 21010KT 10SM CLR 12/02 A3004 RMK AO2 SLP176 T01220017
KGTR 242250Z 33006KT 10SM SKC 21/06 A3007
KGTU 242250Z COR 14004KT 10SM CLR 28/15 A3009
KGUC 242335Z AUTO 36004KT 10SM CLR 19/M03 A3038 RMK AO1
KGUL 242335Z AUTO 10SM CLR 23/16 A3007 RMK A01
KGUP 242253Z AUTO 21005KT 10SM CLR 24/M02 A3030 RMK AO2 SLP162 T02391017
KGUR 242335Z AUTO 28007KT 10SM CLR 28/M04 A3006 RMK AO2 T02831038
KGUS 242258Z AUTO 24006KT 10SM SCT200 14/13 A3000 RMK AO2 SLP164 T01440134
KGUY 242253Z AUTO 20009KT 10SM CLR 31/02 A3003 RMK AO2 SLP132 T03110017
KGVL 242253Z AUTO 21004KT 10SM CLR 18/06 A3001 RMK AO2 SLP157 T01830061
KGVT 242335Z AUTO 14004KT 10SM CLR 23/15 A3009 RMK AO2
KGVX 242335Z AUTO 03008KT 10SM CLR 22/13 A3011 RMK A01
KGWB 242335Z AUTO 00000KT 10SM CLR 11/08 A3000 RMK AO2
KGWO 242253Z AUTO 34003KT 10SM CLR 19/10 A3009 RMK AO2 SLP190 T01940100 TSNO
KGWR 242335Z AUTO 30011KT 10SM CLR 21/05 A2989 RMK A01 P000
KGWW 242335Z AUTO 00000KT 10SM CLR 13/11 A2998 RMK AO2 T01250113
KGXA 242255Z AUTO 28010KT 10SM CLR 29/M04 A3000 RMK AO2 SLP130 T02931045
KGXF 242255Z VRB04KT 10SM CLR 35/06 A2993 RMK SLP121
KGXY 242335Z AUTO 11007KT 10SM CLR 24/M01 A3012 RMK AO1
KGYB 242335Z AUTO 00000KT 10SM CLR 25/15 A3013 RMK AO2 T02450151
KGYH 242347Z 00000KT 10SM CLR 13/07 A3001
KGYI 242335Z AUTO 16006KT 10SM CLR 25/18 A3007 RMK AO2 T02500176
KGYL 242334Z AUTO 23004KT 10SM CLR 19/12 A2986 RMK AO2 T01910116
KGYR 242347Z VRB03KT 10SM SKC 34/09 A2994
KGYY 242345Z 00000KT 10SM BKN250 11/09 A2997
KGZH 242253Z AUTO 34003KT 10SM CLR 21/07 A3002 RMK AO2 SLP164 T02110067
KGZL 242315Z AUTO 00000KT 10SM CLR 22/14 A3006 RMK AO2
KH21 242335Z AUTO 17004KT 10SM CLR 21/16 A3002 RMK AO2
KHAE 242315Z AUTO 17008KT 10SM CLR 20/13 A2996 RMK AO2
KHAF 242335Z AUTO 16010KT 6SM HZ BKN020 18/15 A2992 RMK AO2
KHAI 242335Z AUTO 00000KT 7SM SCT038 12/08 A2998 RMK AO2 T01170081
KHAO 242153Z AUTO 20003KT 8SM CLR 18/05 A3004 RMK AO2 SLP172 T01830050 $
KHBG 242253Z AUTO 34005KT 10SM CLR 22/08 A3006 RMK AO2 SLP178 T02220078
KHBI 242335Z AUTO 00000KT 10SM CLR 13/10 A3001 RMK AO2 T01340097
KHBR 242253Z AUTO 21012KT 10SM CLR 31/13 A3002 RMK AO2 SLP149 T03060128
KHBV 242335Z AUTO 11008KT 10SM SCT065 28/14 A3009 RMK AO2 T02820143
KHCD 242333Z AUTO 23004KT 10SM CLR 18/10 A2987 RMK AO2 T01840103
KHCO 242333Z AUTO 28011G18KT 10SM CLR 17/M01 A2974 RMK AO2
KHDC 242335Z AUTO 00000KT 10SM CLR 19/09 A3008 RMK AO2
KHDE 242335Z AUTO 00000KT 10SM CLR 25/00 A2997 RMK AO2 T02490000
KHDN 242335Z AUTO 25010G16KT 10SM CLR 21/M04 A3026 RMK AO1
KHDO 242251Z AUTO 22007KT 10SM CLR 28/14 A3009 RMK AO2 SLP178 T02780139
KHEF 242335Z 32007KT 10SM CLR 13/03 A2994 RMK AO1
KHEI 242253Z AUTO 31010KT 10SM BKN110 15/00 A3002 RMK AO2 SLP170 T01500000
KHEQ 242335Z AUTO 00000KT 10SM CLR 25/00 A3006 RMK AO2
KHEY 242253Z AUTO 31003KT 10SM CLR 19/08 A3000 RMK AO2 SLP144 T01940083
KHEZ 242335Z AUTO 00000KT 10SM CLR 17/10 A3010 RMK AO1
KHFD 242253Z 31005KT 10SM OVC035 12/06 A2978 RMK AO2 SLP085 T01170056
KHFF 242256Z AUTO 25001KT 10SM BKN230 15/11 A2999 RMK AO2 SLP158 T01510108
KHFJ 242335Z AUTO 19005KT 10SM CLR 20/16 A3005 RMK AO2
KHGR 242253Z AUTO 33003KT 10SM CLR 14/02 A2994 RMK AO2 SLP149 T01390017
KHHF 242335Z AUTO 20003KT 10SM CLR 29/10 A3002 RMK AO2 T02850101
KHHG 242335Z AUTO 00000KT 10SM CLR 14/11 A3001 RMK AO2 T01400106
KHHR 242300Z 30006KT 10SM CLR 28/13 A2993 RMK AO2 T02780128
KHHV 242335Z AUTO 03008KT 10SM CLR 24/16 A3007 RMK A01
KHHW 242335Z AUTO 14005KT 10SM CLR 23/15 A3006 RMK AO2 T02310150
KHIB 242253Z AUTO 24004KT 10SM CLR 19/04 A2974 RMK AO2 SLP075 T01940039
KHIE 242331Z AUTO 00000KT 10SM OVC014 07/06 A2978 RMK AO2 T00670056
KHIF 242258Z AUTO 17007G14KT 10SM CLR 24/01 A3013 RMK AO2 SLP155 T02400007
KHII 242335Z AUTO 18004KT 10SM CLR 34/04 A2991 RMK AO2
KHIO 242253Z 05004KT 6SM -RA BR OVC075 12/11 A2986 RMK AO2 SLP109 P0004 T01220106
KHJH 242335Z AUTO 27003KT 10SM CLR 23/09 A2995 RMK AO2 T02250093
KHJO 242253Z AUTO 07004KT 6SM HZ CLR 28/07 A2988 RMK AO2 SLP119 T02830072
KHKA 242253Z AUTO 32004KT 10SM CLR 21/14 A3007 RMK AO2 SLP181 T02110139
KHKS 242253Z 31005KT 10SM CLR 21/07 A3009 RMK AO2 SLP182 T02060072
KHKY 242253Z AUTO 00000KT 10SM CLR 14/07 A2999 RMK AO2 SLP145 T01390072
KHLC 242253Z AUTO 06004KT 10SM CLR 29/05 A2999 RMK AO2 SLP137 T02890050
KHLG 242253Z 25004KT 10SM CLR 13/03 A3001 RMK AO2 SLP171 T01280033
KHLN 242253Z AUTO 11007KT 10SM FEW060 13/04 A3008 RMK AO2 SLP194 T01280044 TSNO
KHLR 242256Z AUTO 10006KT 10SM CLR 28/16 A3008 RMK AO2 SLP210 T02830161 PWINO $
KHLX 242335Z AUTO 33009KT 10SM CLR 13/00 A3004 RMK AO2 T01260003
KHMN 242158Z AUTO 30005KT 10SM CLR 28/08 A3017 RMK AO2 SLP162 T02750077 $
KHNB 242335Z AUTO 21003KT 10SM CLR 15/09 A3005 RMK AO1
KHND 242256Z AUTO 04007KT 10SM CLR 31/05 A3002 RMK AO2 TSNO T03050050 SLP148
KHNR 242335Z AUTO 00000KT 10SM CLR 19/15 A2996 RMK AO2
KHNZ 242335Z AUTO 00000KT 10SM CLR 13/10 A2998 RMK AO2 T01300100
KHOB 242335Z AUTO 00000KT 10SM CLR 26/09 A3015 RMK AO2
KHOE 242335Z AUTO 00000KT 10SM CLR 16/12 A2999 RMK AO2
KHON 242255Z AUTO 30005KT 10SM CLR 24/03 A2990 RMK AO2 SLP127 T02390028
KHOP 242258Z AUTO 32002KT 8SM CLR 18/12 A3007 RMK AO2 SLP184 T01790122
KHOT 242253Z AUTO 19003KT 10SM CLR 22/15 A3010 RMK AO2 SLP188 T02220150
KHOU 242253Z 01005KT 10SM FEW250 26/13 A3008 RMK AO2 SLP190 T02560133
KHPN 242256Z 33004KT 10SM CLR 11/07 A2978 RMK AO2 SLP085 T01110067
KHQI 242335Z AUTO 36010KT 10SM CLR 23/14 A3008 RMK A01
KHQM 242253Z AUTO 05014KT 7SM OVC120 12/09 A2987 RMK AO2 SLP117 T01220089
KHQU 242335Z AUTO 00000KT 10SM CLR 15/14 A3005 RMK AO1 T01480137
KHQZ 242250Z 14007KT 10SM CLR 27/14 A3007
KHRI 242253Z AUTO 02009KT 10SM -RA OVC080 13/09 A2998 RMK AO2 SLP151 P0000 T01330089
KHRJ 242335Z AUTO 00000KT 10SM CLR 15/10 A2998 RMK AO2 T01480104
KHRL 242252Z 06010KT 10SM CLR 26/18 A3007 RMK AO2 SLP182 T02610178
KHRO 242253Z AUTO 18003KT 10SM CLR 22/17 A3007 RMK AO2 SLP177 T02170167
KHRT 242258Z AUTO 01006KT 10SM CLR 21/05 A2999 RMK AO2 SLP157 T02120053 RVRNO $
KHRX 242335Z AUTO 16007KT 10SM CLR 27/05 A3011 RMK AO2 T02670052
KHSA 242250Z 36003KT 10SM CLR 21/07 A3004
KHSB 242335Z AUTO 00000KT 10SM CLR 15/12 A3006 RMK AO2 T01450117
KHSE 242251Z AUTO 29005KT 10SM CLR 16/12 A2994 RMK AO2 SLP136 T01610117 TSNO
KHSI 242253Z AUTO 35004KT 10SM CLR 24/09 A2996 RMK AO2 SLP134 T02440089
KHSP 242335Z AUTO 31010G14KT 10SM CLR 11/M01 A3001 RMK AO2 T01051015
KHST 242331Z AUTO 01009KT 9SM CLR 24/22 A2982 RMK AO2
KHSV 242253Z 35003KT 10SM SCT250 20/03 A3005 RMK AO2 SLP173 T02000033
KHTL 242253Z AUTO 00000KT 8SM OVC017 11/09 A2995 RMK AO2 SLP149 T01060089
KHTO 242150Z 32012KT 10SM BKN025 12/08 A2978
KHTS 242251Z 00000KT 10SM CLR 15/04 A3004 RMK AO2 SLP172 T01500044
KHUA 241955Z 30006KT 7SM SKC 22/03 A3006 RMK LAST
KHUF 242253Z 20004KT 10SM CLR 17/11 A3002 RMK AO2 SLP164 T01720106
KHUL 242253Z AUTO 36007KT 10SM OVC017 04/03 A2965 RMK AO2 SLP044 T00440033
KHUM 242347Z 32003KT 7SM SKC 20/09 A3007 RMK LAST
KHUT 242252Z 20008KT 10SM CLR 28/15 A2998 RMK AO2 SLP135 T02780150
KHVE 242335Z AUTO 09006KT 10SM CLR 26/M01 A3016 RMK AO2
KHVN 242253Z 34005KT 10SM OVC043 14/07 A2978 RMK AO2 SLP084 T01390067
KHVR 242253Z AUTO 27012KT 10SM CLR 13/M01 A3001 RMK AO2 PK WND 28026/2210 SLP167 T01331011
KHWD 242254Z AUTO 28011KT 10SM CLR 22/14 A2990 RMK AO2 SLP134 T02170139
KHWO 242253Z AUTO 03008KT 10SM SCT030 BKN042 OVC049 26/20 A2983 RMK AO2 SLP101 T02560200
KHWV 242256Z AUTO 34008KT 10SM OVC042 13/08 A2979 RMK AO2 SLP087 T01280078 TSNO
KHWY 242335Z AUTO 00000KT 10SM CLR 11/08 A2994 RMK AO2 T01100081
KHXD 242250Z 00000KT 10SM SKC 18/11 A3000
KHYA 242256Z 28004KT 10SM BKN025 BKN035 OVC044 11/09 A2970 RMK AO2 SLP058 T01060089
KHYI 242348Z 11006KT 10SM CLR 27/14 A3009 RMK LAST
KHYR 242253Z AUTO 20010KT 10SM OVC019 14/11 A2983 RMK AO2 SLP105 T01440106
KHYS 242335Z AUTO 16003KT 10SM CLR 26/12 A2998 RMK AO1
KHYW 242335Z AUTO 00000KT 7SM CLR 13/13 A2999 RMK AO2
KHYX 242334Z AUTO 19003KT 10SM BKN030 12/08 A2996 RMK AO2
KHZE 242335Z AUTO 28010KT 10SM BKN120 14/M03 A2997 RMK AO2
KHZL 242335Z AUTO 32008G16KT 10SM CLR 14/00 A2991 RMK AO2
KHZR 242335Z AUTO 34003KT 10SM CLR 19/10 A3009 RMK AO2 T01850102
KHZX 242325Z AUTO 21004KT 10SM CLR 16/09 A2979 RMK AO2
KHZY 242253Z AUTO 00000KT 10SM CLR 10/06 A3000 RMK AO2 SLP165 T01000056
KI16 242335Z AUTO 10SM CLR 08/07 A3012 RMK AO2 T00760074
KI35 242335Z AUTO 00000KT 10SM CLR 13/03 A3007 RMK AO1
KI39 242335Z AUTO 00000KT 10SM CLR 13/05 A3006 RMK AO2
KI67 242335Z AUTO 00000KT 10SM CLR 14/04 A3002 RMK AO1
KI69 242335Z AUTO 23003KT 10SM CLR 15/03 A3004 RMK AO1
KI75 242335Z AUTO 18004KT 5SM BR CLR 17/16 A2991 RMK AO2 T01720158
KIAB 242258Z AUTO 18010KT 10SM CLR 26/16 A3000 RMK AO2 SLP153 T02630162
KIAD 242252Z 00000KT 10SM FEW150 SCT200 BKN250 15/02 A2994 RMK AO2 SLP137 T01500022
KIAG 242253Z 23008KT 10SM FEW120 SCT250 09/04 A2995 RMK AO2 SLP151 T00940044
KIAH 242253Z 04005KT 10SM CLR 26/13 A3008 RMK AO2 SLP187 T02560133
KIBM 242335Z AUTO 02003KT 10SM CLR 22/M02 A3010 RMK AO2 T02211021
KICL 242335Z AUTO 30003KT 10SM CLR 21/16 A2992 RMK AO2
KICR 242253Z AUTO 00000KT 10SM CLR 26/M02 A2995 RMK AO2 SLPNO T02611017 $
KICT 242253Z 21009KT 10SM FEW300 27/16 A2999 RMK AO2 SLP144 T02720156
KIDA 242253Z 23011KT 10SM CLR 21/M01 A3009 RMK AO2 SLP160 T02111006
KIDI 242335Z AUTO 29003KT 10SM FEW033 10/04 A3003 RMK A01
KIDP 242335Z AUTO 16007KT 10SM CLR 21/16 A3001 RMK AO2
KIEN 242252Z AUTO 13003KT 10SM CLR 24/01 A3000 RMK AO2 SLP146 T02440011
KIER 242335Z AUTO 00000KT 10SM CLR 18/15 A3010 RMK AO2 T01810147
KIFA 242335Z AUTO 16004KT 3SM BR CLR 15/14 A2992 RMK AO2 T01530143
KIFP 242335Z AUTO 23007KT 10SM CLR 34/M01 A2992 RMK AO2 PWINO
KIGM 242251Z AUTO 22010KT 10SM CLR 28/03 A3010 RMK AO2 SLP131 T02830028
KIGQ 242335Z AUTO 00000KT 10SM CLR 13/08 A2997 RMK AO2 T01320084
KIGX 242256Z AUTO 00000KT 10SM CLR 14/09 A2998 RMK AO2 SLP149 T01390089
KIIB 242335Z AUTO 23003KT 3SM BR OVC005 15/15 A2992 RMK AO2
KIIY 242335Z AUTO 00000KT 10SM CLR 16/13 A3000 RMK AO2
KIJD 242252Z AUTO 31008KT 10SM OVC031 11/05 A2976 RMK AO2 SLP079 T01110050
KIJX 242335Z AUTO 17005KT 10SM CLR 19/10 A2997 RMK AO2 T01870100
KIKK 242335Z AUTO 20004KT 10SM CLR 14/07 A2998 RMK AO2 T01390073
KIKT 242335Z AUTO 01008G15KT 290V050 10SM CLR 22/11 A3000 RMK A01
KIKV 242335Z AUTO 00000KT 5SM BR CLR 16/15 A2991 RMK AO2
KIKW 242331Z AUTO 00000KT 10SM BKN028 12/09 A2995 RMK AO2 T01190094
KILE 242335Z AUTO 11006KT 10SM CLR 27/15 A3008 RMK AO1
KILG 242251Z 26006KT 10SM CLR 16/03 A2986 RMK AO2 SLP112 T01610033
KILM 242253Z 16004KT 10SM CLR 16/11 A2997 RMK AO2 SLP149 T01610111
KILN 242254Z AUTO 19004KT 10SM CLR 13/03 A3003 RMK AO2 SLP179 T01330033
KIML 242253Z AUTO 04004KT 10SM CLR 28/01 A3003 RMK AO2 SLP148 T02830006
KIMM 242355Z AUTO 04006KT 10SM CLR 22/21 A2988 RMK A01 P000
KIMT 242254Z AUTO 15006KT 10SM BKN055 13/09 A2984 RMK AO2 SLP112 T01330089
KIND 242254Z 26007KT 10SM SCT037 BKN220 15/11 A3002 RMK AO2 SLP166 T01500106
KINF 242335Z AUTO 00000KT 10SM CLR 18/13 A2994 RMK AO2
KINJ 242335Z AUTO 14005KT 10SM CLR 27/14 A3008 RMK AO2 T02660141
KINK 242253Z AUTO 20006KT 10SM CLR 29/08 A3009 RMK AO2 SLP153 T02940078
KINL 242255Z AUTO 23010G17KT 10SM CLR 19/05 A2964 RMK AO2 SLP041 T01890050
KINS 242343Z AUTO 11010KT 2SM HZ CLR 27/02 A3002 RMK AO2
KINT 242254Z 00000KT 10SM CLR 15/06 A2999 RMK AO2 SLP152 T01500056
KINW 242256Z AUTO 16003KT 10SM CLR 28/01 A3019 RMK AO2 SLP166 T02830006
KIOB 242335Z AUTO 00000KT 10SM CLR 10/05 A3008 RMK AO2
KIOW 242342Z AUTO 19003KT 4SM BR OVC010 16/16 A2995 RMK AO2 RAE17 P0001 T01560156
KIPJ 242335Z AUTO 00000KT 10SM CLR 11/08 A2999 RMK AO2 T01070078
KIPL 242253Z AUTO 11007KT 10SM CLR 36/06 A2986 RMK AO2 SLP112 T03560061
KIPN 242335Z AUTO 36008G15KT 10SM CLR 23/11 A3000 RMK A01
KIPT 242254Z 31008KT 10SM CLR 17/M02 A2988 RMK AO2 SLP117 T01721017
KIRK 242255Z AUTO 18008KT 10SM CLR 19/16 A2993 RMK AO2 SLP136 T01940161
KIRS 242334Z AUTO 00000KT 10SM CLR 11/09 A2998 RMK AO2
KISM 242250Z 06008KT 10SM SKC 23/14 A2992
KISN 242252Z AUTO 27013G20KT 10SM CLR 15/M03 A2996 RMK AO2 SLP150 T01501033
KISO 242256Z AUTO 00000KT 10SM CLR 13/11 A2997 RMK AO2
KISP 242256Z 33004KT 10SM BKN044 13/07 A2977 RMK AO2 SLP081 T01280072
KISQ 242334Z AUTO 20010G15KT 5SM BR OVC005 09/09 A2988 RMK AO2 T00930085
KISW 242254Z AUTO 18004KT 10SM OVC028 14/10 A2990 RMK AO2 SLP129 T01440100
KITH 242256Z 33005KT 10SM CLR 09/03 A2992 RMK AO2 T00940033 SLP137
KITR 242253Z AUTO 01004KT 10SM CLR 29/M06 A3010 RMK AO2 SLP145 T02941061
KIWA 242247Z 00000KT 45SM SKC 33/09 A2999
KIWD 242335Z AUTO 21009G15KT 10SM FEW027 16/11 A2977 RMK AO1
KIWI 242331Z AUTO VRB03KT 10SM BKN021 OVC031 09/06 A2970 RMK AO2 T00890061
KIXA 242335Z AUTO 00000KT 10SM CLR 11/10 A2996 RMK AO2
KIXD 242253Z 19010KT 10SM CLR 23/17 A2996 RMK AO2 SLP137 T02280167
KIYA 242330Z AUTO 35003KT 10SM CLR 19/09 A3008 RMK AO2 T01850092
KIZA 242335Z AUTO 20009KT 10SM CLR 29/M01 A2992 RMK AO2
KIZG 242254Z AUTO 00000KT 10SM FEW023 BKN055 OVC085 09/07 A2971 RMK AO2 SLP062 T00890067
KJAC 242253Z 21014KT 10SM CLR 18/M04 A3017
KJAN 242254Z 31004KT 10SM FEW250 21/08 A3008 RMK AO2 SLP183 T02110078
KJAS 242335Z AUTO 00000KT 10SM CLR 19/13 A3013 RMK AO2 T01930128
KJAX 242256Z 05005KT 10SM FEW250 17/13 A2997 RMK AO2 SLP148 T01720128
KJBR 242253Z AUTO 00000KT 10SM CLR 21/14 A3006 RMK AO2 SLP179 T02110139
KJCT 242251Z AUTO VRB05KT 10SM CLR 29/13 A3010 RMK AO2 SLP161 T02890128
KJDD 242335Z AUTO 00000KT 10SM CLR 22/18 A3010 RMK AO2
KJDN 242248Z AUTO 29005KT 14/01 A3003 RMK AO1 SLP178 T01440006
KJEF 242253Z 18004KT 10SM FEW050 23/15 A2998 RMK AO2 SLP142 T02280150
KJER 242253Z AUTO 35008KT 10SM CLR 23/M02 A3003 RMK AO2 SLP144 T02331022
KJES 242335Z AUTO 00000KT 10SM CLR 16/12 A2999 RMK AO2
KJFK 242251Z 06004KT 10SM FEW049 SCT120 BKN250 13/07 A2980 RMK AO2 SLP091 T01330072
KJFX 242335Z AUTO 00000KT 10SM CLR 14/10 A3006 RMK A02 P-128
KJFZ 242335Z AUTO 32005KT 10SM CLR 13/M05 A3008 RMK AO2 T01271048
KJGG 242335Z AUTO 00000KT 10SM CLR 13/10 A2995 RMK AO1
KJHW 242335Z AUTO 28005KT 10SM CLR 08/04 A2999 RMK AO1
KJKA 242335Z AUTO 00000KT 10SM CLR 20/08 A3002 RMK AO2 T02000077
KJKJ 242334Z AUTO 29009G18KT 10SM CLR 21/00 A2983 RMK AO2
KJKL 242253Z AUTO 00000KT 10SM CLR 15/04 A3006 RMK AO2 SLP178 T01500044
KJLN 242301Z COR 21007KT 10SM CLR 22/16 A3004 RMK AO2 T02170161
KJMR 242335Z AUTO 21004KT 10SM CLR 13/08 A2983 RMK AO2
KJMS 242256Z AUTO 28013KT 10SM CLR 17/01 A2988 RMK AO2 SLP124 T01720006
KJNX 242335Z AUTO 00000KT 10SM CLR 13/12 A2997 RMK AO2
KJOT 242335Z AUTO 00000KT 10SM CLR 12/09 A2996 RMK AO2 T01180089
KJQF 242255Z 00000KT 10SM CLR 14/08 A3002
KJSO 242335Z AUTO 00000KT 10SM CLR 23/15 A3013 RMK AO2 T02310151
KJST 242254Z AUTO 27009KT 10SM CLR 09/03 A2998 RMK AO2 SLP161 T00940028
KJSV 242335Z AUTO 00000KT 10SM CLR 22/16 A3007 RMK AO2
KJTC 242335Z AUTO 34008KT 10SM CLR 22/03 A3035 RMK AO2
KJVL 242245Z 18005KT 10SM CLR 15/09 A2992
KJVW 242335Z AUTO 00000KT 10SM CLR 14/12 A3010 RMK AO2
KJWG 242335Z AUTO 00000KT 10SM CLR 25/18 A3003 RMK AO2 T02470180
KJWY 242335Z AUTO 17003KT 10SM CLR 26/16 A3009 RMK AO2 T02580164
KJXN 242256Z 20003KT 10SM CLR 12/08 A2998 RMK AO2 SLP159 T01170078
KJYG 242335Z AUTO 00000KT 10SM CLR 17/06 A2990 RMK AO2
KJYL 242335Z AUTO 00000KT 10SM CLR 18/15 A3000 RMK AO2 T01780151
KJYM 242335Z AUTO 17003KT 10SM CLR 10/09 A2999 RMK AO2 T01010085
KJYO 242335Z AUTO 32009KT 10SM CLR 15/03 A2995 RMK AO2
KJYR 242335Z AUTO 35004KT 6SM HZ CLR 19/12 A2996 RMK AO2
KJZI 242335Z AUTO 00000KT 10SM CLR 16/12 A2999 RMK A02 P000
KKLS 242335Z AUTO 00000KT 10SM OVC080 12/09 A2988 RMK AO1
KL18 242335Z AUTO 23005KT 10SM CLR 30/M01 A2995 RMK AO2
KL35 242335Z AUTO 26007KT 10SM CLR 18/M01 A3025 RMK AO2
KL38 242335Z AUTO 00000KT 10SM CLR 17/13 A3006 RMK AO2 T01680133
KLAA 242253Z AUTO 06003KT 10SM CLR 30/00 A3005 RMK AO2 SLP138 T03000000
KLAF 242254Z 00000KT 10SM CLR 16/11 A3000 RMK AO2 SLP158 T01560106
KLAL 242250Z 05008KT 20SM SCT050 23/14 A2991
KLAM 242335Z AUTO 00000KT 10SM CLR 21/M03 A3035 RMK AO2 T02121030
KLAN 242253Z 26004KT 10SM OVC039 14/08 A2998 RMK AO2 SLP154 T01440083
KLAR 242253Z AUTO 25013KT 10SM CLR 20/M07 A3025 RMK AO2 SLP149 T02001067
KLAS 242256Z VRB03KT 10SM CLR 31/04 A2996 RMK AO2 SLP126 T03060039
KLAW 242253Z 18008KT 10SM CLR 30/14 A3002 RMK AO2 SLP156 T03000144
KLAX 242253Z 27008KT 9SM FEW010 24/17 A2993 RMK AO2 SLP134 T02440172 $
KLBB 242253Z COR 21012KT 10SM FEW270 28/09 A3011 RMK AO2 SLP155 T02830089
KLBE 242250Z 25006KT 15SM FEW150 SCT200 11/04 A3001
KLBF 242253Z AUTO 25006KT 10SM CLR 26/04 A2999 RMK AO2 SLP143 T02610039
KLBL 242335Z AUTO 18006KT 10SM CLR 27/05 A3005 RMK AO1
KLBT 242254Z AUTO 00000KT 10SM CLR 16/11 A2997 RMK AO2 SLP148 T01560111
KLBX 242253Z AUTO 12004KT 10SM CLR 24/12 A3009 RMK AO2 SLP187 T02440122
KLCG 242335Z AUTO 30004KT 10SM CLR 17/07 A2995 RMK AO2 T01740065
KLCH 242253Z 03007KT 10SM CLR 23/09 A3009 RMK AO2 SLP197 T02330089
KLCI 242335Z AUTO 26004KT 10SM OVC080 08/04 A2971 RMK AO1
KLCK 242335Z AUTO 19004KT 10SM CLR 11/04 A3002 RMK AO2 T01140036
KLCQ 242335Z AUTO 02003KT 10SM CLR 15/12 A2998 RMK AO2
KLDJ 242335Z AUTO 31003KT 10SM CLR 19/08 A2982 RMK AO2 T01860076
KLDM 242335Z AUTO 21007KT 7SM OVC009 11/10 A2997 RMK AO2 T01100096
KLEB 242253Z 34010KT 10SM OVC017 09/04 A2978 RMK AO2 SLP085 T00890039
KLEE 242253Z AUTO 05007KT 10SM CLR 22/12 A2994 RMK AO2 SLP137 T02170122
KLEW 242335Z AUTO 33006KT 10SM OVC028 09/04 A2970 RMK AO1
KLEX 242254Z 00000KT 10SM CLR 17/06 A3006 RMK AO2 SLP177 T01670056
KLFI 242258Z AUTO 26005KT 10SM FEW210 14/07 A2993 RMK AO2 SLP142 T01390073 $
KLFK 242253Z AUTO 05003KT 10SM CLR 26/13 A3010 RMK AO2 SLP189 T02610133
KLFT 242253Z 02007KT 10SM CLR 23/08 A3008 RMK AO2 SLP185 T02280078
KLGA 242251Z 08005KT 10SM FEW050 BKN130 BKN250 14/08 A2979 RMK AO2 SLP087 T01440083
KLGB 242253Z 20005KT 10SM CLR 28/04 A2992 RMK AO2 SLP132 T02830044
KLGC 242335Z AUTO 00000KT 10SM CLR 15/12 A3001 RMK AO2 T01470118
KLGD 242335Z AUTO 19007KT 10SM OVC070 14/04 A2998 RMK AO1
KLGU 242251Z AUTO 00000KT 10SM CLR 23/M03 A3011 RMK AO2 SLP166 T02331028 TSNO
KLHB 242335Z AUTO 00000KT 1 3/4SM HZ VV007 25/16 A3010 RMK AO2 T02520159
KLHM 242335Z AUTO 24004KT 10SM CLR 25/08 A2985 RMK AO1
KLHQ 242253Z AUTO 00000KT 10SM CLR 11/04 A3003 RMK AO2 SLP174 T01060039
KLHW 242258Z COR 00000KT 10SM FEW150 17/12 A2998 RMK SLP155 WND DATA ESTMD T01740115 COR 2305
KLHX 242253Z AUTO 21004KT 10SM CLR 29/M03 A3008 RMK AO2 SLP136 T02941033
KLHZ 242335Z AUTO 00000KT 10SM CLR 10/09 A2998 RMK AO2
KLIC 242255Z AUTO 11004KT 10SM CLR 25/M06 A3016 RMK AO2 SLP162 T02501056
KLIT 242253Z 20006KT 10SM SCT250 22/13 A3008 RMK AO2 SLP188 T02220128
KLJF 242332Z AUTO 00000KT 10SM CLR 18/07 A2986 RMK AO2
KLKR 242335Z AUTO 00000KT 10SM CLR 13/13 A3000 RMK AO2
KLKU 242335Z AUTO 00000KT 10SM CLR 08/07 A2994 RMK AO2
KLKV 242335Z AUTO 20011KT 10SM CLR 18/02 A2995 RMK AO1
KLLJ 242255Z AUTO 00000KT 10SM SCT110 15/05 A3007 RMK AO2 SLP150 T01500050
KLLQ 242253Z AUTO 00000KT 10SM CLR 21/14 A3010 RMK AO2 SLP190 T02060144
KLMO 242333Z AUTO 00000KT 7SM CLR 25/M02 A3015 RMK AO2 T02481025
KLMT 242253Z 18022G29KT 10SM CLR 17/04 A2990 RMK AO2 PK WND 18029/2202 SLP104 T01670039
KLNC 242335Z AUTO 15005KT 10SM CLR 26/14 A3008 RMK AO2 T02570141
KLND 242253Z AUTO 28005KT 10SM CLR 23/M07 A3007 RMK AO2 SLP130 T02331072 TSNO
KLNK 242254Z 32003KT 10SM CLR 24/13 A2993 RMK AO2 SLP127 T02390128
KLNL 242335Z AUTO 21006KT 10SM BKN021 OVC027 14/07 A2983 RMK AO2 T01400068
KLNP 242335Z AUTO 00000KT 10SM CLR 10/03 A3010 RMK AO2
KLNR 242309Z AUTO 18003KT 10SM OVC029 18/12 A2991 RMK AO2 T01780117
KLNS 242253Z 26008KT 10SM CLR 15/03 A2988 RMK AO2 SLP116 T01500033
KLOL 242253Z AUTO 00000KT 10SM CLR 24/M01 A2994 RMK AO2 SLP122 T02441011
KLOM 242335Z AUTO 00000KT 10SM CLR 16/07 A2984 RMK AO1
KLOR 242253Z AUTO 00000KT 10SM CLR 19/09 A2999 RMK AO2 SLP154 T01940094 TSNO $
KLOT 242335Z AUTO 20004KT 10SM SCT090 14/07 A2996 RMK AO2 T01400068
KLOU 242253Z 24003KT 10SM CLR 17/08 A3006 RMK AO2 SLP179 T01670078
KLOZ 242253Z AUTO 00000KT 10SM CLR 16/04 A3006 RMK AO2 SLP177 T01610039
KLPC 242335Z AUTO 25009KT 10SM CLR 21/13 A2995 RMK AO1
KLPR 242253Z AUTO 00000KT 10SM OVC043 13/08 A3000 RMK AO2 SLP162 T01330083 TSNO
KLQK 242335Z AUTO 10SM CLR 13/10 A3001 RMK AO2 T01250103
KLRD 242256Z 00000KT 10SM CLR 31/16 A3008 RMK AO2 T03050155 SLP175
KLRF 242258Z AUTO 00000KT 3SM HZ CLR 22/15 A3008 RMK AO2 SLP188 T02200147
KLRJ 242335Z AUTO 00000KT 9SM CLR 18/08 A2993 RMK AO2
KLRO 242335Z AUTO 00000KT 10SM CLR 14/12 A2999 RMK AO2 PWINO PNO
KLRU 242335Z AUTO 18005KT 10SM CLR 26/06 A3020 RMK AO2 T02630064
KLSB 242335Z AUTO 32004KT 10SM CLR 27/04 A3016 RMK AO2
KLSE 242332Z 19005KT 10SM SCT019 OVC031 16/13 A2989 RMK AO2 T01610133
KLSF 242258Z AUTO 00000KT 10SM CLR 16/12 A3000 RMK AO2 SLP162 T01600123
KLSV 242258Z AUTO 07006KT 10SM CLR 30/05 A2998 RMK AO2 SLP133 T03030053 $
KLTS 242258Z 19012KT 10SM CLR 31/15 A3001 RMK AO2A SLP150 T03110147 $
KLUA 242335Z AUTO 14003KT 10SM CLR 12/05 A2996 RMK AO2
KLUD 242335Z AUTO 15005KT 10SM CLR 27/15 A3006 RMK AO2 T02650149
KLUF 242258Z 00000KT 10SM CLR 36/13 A2995 RMK AO2A ALSTG ESTMD SLPNO PNO VISNO RWY21 CHINO RWY21 $
KLUK 242253Z 00000KT 10SM CLR 12/07 A3004 RMK AO2 SLP173 T01170067
KLUM 242335Z AUTO 19004KT 5SM BR SCT008 OVC020 14/13 A2987 RMK AO2 T01410131
KLUX 242335Z AUTO 00000KT 10SM CLR 13/08 A3001 RMK AO2
KLVJ 242253Z AUTO 03004KT 10SM CLR 27/13 A3010 RMK AO2 SLP190 T02670128
KLVK 242253Z 28017KT 10SM CLR 24/13 A2986 RMK AO2 SLP110 T02440128
KLVL 242335Z AUTO 00000KT 10SM CLR 12/11 A2995 RMK AO1 T01170107
KLVM 242253Z AUTO 21008KT 10SM OVC080 12/04 A3008 RMK AO2 SLP164 T01170039
KLVN 242328Z AUTO 00000KT 10SM CLR 16/12 A2986 RMK AO2
KLVS 242253Z AUTO 16010KT 10SM CLR 26/M04 A3026 RMK AO2 SLP157 T02561044
KLWA 242335Z AUTO 00000KT 7SM CLR 11/09 A2998 RMK AO2 T01060091
KLWB 242335Z AUTO 00000KT 10SM CLR 12/02 A3004 RMK AO2 T01170022
KLWC 242252Z AUTO 20010KT 9SM CLR 23/17 A2994 RMK AO2 SLP133 T02330167
KLWD 242253Z AUTO 21003KT 9SM CLR 20/17 A2992 RMK AO2 SLP130 T02000167
KLWM 242332Z 30008KT 10SM BKN023 OVC037 10/06 A2974 RMK AO2 T01000056
KLWS 242256Z 11004KT 10SM -RA BKN085 OVC110 14/10 A3003 RMK AO2 RAB39 SLP169 P0000 T01390100
KLWT 242254Z AUTO 00000KT 10SM OVC060 12/03 A3007 RMK AO2 SLP173 T01220033
KLWV 242253Z AUTO 22004KT 10SM CLR 18/11 A3003 RMK AO2 SLP167 T01830111
KLXL 242337Z AUTO 24003KT 10SM CLR 17/03 A2982 RMK AO2
KLXN 242335Z AUTO 29004KT 10SM CLR 25/03 A2998 RMK AO2 T02460031
KLXT 242253Z AUTO 21010KT 10SM CLR 23/16 A2995 RMK AO2 SLP137 T02330161
KLXV 242253Z AUTO 32008G17KT 10SM CLR 14/M08 A3047 RMK AO2 SLP205 T01441083
KLXY 242335Z AUTO 14003KT 10SM CLR 25/16 A3009 RMK AO2 T02460160
KLYH 242254Z 00000KT 10SM CLR 11/07 A2998 RMK AO2 SLP152 T01110067
KLYV 242334Z AUTO 00000KT 10SM CLR 18/05 A2993 RMK AO2
KLZU 242345Z 00000KT 10SM CLR 16/04 A3001 RMK ATIS F RWY 25 SU
KLZZ 242335Z AUTO 00000KT 10SM CLR 26/17 A3009 RMK AO2 T02640166
KM19 242256Z AUTO 00000KT 10SM CLR 23/14 A3008 RMK AO2 T02330138 SLP184
KM25 242355Z AUTO 25003KT 10SM CLR 15/11 A3007 RMK AO2
KM30 242335Z AUTO 00000KT 10SM CLR 15/13 A3005 RMK AO2 T01490130
KM40 242335Z AUTO 00000KT 8SM CLR 15/06 A3009 RMK AO2
KM63 242256Z AUTO 23005KT 10SM CLR 27/06 A3018 RMK AO2 SLP157 T02670061
KMAE 242253Z AUTO 14007KT 10SM CLR 30/04 A2987 RMK AO2 SLP112 T03000044
KMAF 242253Z 26005KT 10SM CLR 30/08 A3011 RMK AO2 SLP155 T03000083
KMAI 242253Z AUTO 00000KT 10SM CLR 22/06 A2998 RMK AO2 SLP151 T02220061 $
KMAN 242335Z AUTO 31005KT 10SM CLR 17/11 A2997 RMK AO1
KMAO 242335Z AUTO 00000KT 10SM CLR 14/11 A2998 RMK AO2
KMBG 242252Z AUTO 31009KT 10SM FEW120 21/03 A2994 RMK AO2 SLP138 T02060028
KMBL 242335Z AUTO 20005KT 10SM OVC010 11/07 A2996 RMK AO1
KMBS 242253Z 18003KT 10SM CLR 14/09 A2996 RMK AO2 SLP149 T01390089
KMCB 242253Z AUTO 32006KT 10SM CLR 22/07 A3007 RMK AO2 SLP181 T02170072
KMCD 242340Z AUTO 23007KT 10SM OVC011 11/10 A2991 RMK AO2 T01060095
KMCE 242253Z AUTO 14007KT 8SM CLR 28/09 A2985 RMK AO2 SLP109 T02830094
KMCF 242258Z AUTO 05006KT 10SM CLR 24/16 A2990 RMK AO2 SLP128 T02360161
KMCI 242253Z 21011KT 10SM BKN250 23/17 A2993 RMK AO2 SLP130 T02280172
KMCJ 242335Z AUTO 00000KT 10SM CLR 24/12 A3006 RMK AO1
KMCK 242253Z AUTO 32007KT 10SM CLR 28/00 A3000 RMK AO2 SLP141 T02830000
KMCN 242253Z 00000KT 10SM CLR 17/09 A2998 RMK AO2 SLP152 T01720094
KMCO 242253Z 06008KT 10SM FEW046 FEW250 23/13 A2993 RMK AO2 SLP132 T02280133 $
KMCW 242253Z AUTO 27004KT 10SM CLR 18/13 A2990 RMK AO2 SLP122 T01780133
KMCX 242335Z AUTO 19003KT 10SM CLR 15/10 A2999 RMK AO2 T01470103
KMDD 242335Z AUTO 00000KT 10SM CLR 29/08 A3012 RMK AO2 T02900079
KMDH 242252Z AUTO 19003KT 10SM CLR 18/11 A3004 RMK AO2 SLP171 T01830106
KMDJ 242335Z AUTO 01015KT 10SM CLR 23/11 A3007 RMK A01
KMDQ 242335Z AUTO 00000KT 10SM CLR 13/05 A3006 RMK AO2
KMDS 242335Z AUTO 27004KT 10SM CLR 19/04 A2994 RMK AO2
KMDT 242256Z 30007KT 10SM BKN220 14/04 A2988 RMK AO2 SLP119 T01440044
KMDW 242253Z 23005KT 10SM SCT150 BKN250 18/08 A2995 RMK AO2 SLP142 T01830078
KMDZ 242335Z AUTO 17004KT 10SM OVC019 12/10 A2987 RMK AO2 T01220097
KMEB 242252Z AUTO 29003KT 10SM CLR 16/11 A2998 RMK AO2 SLP152 T01610111
KMEH 242256Z AUTO 00000KT 10SM -RA BKN045 OVC060 09/08 A2999 RMK AO2 SLP160 P0002 T00890078
KMEI 242258Z 34004KT 10SM CLR 18/09 A3006 RMK AO2 SLP177 T01830094
KMEM 242254Z 00000KT 10SM FEW150 SCT250 22/12 A3008 RMK AO2 SLP183 T02170117 $
KMER 242245Z 18007KT 7SM SKC 29/08 A2986
KMEV 242335Z AUTO 18019G26KT 10SM CLR 24/M08 A2999 RMK AO2
KMEZ 242335Z AUTO 00000KT 10SM CLR 22/17 A3009 RMK AO2
KMFD 242252Z 27003KT 10SM OVC040 14/04 A3001 RMK AO2 SLP166 T01390044
KMFE 242253Z 06008KT 10SM CLR 29/17 A3007 RMK AO2 SLP180 T02890167
KMFI 242254Z AUTO 20006KT 10SM OVC025 14/11 A2988 RMK AO2 SLP122 T01440106
KMFR 242253Z 30003KT 10SM CLR 20/12 A2976 RMK AO2 SLP072 T02000117
KMFV 242335Z AUTO 30005KT 10SM CLR 13/08 A2991 RMK AO2
KMGC 242335Z AUTO 00000KT 10SM CLR 11/08 A2998 RMK AO2
KMGE 242258Z 30005KT 10SM FEW150 18/05 A3001 RMK AO2A SLP161 T01750051 $
KMGG 242335Z AUTO 00000KT 5SM HZ CLR 17/11 A2985 RMK AO2 T01730105
KMGJ 242254Z AUTO 10SM CLR 12/07 A2979 RMK AO2 SLP087 T01220067 TSNO
KMGM 242253Z 36004KT 10SM CLR 22/06 A3002 RMK AO2 SLP163 T02220061
KMGN 242334Z AUTO 22005KT 10SM OVC015 11/08 A2992 RMK AO2 T01180091
KMGR 242335Z AUTO 00000KT 10SM CLR 17/12 A3000 RMK AO2
KMGW 242253Z 00000KT 10SM CLR 15/02 A3003 RMK AO2 SLP170 T01500022
KMGY 242253Z AUTO 20004KT 10SM CLR 14/04 A3002 RMK AO2 SLP168 T01390044
KMHE 242253Z AUTO 18004KT 10SM CLR 23/05 A2991 RMK AO2 SLP128 T02330050
KMHK 242252Z 23010KT 10SM CLR 27/17 A2992 RMK AO2 SLP125 T02670172
KMHR 242345Z 22008KT 10SM FEW200 24/11 A2986
KMHS 242256Z AUTO VRB05KT 10SM CLR 16/08 A2994 RMK AO2 SLP144 T01560083
KMHT 242253Z 32009KT 10SM OVC025 09/04 A2972 RMK AO2 SLP077 T00940039
KMHV 242335Z AUTO 22015G19KT 10SM CLR 28/M02 A3001 RMK AO1
KMIA 242346Z VRB03KT 10SM FEW028 BKN039 BKN050 26/21 A2983 RMK AO2 RAB2258E14 P0000 T02560206
KMIB 242258Z AUTO 29014G21KT 10SM CLR 16/M01 A2987 RMK AO2 PK WND 29026/07 SLP123 T01571010 $
KMIC 242253Z AUTO 20004KT 9SM CLR 19/12 A2983 RMK AO2 SLP100 T01890117
KMIE 242253Z 23004KT 10SM CLR 15/10 A3002 RMK AO2 SLP162 T01500100
KMIS 242335Z AUTO 04011KT 10SM CLR 22/10 A3004 RMK A01
KMIV 242254Z AUTO 28007KT 10SM CLR 15/07 A2985 RMK AO2 SLP105 T01500072
KMIW 242328Z AUTO 19004KT 4SM BR OVC012 16/16 A2991 RMK AO2 T01610156
KMJQ 242333Z AUTO 29004KT 10SM CLR 18/03 A2992 RMK AO2
KMJX 242335Z AUTO 00000KT 10SM CLR 13/08 A2982 RMK AO1
KMKC 242254Z 20011KT 10SM CLR 24/17 A2993 RMK AO2 SLP130 T02390167
KMKE 242252Z 21004KT 10SM SCT095 BKN250 14/09 A2994 RMK AO2 SLP139 T01440089
KMKG 242255Z 22007KT 8SM OVC009 12/09 A2998 RMK AO2 SLP154 T01170089
KMKJ 242335Z AUTO 26006KT 10SM CLR 12/03 A3008 RMK AO2 T01220025
KMKL 242253Z 30003KT 10SM CLR 20/11 A3008 RMK AO2 SLP183 T02000111
KMKN 242335Z AUTO 19003KT 10SM CLR 28/15 A3009 RMK AO2 T02750149
KMKO 242253Z AUTO 17004KT 10SM CLR 24/16 A3005 RMK AO2 SLP173 T02390161
KMKS 242355Z AUTO 00000KT 10SM CLR 15/14 A2998 RMK AO2
KMKT 242335Z AUTO 25004KT 10SM CLR 18/09 A2988 RMK AO1
KMLB 242253Z 04011KT 10SM OVC045 24/14 A2990 RMK AO2 SLP124 T02440139
KMLC 242253Z AUTO 19005KT 10SM CLR 25/16 A3006 RMK AO2 SLP173 T02500161
KMLE 242335Z AUTO 00000KT 10SM CLR 19/15 A2993 RMK AO2 T01920151
KMLF 242252Z AUTO 20010KT 10SM CLR 26/M02 A3015 RMK AO2 SLP156 T02561022 TSNO
KMLI 242252Z 18007KT 10SM OVC039 19/12 A2990 RMK AO2 SLP126 T01940117
KMLJ 242335Z AUTO 00000KT 10SM CLR 15/12 A3000 RMK AO2
KMLP 242343Z AUTO VRB03KT 10SM FEW008 OVC015 03/02 A3009 RMK AO2 T00280017
KMLS 242253Z AUTO 31007KT 10SM OVC085 16/00 A3006 RMK AO2 SLP180 T01560000
KMLT 242313Z AUTO 01008KT 7SM -RA SCT014 BKN022 OVC036 06/04 A2969 RMK AO2 P0000 T00560044
KMLU 242253Z 36003KT 10SM CLR 21/11 A3011 RMK AO2 SLP197 T02060106
KMMH 242335Z AUTO 12010G18KT 090V160 10SM CLR 20/M09 A3015 RMK AO1
KMMI 242335Z AUTO 00000KT 10SM CLR 11/07 A3007 RMK
KMMK 242253Z AUTO 35004KT 10SM OVC041 12/06 A2978 RMK AO2 SLP084 T01170061 TSNO
KMML 242335Z AUTO 29009KT 10SM CLR 17/04 A2989 RMK AO1
KMMT 242258Z 00000KT 10SM BKN190 BKN250 16/10 A2999 RMK AO2A SLP158 T01620100
KMMU 242245Z 35005G14KT 10SM SKC 17/05 A2980
KMMV 242253Z AUTO 34004KT 7SM -RA FEW047 OVC095 12/11 A2986 RMK AO2 SLP111 P0004 T01220106
KMNE 242335Z AUTO 00000KT 10SM CLR 19/15 A3011 RMK AO2
KMNH 242332Z AUTO 17007KT 10SM CLR 18/M05 A3025 RMK AO2
KMNI 242335Z AUTO 00000KT 7SM CLR 16/16 A2998 RMK AO2
KMNM 242335Z AUTO 21006KT 3SM SCT050 09/08 A2989 RMK AO1
KMNN 242253Z AUTO 29003KT 8SM CLR 13/04 A3001 RMK AO2 SLP167 T01330039 TSNO
KMNZ 242335Z AUTO 17005KT 10SM CLR 27/14 A3010 RMK AO2 T02650141
KMOB 242256Z 33003KT 10SM CLR 21/08 A3003 RMK AO2 SLP169 T02110078
KMOD 242253Z 14007KT 10SM CLR 27/10 A2984 RMK AO2 SLP107 T02670100
KMOP 242339Z AUTO 24003KT 10SM BKN017 12/09 A2997 RMK AO2 T01170092
KMOR 242335Z AUTO 00000KT 10SM FEW110 14/07 A3007 RMK
KMOT 242254Z AUTO 28013G20KT 10SM CLR 16/M03 A2989 RMK AO2 PK WND 27029/2211 SLP124 T01611028
KMOX 242325Z AUTO 27007KT 10SM CLR 18/07 A2985 RMK AO2
KMPO 242253Z AUTO 31012G21KT 10SM CLR 12/04 A2984 RMK AO2 SLP109 T01220044
KMPV 242302Z AUTO 32006KT 10SM FEW009 OVC015 06/04 A2985 RMK AO2 T00560044 $
KMPZ 242335Z AUTO 00000KT 7SM OVC025 14/14 A2994 RMK AO2 T01420140
KMQB 242335Z AUTO 17006KT 10SM CLR 17/11 A2995 RMK AO2 T01730114
KMQE 242254Z AUTO 30008KT 09/06 A2971 RMK AO1 SLP072 T00890061
KMQI 242335Z AUTO 29004KT 10SM CLR 16/12 A2994 RMK AO2 T01570123
KMQJ 242334Z AUTO 19004KT 10SM SCT036 BKN044 14/08 A3003 RMK AO1
KMQS 242335Z AUTO 29010KT 10SM CLR 14/03 A2988 RMK AO2
KMQY 242256Z 00000KT 10SM CLR 17/09 A3007 RMK AO2 T01660094 SLP193
KMRB 242253Z 29004KT 10SM CLR 16/00 A2995 RMK AO2 SLP143 T01560000
KMRC 242335Z AUTO 00000KT 10SM CLR 17/10 A3007 RMK
KMRF 242335Z AUTO 15006KT 10SM CLR 24/10 A3025 RMK AO1
KMRH 242258Z AUTO 27005KT 10SM CLR 17/11 A2995 RMK AO2 SLP144 T01670111 TSNO
KMRJ 242335Z AUTO 22003KT 7SM BKN024 OVC029 15/12 A2993 RMK AO2
KMRN 242335Z AUTO 00000KT 10SM CLR 09/09 A3005 RMK AO2 T00910087
KMRT 242334Z AUTO 23004KT 10SM CLR 11/03 A3003 RMK AO2 T01050028
KMRY 242254Z 21012G16KT 10SM CLR 19/13 A2993 RMK AO2 SLP146 T01890133
KMSL 242253Z AUTO 32004KT 10SM CLR 21/07 A3007 RMK AO2 SLP180 T02060067
KMSN 242253Z 18007KT 10SM SCT050 BKN085 BKN250 16/10 A2990 RMK AO2 SLP127 T01560100
KMSO 242253Z AUTO 19004KT 10SM -RA OVC055 11/07 A3011 RMK AO2 RAB31 SLP203 P0000 T01060072 TSNO
KMSP 242253Z 24005KT 8SM BKN250 19/12 A2984 RMK AO2 SLP107 T01890117
KMSS 242253Z AUTO 16004KT 10SM BKN095 10/06 A2985 RMK AO2 SLP113 T01000061
KMSV 242335Z AUTO 32010KT 10SM CLR 12/03 A2984 RMK AO1
KMSY 242253Z 32007KT 10SM FEW250 22/08 A3006 RMK AO2 SLP180 T02220083
KMTC 242255Z 23006KT 10SM BKN042 BKN230 14/07 A2995 RMK SLP152 T01430069
KMTH 242333Z AUTO 02011G19KT 10SM SCT024 SCT046 OVC070 26/23 A2981 RMK AO2 T02560228
KMTJ 242253Z AUTO 33004KT 10SM CLR 24/M02 A3027 RMK AO2 SLP198 T02391017
KMTN 242255Z 00000KT 10SM SKC 16/05 A2991
KMTO 242253Z AUTO 26004KT 10SM CLR 17/12 A3002 RMK AO2 SLP164 T01670117
KMTP 242254Z AUTO 33012G20KT 13/06 A2977 RMK AO1 SLP080 T01280061
KMTV 242335Z AUTO 00000KT 10SM CLR 10/10 A3001 RMK AO2 T01040099
KMTW 242256Z AUTO 18005KT 5SM BR CLR 10/09 A2993 RMK AO2 SLP163 T01000094
KMUI 242258Z AUTO 26009KT 10SM CLR 17/03 A2988 RMK AO2 SLP121 T01660031 $
KMUO 242258Z AUTO VRB02KT 9SM CLR 22/05 A2997 RMK AO2 SLP137 T02160050
KMUT 242335Z AUTO 26008KT 10SM FEW014 OVC021 17/14 A2995 RMK AO2
KMVE 242334Z AUTO 30003KT 10SM CLR 20/04 A2987 RMK AO2
KMVL 242327Z AUTO 01003KT 10SM SCT022 OVC046 08/03 A2985 RMK AO2 T00780033
KMVN 242335Z AUTO 00000KT 10SM CLR 13/09 A3004 RMK AO1
KMVY 242253Z 30008KT 10SM OVC025 11/08 A2972 RMK AO2 SLP065 T01110078
KMWA 242335Z AUTO 00000KT 10SM CLR 15/13 A3005 RMK AO2
KMWC 242245Z AUTO 22006KT 10SM BKN085 15/08 A2994
KMWH 242252Z 01006KT 10SM OVC110 13/07 A3003 RMK AO2 SLP172 T01330067
KMWK 242335Z AUTO 00000KT 10SM CLR 13/07 A3001 RMK AO2 T01310070
KMWL 242253Z AUTO 19008KT 10SM CLR 29/14 A3005 RMK AO2 SLP165 T02940144
KMWM 242333Z AUTO 26005KT 10SM CLR 17/03 A2991 RMK AO2
KMWN 242253Z 02026KT 1/16SM FG VV001 01/01 RMK
KMWO 242335Z AUTO 00000KT 10SM CLR 13/07 A3005 RMK AO2 T01250067
KMWS 242330Z 23500G00KT MM/M02
KMWT 242253Z AUTO 00000KT 10SM CLR 21/17 A3007 RMK AO2 SLP181 T02110167
KMXF 242258Z AUTO 35002KT 10SM CLR 20/07 A3001 RMK AO2 SLP165 T02040074
KMXO 242335Z AUTO 22003KT 10SM OVC017 17/14 A2992 RMK AO2
KMYF 242253Z AUTO 25006KT 10SM CLR 30/M02 A2994 RMK AO2 SLP133 T03001017 TSNO
KMYL 242251Z AUTO VRB03KT 10SM OVC100 09/07 A3006 RMK AO2 SLP173 T00940067
KMYP 242336Z AUTO 26028G31KT 10SM CLR 08/M06 A3071 RMK AO2
KMYR 242245Z 00000KT 10SM FEW150 18/10 A2998
KMYV 242253Z AUTO 18006KT 10SM 24/10 A2987 RMK AO2 SLP117 T02440100 $
KMYZ 242335Z AUTO 22003KT 10SM CLR 23/17 A2993 RMK AO2
KMZG 242335Z AUTO VRB05G11KT 10SM CLR 25/11 A3008 RMK A01
KMZH 242333Z AUTO 21005KT 10SM CLR 15/10 A2977 RMK AO2
KMZZ 242335Z AUTO 21005KT 10SM SCT033 SCT040 12/09 A3002 RMK AO2 T01230088
KN03 242335Z AUTO 00000KT 10SM CLR 07/04 A2992 RMK AO2
KN38 242335Z AUTO 30009KT 10SM CLR 11/M02 A2995 RMK AO2
KN60 242252Z AUTO 30015KT 16/M01 A2992 RMK AO1 SLP138 T01561011
KNAK 242254Z AUTO 28005KT 10SM CLR 17/03 A2990 RMK AO2 SLP126 T01670028
KNBC 242256Z AUTO 00000KT 10SM CLR 17/12 A2999 RMK AO2 SLP154 T01670117 $
KNBG 242255Z 35004KT 10SM FEW010 FEW250 23/07 A3004 RMK AO2 SLP173 FU FEW010 T02280072 $
KNBT 242256Z AUTO 28004KT 9SM CLR 18/12 A2995 RMK AO2 SLP145 T01830122 PNO
KNCA 242256Z AUTO 24004KT 10SM CLR 14/12 A2996 RMK AO2 SLP149 T01440117
KNDZ 242256Z 34005KT 10SM CLR 21/08 A3001 RMK AO2 SLP148 T02110078 $
KNEW 242253Z AUTO 31009KT 10SM CLR 23/12 A3005 RMK AO2 SLP170 T02280122 TSNO
KNFE 242256Z AUTO 00000KT 10SM CLR 16/08 A2992 RMK AO2 SLP135 T01610083
KNFG 242254Z 21005KT 7SM CLR 28/03 A2992 RMK AO2 SLP131 T02830033 $
KNFL 242256Z 02006KT 10SM FEW220 26/M01 A2993 RMK AO2 SLP109 T02561006
KNFW 242252Z 17009KT 10SM FEW250 31/14 A3010 RMK AO2 SLP174 T03110144 VISNO N $
KNGP 242256Z 12008KT 10SM CLR 26/18 A3007 RMK AO2 SLP183 T02560178
KNGU 242259Z 27005KT 10SM SCT250 18/08 A2994 RMK AO2 SLP137 T01830078 $
KNHK 242252Z 27008KT 10SM FEW150 BKN250 14/05 A2991 RMK AO2 SLP128 T01440050 $
KNID 242256Z 19008KT 10SM CLR 32/M03 A2996 RMK AO2 SLP130 T03171033 $
KNIP 242253Z 05008KT 10SM FEW035 FEW250 23/12 A2997 RMK AO2 SLP143 T02280117
KNJK 242256Z 00000KT 10SM CLR 35/07 A2986 RMK AO2 SLP127 T03500072
KNJM 241757Z 000000KT 10SM BKN150 19/08 A2999 RMK SLP160 T01940083 10206 20094 58020
KNKT 242254Z AUTO 26004KT 10SM CLR 14/10 A2996 RMK AO2 SLP143 T01440100 $
KNKX 242255Z 29006KT 10SM FEW200 30/06 A2994 RMK AO2 SLP131 T03000056
KNLC 242256Z 12006KT 8SM CLR 29/07 A2987 RMK AO2 SLP115 RH/24 T02940072 $
KNMM 242256Z AUTO 34004KT 10SM CLR 21/06 A3006 RMK AO2 SLP190 T02110061 $
KNOG 242256Z AUTO 14007KT 10SM CLR 29/14 A3007 RMK AO2 SLP163 T02940144 $
KNPA 242256Z 00000KT 10SM CLR 19/12 A3000 RMK AO2 SLP160 T01890117
KNQA 242250Z VRB04KT 10SM FEW250 21/14 A3007
KNQI 242256Z AUTO 09006KT 10SM CLR 28/16 A3007 RMK AO2 SLP178 T02830161
KNQX 242253Z 03013KT 10SM FEW025 SCT040 BKN110 BKN250 27/21 A2981 RMK AO2 SLP094 T02670211 $
KNRB 242252Z AUTO 36005KT 10SM CLR 21/13 A2996 RMK AO2 SLP146 T02060133
KNRS 242256Z 27006KT 8SM CLR 24/19 A2994 RMK AO2 SLP136 T02390194 $
KNSE 242256Z 34004KT 10SM FEW200 20/09 A3001 RMK AO2 SLP148 FU DSNT SE T02000094 $
KNSI 242322Z 02004KT 10SM FEW002 20/17 A2994 RMK AO2 T02000167 $
KNTD 242256Z 22007KT 10SM FEW009 24/18 A2993 RMK AO2 SLP137 T02390178 $
KNTU 242256Z 28005KT 10SM SCT280 17/07 A2991 RMK AO2 SLP132 T01670067
KNUC 242256Z VRB04KT 10SM CLR 23/17 A2995 RMK SLP140 LAST T02280167
KNUI 242253Z AUTO 28004KT 10SM CLR 16/06 A2991 RMK AO2 SLP128 T01560056 $
KNUQ 242256Z 34012KT 10SM CLR 21/14 A2990 RMK AO2 SLP126 T02110139
KNUW 242256Z 35006KT 10SM SCT035 BKN120 BKN240 13/08 A2996 RMK AO2 SLP148 T01330083 $
KNXF 242256Z AUTO 29007KT 9SM CLR A2993 RMK AO2 SLPNO $
KNXP 242256Z 11014KT 10SM CLR 32/04 A3003 RMK AO2 SLP135 T03170044
KNY0 242335Z AUTO 31003KT 10SM OVC080 10/05 A2985 RMK AO2 T00980054
KNYC 242251Z AUTO 00000KT 10SM FEW060 14/07 A2982 RMK AO2 SLP088 T01390072 $
KNYG 242256Z AUTO 30004KT 10SM CLR 13/08 A2994 RMK AO2 SLP141 T01330083 $
KNYL 242257Z 19008KT 10SM CLR 36/04 A2988 RMK AO2 SLP115 T03610039
KNZY 242252Z 32006KT 10SM CLR 26/15 A2992 RMK AO2 SLP130 T02610150 $
KO22 242335Z AUTO 17008KT 10SM CLR 25/02 A2991 RMK AO1
KO54 242335Z AUTO 08004KT 10SM CLR 18/09 A2988 RMK AO1
KO69 242335Z AUTO 22010KT 10SM CLR 21/13 A2991 RMK AO1
KO86 242335Z AUTO 25003KT 10SM CLR 16/12 A2991 RMK AO1
KOAJ 242335Z AUTO 00000KT 10SM CLR 12/09 A2998 RMK AO1
KOAK 242253Z 25011KT 10SM FEW018 BKN200 21/13 A2991 RMK AO2 SLP126 T02060133
KOBE 242335Z AUTO CLR 20/15 RMK AO2 PWINO
KOCF 242250Z 03003KT 10SM CLR 22/10 A2994
KOCH 242335Z AUTO 00000KT 10SM CLR 20/16 A3011 RMK AO1
KOCQ 242335Z AUTO 17005KT 2 1/2SM CLR 09/09 A2989 RMK AO1 T00920092
KOCW 242335Z AUTO 00000KT 10SM CLR 14/11 A2996 RMK AO2 T01360106
KODO 242253Z AUTO 10SM CLR 29/08 A3013 RMK AO2 SLP161 T02890078
KODX 242253Z AUTO 00000KT 10SM CLR 24/06 A2996 RMK AO2 SLP142 T02390056
KOEB 242335Z AUTO 00000KT 10SM SCT039 12/10 A2999 RMK AO2 T01190097
KOEO 242335Z AUTO 16003KT 7SM CLR 13/13 A2987 RMK AO2 T01310131
KOFF 242258Z AUTO 26003KT 10SM CLR 22/17 A2990 RMK AO2 SLP125 T02240170
KOFK 242256Z AUTO 30004KT 10SM CLR 22/08 A2995 RMK AO2 SLP136 T02170078
KOFP 242254Z AUTO 00000KT 10SM CLR 12/09 A2995 RMK AO2 SLP143 T01220089
KOGA 242335Z AUTO 00000KT 10SM CLR 24/01 A3003 RMK AO2 T02410013
KOGB 242253Z AUTO 02005KT 10SM CLR 19/09 A2998 RMK AO2 SLP150 T01890094
KOGD 242253Z VRB03KT 10SM CLR 24/00 A3010 RMK AO2 SLP151 T02440000
KOJA 242335Z AUTO 00000KT 10SM CLR 27/15 A3002 RMK AO2
KOJC 242253Z 20007KT 10SM CLR 23/17 A2995 RMK AO2 SLP135 T02280172
KOKB 242252Z AUTO 24006KT 9SM CLR 27/13 A2992 RMK AO2 SLP130 T02670128
KOKC 242252Z 19008KT 10SM BKN250 27/16 A3002 RMK AO2 SLP157 T02720156
KOKK 242335Z AUTO 24003KT 10SM CLR 14/09 A3002 RMK AO1
KOKM 242335Z AUTO 18009KT 10SM CLR 23/17 A3003 RMK AO2 T02300173
KOKV 242335Z AUTO 29007KT 10SM CLR 16/M03 A2996 RMK AO2
KOKZ 242335Z AUTO 00000KT 10SM CLR 15/11 A3002 RMK AO2 T01500114
KOLE 242335Z AUTO 28004KT 10SM CLR 07/02 A2996 RMK AO2
KOLF 242253Z AUTO 28012KT 10SM CLR 16/M01 A3000 RMK AO2 SLP164 T01611006
KOLG 242335Z AUTO 19007KT 10SM CLR 13/11 A2980 RMK AO1
KOLM 242254Z 02005KT 10SM SCT120 12/09 A2991 RMK AO2 SLP129 T01170094
KOLS 242254Z AUTO 29004KT 10SM CLR 30/06 A3013 RMK AO2 SLP145 T03000061
KOLU 242335Z AUTO 00000KT 10SM CLR 19/08 A2997 RMK AO1
KOLV 242250Z 00000KT 10SM SCT250 19/12 A3009
KOLY 242335Z AUTO 00000KT 10SM CLR 15/10 A3003 RMK AO2
KOLZ 242335Z AUTO 21004KT 2 1/2SM BR OVC004 15/15 A2992 RMK AO2
KOMA 242252Z 25003KT 10SM BKN250 23/13 A2991 RMK AO2 SLP123 T02280133
KOMH 242335Z AUTO 00000KT 10SM CLR 10/07 A2997 RMK AO2
KOMK 242253Z AUTO 00000KT 10SM CLR 12/03 A3005 RMK AO2 SLP182 T01170028
KOMN 242250Z 02006KT 10SM SCT040 22/14 A2994 RMK LAST
KONA 242334Z AUTO 25003KT 10SM OVC024 15/12 A2989 RMK AO2
KONL 242335Z AUTO 00000KT 10SM CLR 20/05 A2998 RMK AO2 T02040046
KONM 242335Z AUTO 19004KT 10SM CLR 25/03 A3021 RMK AO2 T02520031
KONO 242253Z AUTO 30003KT 10SM CLR 16/10 A3001 RMK AO2 SLP163 T01610100
KONP 242335Z AUTO 08013G21KT 7SM -RA SCT014 OVC020 11/10 A2979 RMK AO2 P0006
KONT 242253Z 26012G19KT 10SM CLR 32/03 A2994 RMK AO2 SLP120 T03220033
KONX 242335Z AUTO 26003KT 10SM CLR 15/09 A2994 RMK AO2 T01510085
KONZ 242334Z AUTO 22003KT 10SM BKN040 14/08 A2998 RMK AO2
KOOA 242335Z AUTO 23004KT 7SM SCT014 OVC020 18/15 A2994 RMK AO2 T01750152
KOPF 242253Z 02008KT 10SM SCT034 OVC049 26/20 A2982 RMK AO2 SLP099 T02560200
KOPL 242335Z AUTO 00000KT 10SM OVC002 17/11 A3009 RMK AO2 T01740112
KOPM 242335Z AUTO 02005G12KT 10SM CLR 25/16 A3008 RMK A01
KOPN 242335Z AUTO 00000KT 10SM CLR 17/11 A3002 RMK AO2
KOQT 242253Z AUTO 00000KT 10SM CLR 16/09 A3006 RMK AO2 SLP178 T01610094
KOQU 242250Z 31007KT 15SM OVC032 11/07 A2974
KORB 242333Z AUTO 00000KT 10SM CLR 18/02 A2967 RMK AO2
KORC 242335Z AUTO 00000KT 10SM CLR 19/07 A2993 RMK AO2
KORD 242251Z 19007KT 10SM SCT010 BKN250 17/07 A2994 RMK AO2 SLP139 T01720072
KORE 242252Z AUTO 33008KT 10SM OVC024 09/05 A2975 RMK AO2 SLP079 T00890050
KORF 242251Z AUTO 00000KT 10SM CLR 17/07 A2992 RMK AO2 SLP131 T01720067 TSNO
KORG 242335Z AUTO 00000KT 10SM CLR 21/10 A3010 RMK AO2 T02070102
KORH 242254Z 30010G19KT 10SM OVC017 08/04 A2974 RMK AO2 SLP075 T00780039
KORL 242253Z 05005KT 10SM SCT045 23/14 A2993 RMK AO2 SLP137 T02280144
KORS 242335Z AUTO 00000KT 10SM CLR 12/08 A2994 RMK AO2
KOSA 242335Z AUTO 00000KT 10SM CLR 23/15 A3011 RMK AO1 T02300153
KOSC 242334Z AUTO 00000KT 10SM OVC019 11/08 A2993 RMK AO2 T01150090
KOSH 242253Z 18004KT 10SM FEW070 OVC090 12/10 A2991 RMK AO2 SLP129 T01220100
KOSU 242253Z 20005KT 10SM CLR 16/02 A3000 RMK AO2 SLP161 T01560017
KOTG 242335Z AUTO 29004KT 10SM CLR 17/04 A2993 RMK AO1
KOTH 242335Z 13003KT 10SM BKN060 OVC065 17/16 A2973 RMK AO1
KOTM 242253Z AUTO 23005KT 8SM OVC019 18/16 A2991 RMK AO2 SLP128 T01830156
KOUN 242330Z AUTO 19005KT 10SM CLR 26/17 A3003 RMK AO2
KOVE 242253Z AUTO 15007KT 10SM CLR 25/09 A2988 RMK AO2 SLP119 T02500094
KOVL 242334Z AUTO 24004KT 10SM CLR 16/07 A2987 RMK AO2
KOVS 242330Z AUTO 00000KT 4SM BR SCT012 OVC020 16/14 A2992 RMK AO2 T01560139
KOWA 242335Z AUTO 24004KT 10SM CLR 15/11 A2988 RMK AO2
KOWB 242256Z 26003KT 10SM CLR 18/11 A3005 RMK AO2 T01770111 SLP176
KOWD 242253Z 29008KT 10SM OVC028 11/06 A2972 RMK AO2 SLP063 T01060061
KOWP 242335Z AUTO 17005KT 10SM CLR 26/17 A3003 RMK AO2 T02560171
KOXB 242253Z AUTO 27005KT 10SM CLR 14/08 A2988 RMK AO2 SLP119 T01440078 TSNO
KOXC 242245Z 34004KT 10SM OVC035 11/06 A2979
KOXI 242335Z AUTO 20003KT 10SM CLR 13/08 A2997 RMK AO1 T01320079
KOXR 242251Z 26006KT 10SM CLR 23/17 A2993 RMK AO2 SLP134 T02330167
KOXV 242335Z AUTO 00000KT 4SM BR BKN024 17/15 A2991 RMK AO2
KOZA 242335Z AUTO 19006KT 10SM CLR 26/12 A3015 RMK AO2
KOZR 242258Z AUTO 33003KT 10SM CLR 21/07 A3000 RMK AO2 SLP160 T02130072
KOZW 242335Z AUTO 00000KT 10SM OVC042 13/08 A2998 RMK AO2 T01300080
KP28 242256Z AUTO 17006KT 28/16 A2999 RMK AO1 SLP144 T02780161
KP53 242256Z AUTO 18013G17KT 11/07 A2983 RMK AO1 SLP105 T01060072
KP58 242251Z AUTO 00000KT 12/09 A2994 RMK AO1 SLP141 T01170089
KP59 242251Z AUTO 24008KT 11/07 A2973 RMK AO1 SLP070 T01110072
KP60 242256Z AUTO VRB05G17KT 12/M05 A3023 RMK AO1 SLP183 T01171050
KP68 242253Z AUTO 18020G23KT 25/M07 A3009 RMK AO1 SLP131 T02501072
KP69 242252Z AUTO 00000KT 11/11 A3007 RMK AO1 SLP186 P0001 T01110106
KP92 242253Z AUTO 35004KT 23/11 A3006 RMK AO1 SLP179 T02280106
KPAE 242253Z 35004KT 10SM CLR 12/07 A2995 RMK AO2 SLP143 T01220072
KPAH 242253Z 23003KT 8SM CLR 18/12 A3005 RMK AO2 SLP175 T01780122
KPAM 242258Z AUTO 31005KT 10SM CLR 20/12 A3000 RMK AO2 SLP162 T02010120 $
KPAN 242335Z AUTO 00000KT 10SM CLR 25/04 A3024 RMK AO2
KPAO 242247Z 36010KT 20SM SKC 22/16 A2989
KPBF 242253Z AUTO 24003KT 10SM CLR 22/13 A3010 RMK AO2 SLP190 T02170133
KPBG 242253Z AUTO 27004KT 10SM OVC049 09/05 A2984 RMK AO2 SLP107 T00940050
KPBH 242335Z AUTO 20008KT 10SM OVC018 13/10 A2984 RMK AO2 T01310098
KPBI 242253Z 01011G19KT 10SM BKN028 BKN035 BKN050 26/20 A2984 RMK AO2 SLP104 T02560200
KPBX 242335Z AUTO 00000KT 10SM CLR 12/05 A3007 RMK AO2 T01230045
KPCM 242335Z AUTO 04003KT 10SM CLR 23/15 A2994 RMK AO2
KPCW 242333Z AUTO 00000KT 10SM BKN049 14/08 A2999 RMK AO2 $
KPCZ 242335Z AUTO 00000KT 10SM SCT033 SCT060 BKN070 13/11 A2990 RMK AO2 T01250109
KPDC 242335Z AUTO 00000KT 10SM OVC015 16/13 A2992 RMK AO2 T01550133
KPDK 242253Z 29005KT 10SM CLR 17/06 A3001 RMK AO2 SLP160 T01720056
KPDT 242253Z 04015KT 10SM -RA BKN070 OVC085 12/09 A2996 RMK AO2 SLP143 P0000 T01170089
KPDX 242253Z 08004KT 8SM -RA BKN070 OVC085 13/11 A2987 RMK AO2 SLP113 P0003 T01280111
KPEA 242335Z AUTO 18003KT 5SM BR SCT012 SCT020 17/16 A2994 RMK AO2 T01730157
KPEO 242253Z AUTO 29006KT 10SM CLR 12/00 A2992 RMK AO2 SLP134 T01170000
KPEQ 242335Z AUTO 09005KT 10SM CLR 29/11 A3009 RMK AO2 T02850106
KPEX 242334Z AUTO 18005KT 10SM CLR 17/05 A2985 RMK AO2 T01670053
KPEZ 242335Z AUTO 08003KT 10SM CLR 28/14 A3008 RMK AO2 T02820141
KPGA 242253Z AUTO 07004KT 10SM CLR 25/01 A3017 RMK AO2 SLP167 T02500006
KPGD 242253Z 04006KT 10SM CLR 24/16 A2988 RMK AO2 SLP120 T02390156
KPGV 242330Z AUTO 00000KT 7SM CLR 13/12 A2999 RMK AO2
KPHD 242253Z AUTO 00000KT 10SM CLR 12/05 A3002 RMK AO2 SLP170 T01220050
KPHF 242254Z 28003KT 10SM CLR 17/07 A2993 RMK AO2 SLP134 T01670072
KPHL 242254Z 27010KT 10SM BKN250 18/06 A2984 RMK AO2 SLP104 T01830061
KPHN 242336Z AUTO 00000KT 10SM OVC040 12/08 A2997 RMK AO2
KPHP 242255Z AUTO 36009KT 10SM CLR 23/03 A2997 RMK AO2 SLP145 T02280033
KPHT 242335Z AUTO 00000KT 10SM CLR 13/11 A3008 RMK
KPHX 242251Z 00000KT 10SM CLR 35/08 A2994 RMK AO2 SLP120 T03500078
KPIA 242254Z 13004KT 10SM CLR 17/11 A2997 RMK AO2 SLP149 T01720106
KPIB 242335Z AUTO 32003KT 10SM CLR 16/08 A3008 RMK AO1
KPIE 242253Z 34013KT 10SM CLR 22/15 A2991 RMK AO2 SLP127 T02170150
KPIH 242253Z 18012G19KT 10SM CLR 23/M02 A3007 RMK AO2 SLP148 T02331022
KPIL 242253Z AUTO 04008KT 7SM FEW034 26/17 A3007 RMK AO2 SLP183 T02610172
KPIR 242253Z AUTO 35010KT 10SM CLR 23/03 A2994 RMK AO2 SLP137 T02330033
KPIT 242251Z 26004KT 10SM FEW250 13/02 A3000 RMK AO2 SLP171 T01330022
KPKB 242253Z 00000KT 10SM CLR 13/04 A3005 RMK AO2 SLP180 T01330044
KPKD 242253Z AUTO 24008KT 10SM CLR 17/05 A2979 RMK AO2 SLP090 T01670050 TSNO
KPKV 242335Z AUTO 11006KT 10SM CLR 24/16 A3008 RMK AO2 T02430155
KPLN 242333Z AUTO 21003KT 10SM OVC014 11/09 A2992 RMK AO2 T01110089
KPMD 242253Z 32007KT 10SM CLR 30/M02 A2999 RMK AO2 SLP136 T03001017
KPMP 242253Z 02009KT 10SM SCT028 BKN033 OVC049 27/21 A2983 RMK AO2 SLP101 T02670206
KPMV 242335Z AUTO 00000KT 10SM CLR 21/14 A2993 RMK AO2 T02060135
KPNA 242335Z AUTO 27007KT 10SM CLR 16/M07 A3023 RMK AO2
KPNC 242253Z AUTO 21006KT 10SM CLR 28/16 A2999 RMK AO2 SLP147 T02780161
KPNE 242254Z AUTO 32004KT 10SM CLR 18/06 A2984 RMK AO2 SLP105 T01830056 TSNO
KPNM 242335Z AUTO 00000KT 10SM CLR 16/11 A2983 RMK AO2
KPNS 242253Z 35003KT 10SM CLR 22/06 A3000 RMK AO2 SLP161 T02220056
KPNT 242335Z AUTO 22004KT 10SM CLR 16/10 A2998 RMK AO2 T01590100
KPOB 242258Z AUTO 00000KT 10SM BKN220 16/10 A2998 RMK AO2 SLP155 T01610103
KPOC 242247Z 21007KT 10SM CLR 30/04 A2998
KPOE 242258Z AUTO 35005KT 10SM CLR 22/09 A3010 RMK AO2 SLP194 T02220094
KPOF 242253Z AUTO 21004KT 7SM CLR 19/12 A3004 RMK AO2 SLP174 T01940117
KPOU 242253Z AUTO 00000KT 10SM CLR 12/08 A2980 RMK AO2 SLP088 T01220078 TSNO
KPOV 242337Z AUTO 00000KT 10SM CLR 10/03 A3001 RMK AO2 T00970030
KPOY 242335Z AUTO 34011G16KT 10SM SCT100 14/00 A3006 RMK AO2
KPPA 242335Z AUTO 21006KT 10SM CLR 26/07 A3009 RMK AO2 T02560071 PNO
KPPF 242252Z AUTO 18006KT 10SM CLR 23/17 A3003 RMK AO2 SLP162 T02330167
KPPO 242335Z AUTO 00000KT 7SM CLR 11/09 A2998 RMK AO2 T01120090
KPPQ 242335Z AUTO 18004KT 10SM CLR 19/11 A2998 RMK AO2 T01890107
KPQI 242335Z AUTO 36008KT 10SM OVC034 06/03 A2968 RMK AO1 P0001
KPQL 242253Z 33004KT 10SM CLR 22/08 A3003 RMK AO2 SLP169 T02170083
KPQN 242335Z AUTO 29004KT 10SM CLR 19/04 A2993 RMK AO2
KPRB 242253Z AUTO 21009KT 10SM CLR 27/05 A2993 RMK AO2 SLP128 T02720050 TSNO
KPRC 242253Z 18004KT 10SM CLR 26/02 A3020 RMK AO2 SLP164 T02610022
KPRG 242335Z AUTO 27004KT 10SM CLR 15/12 A3002 RMK AO2 T01510116
KPRN 242256Z AUTO 33003KT 10SM CLR 22/07 A3001 RMK AO2 SLP161 T02170067
KPRO 242335Z AUTO 23006KT 10SM CLR 18/14 A2991 RMK AO2 T01810142
KPRS 242335Z AUTO 00000KT 10SM CLR 29/09 A3011 RMK AO2 T02900085
KPRX 242335Z 17006KT 10SM CLR 22/13 A3009 RMK AO1
KPSC 242253Z 34007KT 10SM -RA OVC085 13/11 A3001 RMK AO2 RAB24 SLP162 P0000 T01330106
KPSF 242254Z AUTO 31012KT 10SM FEW025 SCT075 OVC090 08/06 A2979 RMK AO2 SLP084 T00780056
KPSK 242335Z AUTO 29004KT 10SM CLR 12/03 A3005 RMK AO2 T01190025
KPSM 242258Z 29005KT 10SM OVC024 10/07 A2970 RMK AO2A SLP061 T00980066
KPSN 242335Z AUTO 00000KT 10SM CLR 23/17 A3011 RMK AO2 T02330176
KPSO 242335Z AUTO 23004KT 10SM CLR 20/M03 A3038 RMK AO2 T01991034
KPSP 242253Z VRB05KT 10SM CLR 34/07 A2991 RMK AO2 SLP126 T03440067
KPSX 242253Z AUTO 15007KT 10SM CLR 25/16 A3008 RMK AO2 SLP186 T02500156
KPTB 242335Z AUTO 00000KT 10SM CLR 09/09 A2996 RMK AO2 T00930085
KPTK 242253Z 22005KT 10SM BKN043 13/07 A2996 RMK AO2 SLP151 T01330072
KPTN 242335Z AUTO 35003KT 10SM CLR 20/11 A3010 RMK AO1
KPTS 242335Z AUTO 21006KT 10SM CLR 22/18 A3002 RMK AO2 T02170177
KPTT 242335Z AUTO 20006KT 10SM CLR 23/13 A3002 RMK AO2
KPTV 242335Z 30007KT 10SM CLR 29/09 A2989 RMK AO1
KPTW 242254Z AUTO VRB04KT 10SM CLR 17/04 A2986 RMK AO2 SLP107 T01670044
KPUB 242253Z AUTO 12007KT 10SM CLR 28/M07 A3010 RMK AO2 SLP150 T02781072
KPUC 242253Z AUTO 00000KT 10SM CLR 21/M01 A3026 RMK AO2 SLP209 T02061011 TSNO
KPUJ 242335Z AUTO 34004KT 10SM CLR 16/08 A3003 RMK AO2
KPUW 242253Z AUTO 10012KT 10SM BKN100 OVC110 12/07 A3005 RMK AO2 SLP181 T01170067
KPVB 242335Z AUTO 18003KT 10SM OVC026 15/13 A2993 RMK AO1 T01530126
KPVC 242335Z 31011G18KT 10SM OVC023 12/M18 A2971 RMK AO1
KPVD 242251Z 32008KT 10SM OVC032 11/06 A2974 RMK AO2 SLP072 T01110056
KPVE 242335Z AUTO 00000KT 10SM CLR 15/12 A3007 RMK
KPVF 242335Z AUTO 23008KT 10SM CLR 23/05 A2996 RMK AO1
KPVG 242335Z AUTO 28004KT 10SM CLR 09/07 A2996 RMK AO1
KPVJ 242335Z AUTO 19004KT 10SM CLR 26/16 A3003 RMK AO2 T02560162
KPVU 242253Z 00000KT 15SM SKC 26/M02 A3012
KPVW 242335Z AUTO 21003KT 10SM CLR 25/10 A3010 RMK AO2 T02530097
KPWA 242253Z 19009KT 10SM CLR 28/16 A3002 RMK AO2 SLP154 T02780161
KPWC 242334Z AUTO 23003KT 10SM CLR 18/06 A2983 RMK AO2
KPWG 242335Z AUTO 15006KT 10SM CLR 27/14 A3009 RMK AO1
KPWK 242252Z 20005KT 10SM FEW090 18/07 A2996 RMK AO2 SLP144 T01830072
KPWM 242251Z 33008KT 10SM OVC031 11/06 A2970 RMK AO2 SLP057 T01110061
KPWT 242335Z AUTO 01007KT 10SM CLR 12/09 A2992 RMK AO1
KPXE 242335Z AUTO 34003KT 10SM CLR 17/10 A3001 RMK AO2 T01740102
KPYM 242330Z AUTO 28007KT 10SM BKN032 OVC046 10/07 A2972 RMK AO2 T01000072
KPYX 242335Z AUTO 16005KT 10SM CLR 25/09 A3005 RMK AO2 T02520085
KPZQ 242245Z AUTO 35000KT 10SM OVC024 11/09 A2993 RMK AO2
KQAJ 242255Z 00000KT 9999 CLR 23/07 A2997 RMK SLP141 T02250065
KQAY 242255Z AUTO 00000KT 9000 CLR 24/05 A2992 RMK AO2 SLP131 T02350051 $
KQAZ 242200Z AUTO 08001KT 9999 CLR 27/00 A2994 RMK CDP03565 CLR
KQBF 242255Z AUTO 00000KT 8000 HZ BKN170 28/19 A2996 RMK AO2 SLP128 T02760191 TSNO $
KQBL 242256Z AUTO 35001KT 10SM CLR 23/07 A3002 RMK AO2 SLP172 T02260074
KQCL 242259Z AUTO 02003KT 3200 BR CLR 13/12 A3013 RMK AO2 SLP175 $
KQEA 242237Z AUTO 06004KT 28/22 A2987 RMK AO2 SLP112 PWINO TSNO $
KQEB 242305Z AUTO 12SM FEW038 17/13 Q1022 RMK AO2 SLP162
KQEI 242340Z AUTO 00000KT 2400 BR FEW004 BKN025 09/07 A3021 RMK A02 TSNO
KQEJ 242340Z AUTO 00000KT 2800 BR BKN002 09/07 A3016 RMK A02 TSNO
KQEL 242340Z AUTO 09002KT 4800 BKN006 09/08 A3024 RMK A02 TSNO
KQEN 242340Z AUTO 9999 CLR / / RMK A02 TSNO
KQEP 242340Z AUTO 24004KT 0800 FG CLR 09/07 A3014 RMK A02 TSNO
KQEQ 242340Z AUTO 04001KT 9999 BKN020 12/11 A3002 RMK A02 TSNO
KQER 242340Z AUTO 12001KT / /CLR 10/08 A3015 RMK A02 TSNO
KQES 242340Z AUTO 6000 // SCT004 13/08 A3019 RMK A02 TSNO
KQEV 242340Z AUTO 11003KT 3200 BR CLR 12/10 A3019 RMK A02 TSNO
KQEW 242340Z AUTO 06001KT 0400 FG CLR 08/07 A3019 RMK A02 TSNO
KQEX 242340Z AUTO 03002KT M0400 FG CLR 09/07 A3023 RMK A02 TSNO
KQEY 242340Z AUTO 16003KT M0400 -SHRA FG CLR 08/07 A3020 RMK A02 TSNO
KQFG 242255Z AUTO VRB01KT 9999 CLR 16/13 A3011 RMK AO2 SLP176 T01640125
KQFQ 242330Z AUTO VRB02KT 2SM BR CLR 12/ A3015 RMK AO2 SLP209 $
KQFS 242256Z AUTO 00000KT 0200 0 0 1EA7 BKN002 11/11 A3018 RMK AO2 SLPNO T01070114
KQFT 242340Z AUTO 18001KT 3200 BR OVC001 11/09 A3017 RMK A02 TSNO
KQFU 242340Z AUTO 23002KT 6000 // CLR 12/10 A3018 RMK A02 TSNO
KQFV 242340Z AUTO 14001KT 0400 -RA FG CLR 08/06 A3018 RMK A02 TSNO
KQFX 242340Z AUTO 04003KT 1600 BR CLR 09/08 A3020 RMK A02 TSNO
KQGV 242255Z 28005KT 9999 CLR 21/03 A2993 RMK SLPNO QNH1014 PA +456
KQGX 242258Z AUTO 14002KT 9999 CLR 23/17 A2987 RMK AO2 SLPNO T02330165
KQHY 242256Z AUTO 02002KT 10SM CLR 22/08 A3002 RMK AO2 SLP172 T02230080
KQIR 242258Z AUTO 30006KT 9999 CLR 22/16 A2987 RMK AO2 SLP116 T02200159 $
KQL5 242255Z 23002KT 9999 CLR 15/13 A3007 RMK SLP166 T01530132
KQLP 241855Z AUTO 12003KT 14/09 Q1024 RMK AO2 SLP195 T01400091 PWINO TSNO $
KQQY 242255Z AUTO 00000KT 9999 CLR 28/21 A2985 RMK AO2 SLP086 T02760214
KQRH 242255Z AUTO 26002KT 7SM CLR 26/12 A2991 RMK AO2 SLP125 T02600116
KQSA 242258Z 26002KT 9999 BKN200 10/07 A3016 RMK AO2A SLP143 T00960070
KQTH 242255Z AUTO 26003KT 9999 CLR 22/04 A2997 RMK AO2 SLP123 T02160038 $
KQTZ 242255Z 36003KT 9999 CLR 19/06 A3000 RMK SLP156 WND DATA ESTMD ALSTG/SLP ESTMD
KQUD 242332Z AUTO 00000KT 8SM SCT150 20/18 A3014 RMK AO2 LTG DSNT E SLP146 $
KQVF 242255Z AUTO VRB02KT 9999 CLR 25/23 A2992 RMK AO2 SLP132 T02460228
KQWM 242255Z 34003KT 9999 CLR 23/04 A2995 RMK SLP136 QNH1014
KQXT 242255Z 01004KT 9999 CLR 15/M03 A3002 RMK SLP136 WND DATA ESTMD ALSTG/SLP ESTMD Q1016
KRAC 242253Z AUTO 17007KT 3SM BR FEW095 11/09 A2996 RMK AO2 SLP148 T01110094
KRAL 242253Z 28007G15KT 10SM CLR 32/05 A2992 RMK AO2 SLP116 T03220050
KRAP 242252Z 01009KT 10SM CLR 19/04 A3004 RMK AO2 SLP167 T01940039
KRAS 242335Z AUTO 10004KT 10SM CLR 24/16 A3008 RMK AO2 T02430161
KRBD 242253Z AUTO VRB05KT 10SM CLR 28/16 A3006 RMK AO2 SLP173 T02830156
KRBG 242253Z AUTO 00000KT 10SM OVC012 16/12 A2979 RMK AO2 SLP087 T01560117 $
KRBL 242254Z AUTO 15008KT 10SM CLR 23/12 A2986 RMK AO2 SLP110 T02330117
KRBO 242335Z AUTO 12008KT 7SM +RA CLR 27/15 A3008 RMK AO2 T02710153
KRBW 242335Z AUTO 00000KT 10SM CLR 16/12 A2999 RMK AO2
KRCA 242258Z COR AUTO 01007KT 10SM CLR 20/04 A3004 RMK AO2 SLP167 T02010038 $ COR 2330
KRCE 242335Z AUTO 18007KT CLR 25/17 A3004 RMK AO2
KRCM 242315Z AUTO 18006KT 10SM CLR 22/16 A2995 RMK AO2
KRCR 242335Z AUTO 21004KT 10SM CLR 16/11 A3000 RMK AO2
KRCV 242330Z AUTO 11004KT 10SM CLR 19/M02 A3038 RMK AO2 T01851016
KRCX 242335Z AUTO 20006KT 10SM OVC014 14/11 A2987 RMK AO2 T01410113
KRCZ 242335Z AUTO 00000KT 10SM CLR 16/11 A2998 RMK AO2 T01600108
KRDD 242253Z 00000KT 10SM CLR 23/13 A2986 RMK AO2 SLP109 T02280128
KRDG 242254Z 28007KT 10SM CLR 17/01 A2985 RMK AO2 SLP111 T01670011
KRDK 242335Z AUTO 00000KT 10SM CLR 20/16 A2992 RMK AO2
KRDM 242256Z 36007KT 10SM BKN042 12/08 A2991 RMK AO2 SLP125 T01220083
KRDR 242258Z AUTO 28008KT 10SM CLR 19/M01 A2980 RMK AO2 PK WND 31027/05 SLP098 T01871007
KRDU 242251Z 25003KT 10SM BKN200 BKN250 14/09 A2998 RMK AO2 SLP150 T01440089 $
KREO 242252Z AUTO 05003KT 22/02 A2994 RMK AO1 SLP117 T02170022
KRFD 242254Z 17008KT 10SM FEW085 BKN250 14/09 A2995 RMK AO2 SLP142 T01440089
KRFI 242335Z AUTO 00000KT 10SM CLR 21/16 A3012 RMK AO2 T02100158
KRGK 242331Z AUTO 00000KT 4SM BR CLR 13/12 A2986 RMK AO2
KRHI 242253Z AUTO 22008KT 10SM OVC021 13/07 A2987 RMK AO2 SLP120 T01330072
KRHP 242335Z AUTO 00000KT 10SM SCT100 11/08 A3004 RMK AO2 T01100082
KRHV 242251Z 31011KT 10SM SKC 26/14 A2990
KRIC 242254Z 00000KT 10SM SCT220 BKN300 14/07 A2994 RMK AO2 SLP142 T01440067
KRIL 242253Z AUTO 25012KT 10SM CLR 22/00 A3024 RMK AO2 SLP205 T02220000
KRIV 242258Z AUTO 30010KT 10SM CLR 32/03 A2996 RMK AO2 SLP134 T03190026
KRIW 242253Z AUTO 26017KT 10SM CLR 23/M07 A3007 RMK AO2 SLP136 T02331072
KRKD 242335Z AUTO 32003KT 7SM OVC015 08/07 A2965 RMK AO1
KRKP 242253Z AUTO 13008KT 10SM CLR 26/17 A3007 RMK AO2 SLP185 T02560167
KRKR 242335Z AUTO 20003KT 10SM CLR 22/16 A3006 RMK AO2 T02150164
KRKS 242254Z AUTO 24010KT 10SM CLR 19/M06 A3023 RMK AO2 SLP179 T01941056
KRME 242253Z 30007KT 10SM CLR 10/05 A2990 RMK AO2 SLP126 T01000050
KRMG 242253Z AUTO 28003KT 10SM CLR 17/04 A3002 RMK AO2 SLP160 T01670044
KRMN 242335Z AUTO 00000KT 10SM CLR 09/09 A2998 RMK AO2 T00910091
KRMY 242334Z AUTO 00000KT 10SM SCT037 09/07 A2998 RMK AO2 T00860068
KRNC 242335Z AUTO 00000KT 10SM CLR 14/06 A3008 RMK
KRND 242258Z AUTO 19002KT 10SM CLR 28/13 A3008 RMK AO2 SLP180 T02830132
KRNH 242335Z AUTO 18006KT 5SM BR CLR 13/12 A2985 RMK AO2 T01280122
KRNM 242253Z 29010KT 10SM CLR 31/04 A2997 RMK AO2 SLP136 T03060039
KRNO 242255Z 23012G24KT 10SM FEW180 BKN250 27/M07 A2995 RMK AO2 PK WND 21030/2202 SLP101 T02671067
KRNP 242334Z AUTO 26003KT 10SM OVC041 14/10 A2997 RMK AO2 T01370095
KRNT 242253Z 33006KT 10SM CLR 14/10 A2992 RMK AO2 SLP138 T01440100
KRNV 242335Z AUTO 00000KT 10SM CLR 20/13 A3009 RMK AO2 T01960125
KROA 242254Z 00000KT 10SM SCT250 16/03 A3000 RMK AO2 SLP156 T01560033
KROC 242254Z 27008KT 10SM FEW080 SCT150 BKN180 11/03 A2994 RMK AO2 SLP143 T01060033
KROG 242257Z 20007KT 10SM CLR 21/15 A3008 RMK AO2 SLP181 T02110150
KROS 242335Z AUTO 00000KT 10SM SCT120 14/11 A2983 RMK AO2 T01430106
KROW 242251Z 16009KT 10SM CLR 28/09 A3013 RMK AO2 SLP153 T02780094
KROX 242334Z AUTO 28012G21KT 10SM CLR 17/01 A2971 RMK AO2
KRPD 242335Z AUTO 17006KT 7SM BKN008 OVC014 14/12 A2986 RMK AO2 T01360120
KRPH 242330Z AUTO 17004KT 10SM CLR 29/15 A3003 RMK AO2 T02890147
KRPJ 242335Z AUTO 17006KT 10SM BKN085 14/08 A2994 RMK AO2 T01370075
KRQB 242335Z AUTO 23004KT 10SM OVC011 11/11 A2997 RMK AO2 T01130112
KRQE 242253Z AUTO 28005KT 10SM CLR 25/M03 A3032 RMK AO2 SLP186 T02501028 TSNO
KRRL 242335Z AUTO 23004KT 10SM OVC024 13/09 A2988 RMK AO2 T01300092
KRRT 242334Z AUTO 27011G19KT 10SM CLR 17/02 A2969 RMK AO2
KRSL 242253Z AUTO 22005KT 10SM CLR 27/13 A2996 RMK AO2 SLP132 T02720133
KRSN 242335Z AUTO 00000KT 10SM CLR 17/15 A3014 RMK AO2 T01660152
KRST 242313Z 21004KT 5SM BR OVC009 15/13 A2990 RMK AO2 T01500128
KRSV 242335Z AUTO 20003KT 10SM SCT045 16/11 A3003 RMK AO2 T01600113
KRSW 242253Z 06008KT 10SM CLR 25/17 A2985 RMK AO2 SLP106 T02500172
KRTN 242253Z AUTO 18003KT 10SM CLR 26/M06 A3022 RMK AO2 SLP168 T02561061
KRTS 242335Z AUTO 23014G21KT 10SM CLR 23/M08 A2999 RMK AO2
KRUE 242253Z AUTO 00000KT 10SM CLR 21/17 A3007 RMK AO2 SLP177 T02110172
KRUG 242335Z AUTO 26009KT 10SM CLR 12/02 A2987 RMK AO2
KRUQ 242335Z AUTO 00000KT 10SM CLR 13/09 A2999 RMK AO2 T01270088
KRUT 242335Z 33006KT 310V010 10SM FEW020 BKN025 OVC032 07/05 A2982 RMK AO1
KRVS 242253Z 18006KT 10SM CLR 27/17 A3002 RMK AO2 SLP170 T02670167
KRWF 242253Z AUTO 27003KT 10SM CLR 22/06 A2986 RMK AO2 SLP112 T02170056
KRWI 242253Z AUTO 00000KT 10SM CLR 12/11 A2997 RMK AO2 SLP147 T01220106
KRWL 242253Z AUTO 23015G22KT 10SM CLR 19/M04 A3023 RMK AO2 PK WND 23028/2227 SLP159 T01941039
KRWV 242330Z AUTO 00000KT 10SM CLR 25/13 A3012 RMK AO2
KRXE 242253Z AUTO 22013G20KT 10SM CLR 20/M02 A3009 RMK AO2 SLP160 T02001017
KRYN 242255Z 00000KT 10SM CLR 34/07 A3003
KRYV 242335Z AUTO 00000KT 10SM BKN060 BKN075 OVC095 12/11 A2992 RMK AO2 T01210107
KRYW 242335Z AUTO 00000KT 10SM CLR 26/15 A3011 RMK AO2 T02620152
KRYY 242247Z 34005KT 10SM SKC 19/04 A3003
KRZL 242335Z AUTO 18003KT 10SM CLR 13/07 A2998 RMK AO2
KRZN 242335Z AUTO 19005KT 10SM CLR 14/11 A2983 RMK AO2 T01350112
KRZR 242335Z AUTO 00000KT 10SM CLR 12/08 A3005 RMK
KRZT 242335Z AUTO 00000KT 10SM CLR 08/03 A3003 RMK AO2
KS39 242335Z AUTO 36005KT 10SM CLR 13/09 A2991 RMK AO2
KSAA 242335Z AUTO 24016G20KT 10SM CLR 17/M05 A3028 RMK AO2
KSAC 242253Z AUTO 14004KT 10SM CLR 24/12 A2987 RMK AO2 SLP114 T02390117 TSNO
KSAD 242251Z AUTO VRB03KT 10SM CLR 29/05 A3008 RMK AO2 SLP143 T02940050
KSAF 242253Z AUTO 29007KT 10SM CLR 24/M03 A3028 RMK AO2 SLP172 T02441033
KSAN 242251Z VRB06KT 10SM CLR 27/15 A2994 RMK AO2 SLP138 T02670150
KSAR 242335Z AUTO 16003KT 10SM CLR 17/10 A3003 RMK AO2 T01740097
KSAT 242251Z 20004KT 10SM FEW060 29/14 A3008 RMK AO2 SLP169 T02890139
KSAV 242253Z 00000KT 10SM FEW220 20/08 A2999 RMK AO2 SLP155 T02000083
KSAW 242247Z 17010KT 10SM SKC 12/08 A2983
KSAZ 242333Z AUTO 24006KT 10SM CLR 16/04 A2981 RMK AO2
KSBA 242253Z 25004KT 10SM CLR 24/13 A2993 RMK AO2 SLP134 T02390133
KSBD 242247Z 25013KT 10SM SKC 33/-01 A2994
KSBM 242253Z AUTO 14003KT 7SM CLR 12/09 A2992 RMK AO2 SLP135 T01220094
KSBN 242254Z 33004KT 10SM CLR 13/09 A2999 RMK AO2 SLP156 T01330089
KSBO 242335Z AUTO 10SM CLR 17/11 A3000 RMK AO2
KSBP 242256Z 23008KT 10SM CLR 24/09 A2993 RMK AO2 SLP134 T02390089
KSBS 242335Z AUTO 25008KT 10SM CLR 20/M03 A3029 RMK AO1 T01951033
KSBY 242254Z 24005KT 10SM CLR 14/08 A2989 RMK AO2 SLP124 T01440078
KSCD 242335Z AUTO 00000KT 10SM CLR 14/11 A3004 RMK AO2 T01420110
KSCF 242335Z AUTO 36006KT 10SM CLR 23/10 A3008 RMK A01
KSCH 241946Z 04007KT 10SM SCT007 SCT026 OVC032 09/08 A2981
KSCK 242255Z 29005KT 10SM CLR 26/12 A2986 RMK AO2 SLP110 T02610122
KSDA 242335Z AUTO 00000KT 10SM CLR 20/16 A2992 RMK AO2
KSDB 242248Z AUTO 18019G31KT 10SM CLR 25/M08 A3011 RMK AO2 PK WND 20031/2239 SLP141 T02501078
KSDF 242256Z 00000KT 10SM FEW040 SCT150 SCT250 17/07 A3005 RMK AO2 SLP174 T01720072
KSDL 242253Z 20003KT 10SM CLR 33/07 A2998 RMK AO2 SLP130 T03330072
KSDM 242253Z 30005KT 10SM CLR 28/13 A2994 RMK AO2 SLP133 T02830128
KSDY 242335Z AUTO 26008KT 10SM CLR 14/M03 A3002 RMK AO1
KSEA 242253Z 01010KT 10SM FEW100 OVC150 14/08 A2994 RMK AO2 SLP143 T01390083
KSEE 242335Z AUTO 27006KT 10SM CLR 32/05 A2994 RMK AO2
KSEG 242253Z AUTO 29004KT 10SM CLR 17/01 A2989 RMK AO2 SLP120 T01670006
KSEM 242335Z AUTO 00000KT 10SM CLR 16/08 A3003 RMK AO2
KSEP 242335Z AUTO 00000KT 10SM CLR 27/14 A3011 RMK AO2 T02700142
KSET 242254Z AUTO 17005KT 10SM CLR 19/10 A2998 RMK AO2 SLP152 T01890100
KSEZ 242335Z AUTO 00000KT 10SM CLR 26/00 A3019 RMK AO2
KSFB 242153Z 04007KT 10SM FEW044 23/14 A2992 RMK AO2 SLP131 T02330139
KSFF 242253Z 01005KT 10SM SCT042 13/07 A3006 RMK AO2 SLP180 T01330067
KSFM 242335Z AUTO 30003KT 10SM OVC028 10/06 A2971 RMK AO1
KSFO 242256Z 22017KT 10SM FEW017 SCT180 22/14 A2991 RMK AO2 SLP126 T02170144
KSFQ 242335Z AUTO 00000KT 10SM 12/09 A2995 RMK AO2 T01180086
KSFY 242335Z AUTO 18004KT 10SM BKN041 OVC048 17/09 A2991 RMK AO2 T01740093
KSFZ 242335Z 31008KT 10SM OVC026 09/02 A2974 RMK AO1
KSGF 242252Z 22005KT 10SM CLR 21/16 A3005 RMK AO2 SLP170 T02060161
KSGH 242256Z AUTO 18003KT 6SM HZ CLR 14/04 A3004 RMK AO2 T01380038 SLP174
KSGJ 242258Z 32005KT 10SM CLR 20/14 A2996 RMK AO2 SLP145 T02000144
KSGR 242253Z 03005KT 10SM CLR 26/14 A3008 RMK AO2 SLP187 T02610144
KSGS 242330Z AUTO 00000KT 7SM CLR 15/13 A2985 RMK AO2 T01520125
KSGT 242335Z AUTO 18003KT 10SM CLR 22/12 A3010 RMK AO1
KSGU 242335Z AUTO 26004KT 10SM CLR 28/03 A3006 RMK AO1
KSHD 242335Z AUTO 00000KT 10SM CLR 11/04 A2999 RMK AO2 T01060044
KSHL 242335Z AUTO 00000KT 10SM CLR 16/07 A2991 RMK AO2
KSHM 242256Z AUTO 15008KT 10SM CLR 24/M06 A3023 RMK AO2 SLP176 T02361057
KSHN 242253Z AUTO 35005KT 10SM FEW120 12/09 A2989 RMK AO2 SLP125 T01170094 TSNO
KSHR 242253Z AUTO 36009KT 10SM CLR 17/01 A3005 RMK AO2 SLP169 T01670011 TSNO
KSHV 242256Z 00000KT 10SM BKN290 24/12 A3009 RMK AO2 SLP188 T02390122
KSIF 242335Z AUTO 00000KT 10SM CLR 09/09 A2998 RMK AO2 T00930085
KSIY 242253Z AUTO 17021G27KT 10SM CLR 19/07 A2984 RMK AO2 PK WND 17031/2241 SLP104 T01890067
KSJC 242253Z 31014KT 10SM FEW016 SCT250 22/14 A2988 RMK AO2 SLP119 T02170139
KSJN 242254Z AUTO 33003KT 10SM CLR 26/02 A3024 RMK AO2 SLP169 T02560022
KSJS 242335Z AUTO 00000KT 10SM CLR 12/06 A3007 RMK AO2 T01170060
KSJT 242251Z 19005KT 10SM CLR 31/10 A3008 RMK AO2 SLP169 T03060100
KSJX 242335Z AUTO 21009KT 10SM OVC006 10/09 A2991 RMK AO2 T01020089
KSKA 242308Z AUTO 03008KT 10SM BKN030 BKN035 11/06 A3005 RMK AO2
KSKF 242258Z AUTO VRB02KT 10SM CLR 29/14 A3006 RMK AO2 SLP174 T02910140 $
KSKX 242335Z AUTO 26007KT 10SM CLR 22/M06 A3033 RMK AO1
KSLB 242335Z AUTO 29006KT 10SM CLR 17/09 A2994 RMK AO2
KSLC 242253Z 28008KT 10SM CLR 23/04 A3009 RMK AO2 SLP158 T02280039
KSLE 242325Z 34003KT 2 1/2SM RA BR BKN007 BKN048 OVC055 12/11 A2983 RMK AO2 P0009 T01170106
KSLG 242335Z AUTO 20005KT 10SM CLR 19/13 A3009 RMK AO1
KSLH 242336Z AUTO 22003KT 10SM OVC016 11/08 A2991 RMK AO2 T01120086
KSLI 242258Z 19005KT 10SM CLR 27/14 A2993 RMK AO2A SLP138 T02680138
KSLK 242251Z AUTO 00000KT 10SM BKN060 OVC120 06/05 A2984 RMK AO2 SLP117 T00560050
KSLN 242253Z 19009KT 10SM CLR 27/17 A2995 RMK AO2 SLP132 T02720172
KSLO 242335Z AUTO 00000KT 10SM CLR 15/13 A3004 RMK AO2 T01490132
KSLR 242335Z AUTO 17004KT 10SM CLR 25/15 A3011 RMK AO2 T02460147
KSME 242335Z AUTO 00000KT 10SM CLR 13/07 A3007 RMK AO2
KSMF 242253Z 16005KT 10SM FEW300 24/11 A2986 RMK AO2 SLP111 T02440106
KSMN 242335Z AUTO 00000KT 10SM OVC110 10/06 A3007 RMK AO1
KSMO 242251Z 24004KT 8SM CLR 26/14 A2994 RMK AO2 SLP135 T02560144
KSMQ 242253Z AUTO 33006KT 10SM CLR 18/04 A2979 RMK AO2 SLP089 T01780044
KSMS 242335Z AUTO 10SM CLR 14/11 A2998 RMK AO2
KSMX 242251Z AUTO 30007KT 10SM CLR 23/13 A2994 RMK AO2 SLP141 T02280133
KSNA 242253Z 21004KT 10SM CLR 28/12 A2992 RMK AO2 SLP132 T02780122
KSNC 242315Z AUTO 35009KT 10SM BKN032 11/06 A2977 RMK AO2
KSNH 242335Z AUTO 00000KT 10SM BKN045 14/12 A3009 RMK
KSNK 242335Z AUTO 00000KT 10SM CLR 27/14 A3012 RMK AO2 T02700144
KSNL 242335Z AUTO 17003KT 26/19 A3005 RMK AO2 PWINO
KSNS 242300Z 28012KT 10SM BKN017 19/13 A2992 RMK AO2
KSNT 242251Z AUTO 20005G16KT 15/M04 A3013 RMK AO1 SLP137 T01501044
KSNY 242253Z AUTO 34006KT 10SM CLR 26/01 A3008 RMK AO2 SLP151 T02560011
KSOA 242335Z AUTO 21004KT 10SM CLR 27/13 A3016 RMK AO2
KSOP 242335Z AUTO 00000KT 10SM CLR 14/09 A2998 RMK AO1
KSOW 242335Z AUTO 22007KT 10SM CLR 22/00 A3032 RMK AO2
KSPA 242355Z AUTO 00000KT 10SM CLR 13/11 A3000 RMK AO2
KSPB 242253Z AUTO 00000KT 8SM -RA OVC080 13/11 A2987 RMK AO2 SLP114 P0003 T01280111
KSPD 242256Z AUTO 00000KT 28/00 A3010 RMK AO1 SLP136 T02780000
KSPF 242335Z AUTO 05005KT 10SM CLR 14/03 A3010 RMK AO2
KSPG 242253Z 35011KT 10SM FEW049 23/15 A2988 RMK AO2 SLP118 T02330150
KSPI 242252Z 18005KT 10SM CLR 18/11 A2999 RMK AO2 SLP154 T01830106
KSPL 242335Z AUTO 04007KT 3SM CLR 25/18 A3008 RMK AO1
KSPR 242335Z AUTO 34011KT 9SM CLR 22/13 A3006 RMK A01
KSPS 242252Z 19011KT 10SM FEW250 29/15 A3002 RMK AO2 SLP155 T02940150
KSPW 242253Z AUTO 29007KT 10SM CLR 20/09 A2991 RMK AO2 SLP126 T02000089 TSNO
KSQE 242335Z AUTO 01013KT 10SM CLR 22/11 A3005 RMK A01
KSQI 242335Z AUTO 18004KT 10SM BKN039 OVC065 17/08 A2993 RMK AO1
KSQL 242247Z 26010KT 10SM FEW020 SCT200 22/13 A2990
KSRB 242335Z AUTO 00000KT 10SM CLR 09/07 A3007 RMK
KSRC 242256Z AUTO 20003KT 10SM CLR 21/14 A3009 RMK AO2 SLP196 T02060144 TSNO
KSRQ 242253Z AUTO 03005KT 10SM FEW050 24/14 A2987 RMK AO2 SLP114 T02440144
KSRR 242335Z AUTO 32008KT 10SM CLR 20/02 A3035 RMK AO2
KSSC 242258Z AUTO 36003KT 10SM BKN200 18/08 A2997 RMK AO2 SLP150 T01830080 $
KSSF 242253Z 12004KT 10SM FEW065 30/14 A3006 RMK AO2 SLP170 T03000139
KSSI 242253Z AUTO 00000KT 10SM CLR 18/11 A2999 RMK AO2 SLP154 T01780111
KSTC 242253Z 20005KT 10SM CLR 19/09 A2982 RMK AO2 SLP106 T01940094
KSTE 242335Z AUTO 19005KT 10SM OVC026 13/10 A2989 RMK AO2 T01250097
KSTF 242335Z AUTO 00000KT 10SM CLR 15/09 A3008 RMK AO2
KSTJ 242253Z AUTO 21008KT 10SM CLR 24/17 A2991 RMK AO2 SLP122 T02390172
KSTK 242335Z AUTO 21007KT 10SM CLR 25/01 A3006 RMK AO2
KSTL 242251Z 19004KT 10SM BKN250 22/09 A3000 RMK AO2 SLP156 T02170094
KSTP 242253Z 15006KT 7SM CLR 16/13 A2985 RMK AO2 SLP107 T01560128
KSTS 242253Z 23010G16KT 10SM SCT035 SCT050 21/13 A2988 RMK AO2 SLP112 T02060133
KSUA 242247Z 03012G16KT 7SM SCT020 BKN032 24/17 A2989
KSUE 242335Z AUTO 17008KT 1 3/4SM OVC003 09/08 A2991 RMK AO1
KSUN 242255Z 00000KT 10SM SKC 19/M01 A3012
KSUS 242254Z 20003KT 10SM FEW100 BKN200 20/10 A2999 RMK AO2 SLP153 T02000100
KSUT 242335Z AUTO 00000KT 10SM CLR 14/11 A2999 RMK AO2 T01410109
KSUU 242258Z AUTO 25014KT 10SM CLR 25/12 A2985 RMK AO2 SLP115 T02490121 $
KSUW 242335Z AUTO 23010G15KT 10SM CLR 17/11 A2976 RMK AO2 T01710111
KSUX 242252Z AUTO 34005KT 10SM CLR 22/09 A2992 RMK AO2 SLP129 T02170094
KSVC 242335Z AUTO 17007KT 10SM CLR 24/03 A3026 RMK AO2
KSVH 242335Z AUTO 00000KT 10SM CLR 12/09 A2999 RMK AO2 T01240093
KSVN 242258Z AUTO 00000KT 10SM CLR 16/11 A2997 RMK AO2 SLP152 T01600105
KSWF 242245Z 00000KT 10SM BKN100 12/09 A2981
KSWO 242253Z AUTO 20007KT 10SM CLR 28/17 A3001 RMK AO2 SLP153 T02780167
KSWW 242335Z AUTO 00000KT 10SM CLR 29/09 A3013 RMK AO2 T02860090
KSXS 242256Z AUTO 32002KT 10SM CLR 20/09 A3003 RMK AO2 SLP170 T01950089
KSXT 242256Z AUTO 19008KT 150V210 10SM FEW020 12/09 A2982 RMK AO2 SLP083 T01220094
KSYF 242335Z AUTO 35003KT 10SM CLR 27/M11 A3005 RMK AO2 T02671113
KSYI 242335Z AUTO 00000KT 10SM CLR 15/08 A3008 RMK
KSYM 242330Z AUTO 20004KT 10SM CLR 13/04 A3007 RMK AO2
KSYN 242333Z AUTO 18003KT 7SM CLR 15/12 A2985 RMK AO2 T01470120
KSYR 242254Z 29003KT 10SM FEW040 SCT250 11/01 A2991 RMK AO2 SLP126 SCT V BKN T01060006
KSZL 242258Z COR 21014KT 10SM CLR 23/17 A2996 RMK AO2A SLP144 T02270166 $ COR 2304
KSZT 242335Z AUTO 01003KT 10SM BKN050 11/05 A3008 RMK AO2
KT20 242335Z AUTO 00000KT 10SM CLR 28/15 A3007 RMK AO2 T02790149
KT35 242335Z AUTO 00000KT 10SM CLR 26/16 A3009 RMK AO2 T02560160
KT65 242335Z AUTO 08006KT 7SM CLR 27/16 A3008 RMK AO2 T02650163
KT82 242335Z AUTO 13004KT 10SM CLR 26/14 A3012 RMK AO2 T02560140
KTAD 242254Z AUTO 07005KT 10SM CLR 27/M03 A3018 RMK AO2 SLP150 T02671028
KTAN 242340Z AUTO VRB03KT 10SM OVC029 11/07 A2973 RMK AO2 T01060067
KTAZ 242335Z AUTO 15006KT 10SM CLR 15/12 A3000 RMK AO2
KTBN 242258Z AUTO VRB02KT 10SM FEW041 SCT050 22/16 A3004 RMK AO2 SLP171 T02230162
KTBX 242335Z AUTO 15006KT 10SM CLR 16/M07 A3026 RMK AO2
KTCC 242253Z AUTO 20011KT 10SM CLR 30/01 A3009 RMK AO2 SLP139 T03000006
KTCL 242253Z 34005KT 10SM CLR 22/06 A3005 RMK AO2 SLP173 T02170056
KTCM 242258Z AUTO 03003KT 8SM CLR 13/09 A2991 RMK AO2 SLP133 T01270094 $
KTCS 242253Z AUTO 18006KT 10SM CLR 27/05 A3020 RMK AO2 SLP157 T02670050 TSNO
KTDF 242335Z AUTO 00000KT 10SM CLR 11/10 A3000 RMK AO2
KTDR 242256Z AUTO M 10SM CLR 20/12 A2998 RMK AO2 SLP156 T02020124 $
KTDZ 242253Z AUTO 24004KT 4SM HZ OVC045 14/07 A3000 RMK AO2 SLP162 T01390072 TSNO
KTEB 242251Z 00000KT 10SM CLR 14/07 A2979 RMK AO2 SLP086 T01390072
KTEW 242332Z AUTO 00000KT 10SM BKN041 11/08 A2998 RMK AO2 T01120077
KTEX 242335Z AUTO 26010KT 10SM CLR 17/M05 A3048 RMK AO2 T01661049
KTFP 242335Z AUTO 13004KT 10SM CLR 25/17 A3008 RMK AO2 T02510168
KTHA 242335Z AUTO 00000KT 10SM CLR 12/06 A3009 RMK
KTHV 242253Z AUTO 28004KT 10SM CLR 13/02 A2990 RMK AO2 SLP127 T01330017
KTIF 242335Z AUTO 00000KT 10SM CLR 24/01 A3001 RMK AO2 T02430014
KTIK 242258Z AUTO 20008KT 10SM CLR 27/16 A3003 RMK AO2 SLP167
KTIP 242330Z AUTO 23006KT 10SM CLR 15/12 A3000 RMK AO2 T01500116
KTIW 242253Z 01009KT 10SM CLR 12/08 A2992 RMK AO2 SLP132 T01220083
KTIX 242250Z 03008KT 7SM BKN045 23/14 A2992
KTKC 242333Z AUTO 27004KT 10SM CLR 20/05 A2990 RMK AO2 T01950051
KTKI 242253Z 13008KT 10SM CLR 27/16 A3007 RMK AO2 SLP181 T02670156
KTKV 242335Z AUTO 00000KT 10SM OVC021 13/09 A2987 RMK AO2 T01260085
KTLH 242253Z 35003KT 10SM FEW250 23/08 A2998 RMK AO2 SLP152 T02280083 $
KTMA 242330Z AUTO 00000KT 10SM CLR 16/08 A2999 RMK AO2 T01550084
KTMB 242253Z 03011KT 10SM SCT029 BKN038 OVC055 26/21 A2982 RMK AO2 RAB12E39 SLP097 P0000 T02610206
KTME 242335Z AUTO 06004KT 10SM CLR 23/ A3010 RMK AO2
KTMK 242335Z AUTO 05010KT 10SM RA OVC070 12/10 A2981 RMK AO2 P0002
KTNB 242335Z AUTO 29007KT 10SM CLR 11/01 A3006 RMK AO2 T01130010
KTNU 242335Z AUTO 20006KT 6SM BR OVC012 17/16 A2993 RMK AO2
KTOA 242155Z 31010KT 10SM SKC 27/17 A2994
KTOB 242334Z AUTO 18006KT 2SM BR CLR 13/12 A2988 RMK AO2
KTOC 242335Z AUTO 00000KT 10SM CLR 14/10 A3001 RMK AO2 T01440104
KTOI 242253Z AUTO 32003KT 10SM CLR 20/07 A3001 RMK AO2 SLP161 T02000072
KTOL 242252Z 00000KT 10SM FEW037 12/07 A3000 RMK AO2 SLP161 T01170072
KTOP 242253Z 20006KT 10SM CLR 26/17 A2993 RMK AO2 SLP128 T02560172
KTOR 242253Z AUTO 29015KT 10SM CLR 27/M05 A3003 RMK AO2 SLP124 T02671050
KTPA 242253Z 02007KT 10SM FEW050 25/13 A2991 RMK AO2 SLP127 T02500133
KTPH 242256Z AUTO 17016G25KT 10SM CLR 24/M05 A3011 RMK AO2 PK WND 17027/2216 SLP152 T02391050
KTPL 242335Z AUTO 12004KT 10SM CLR 25/14 A3008 RMK AO1
KTQE 242254Z AUTO 31004KT 10SM CLR 23/10 A2991 RMK AO2 SLP119 T02330100
KTQH 242335Z AUTO 16003KT 10SM CLR 21/16 A3007 RMK AO2
KTRI 242253Z 25003KT 10SM FEW100 13/06 A3004 RMK AO2 SLP164 T01280056
KTRK 242250Z 21015G20KT 10SM FEW180 21/M05 A3007 RMK NOSPECI
KTRL 242253Z AUTO 17005KT 10SM CLR 27/16 A3008 RMK AO2 SLP182 T02670161
KTRM 242252Z AUTO 14008KT 10SM CLR 34/07 A2986 RMK AO2 SLP112 T03440072 TSNO
KTSP 242335Z AUTO 14013G20KT 10SM CLR 25/M07 A3007 RMK AO2
KTTA 242335Z AUTO 00000KT 10SM CLR 13/13 A2997 RMK AO2 T01280127
KTTD 242253Z 08011KT 8SM -RA SCT070 OVC090 13/09 A2986 RMK AO2 SLP110 P0004 T01280094
KTTF 242335Z AUTO 23003KT 10SM CLR 12/07 A2999 RMK AO2
KTTN 242253Z 30006KT 10SM CLR 17/06 A2982 RMK AO2 SLP092 T01720056
KTTS 242258Z AUTO 05005KT 10SM BKN045 22/14 A2992 RMK AO2 SLP135 T02160141 VISNO RWY33 CHINO RWY33
KTUL 242253Z 19009KT 10SM BKN250 26/17 A3001 RMK AO2 SLP155 T02610172
KTUP 242253Z AUTO 00000KT 10SM CLR 19/09 A3007 RMK AO2 SLP182 T01940094
KTUS 242253Z 31003KT 10SM CLR 33/06 A3004 RMK AO2 SLP130 T03330061
KTVC 242253Z 00000KT 10SM OVC015 12/08 A2993 RMK AO2 SLP136 T01170083
KTVF 242335Z AUTO 27013G18KT 10SM CLR 17/01 A2979 RMK AO1
KTVI 242335Z AUTO 00000KT 10SM CLR 16/13 A2999 RMK AO2
KTVK 242335Z AUTO 31003KT 10SM CLR 17/17 A2994 RMK AO2
KTVL 242253Z AUTO 21013G24KT 10SM CLR 21/M08 A3007 RMK AO2 PK WND 18031/2159 SLP142 T02111083
KTVR 242253Z AUTO 31003KT 10SM CLR 17/12 A3009 RMK AO2 SLP197 T01720117
KTWF 242253Z AUTO 04006KT 10SM CLR 24/01 A3003 RMK AO2 SLP126 T02390011
KTWM 242334Z AUTO 23007KT 10SM CLR 17/06 A2973 RMK AO2
KTXK 242253Z 17003KT 10SM CLR 24/14 A3010 RMK AO2 SLP190 T02390139
KTYQ 242335Z AUTO 24003KT 10SM CLR 14/10 A3003 RMK AO2 T01410096
KTYR 242253Z 15005KT 10SM CLR 26/14 A3010 RMK AO2 SLP187 T02560144
KTYS 242253Z 00000KT 10SM FEW100 16/04 A3003 RMK AO2 SLP166 T01610044
KTZR 242335Z AUTO 23004KT 10SM CLR 11/04 A3003 RMK AO2 T01130037
KU16 242258Z AUTO 36009KT 10SM CLR 21/03 A3008 RMK AO2 SLP806 T02060033 $
KU68 242335Z AUTO 04008KT 10SM OVC110 17/00 A3003 RMK AO2 PWINO
KUAO 242253Z AUTO 36006KT 10SM -RA BKN048 OVC100 12/11 A2985 RMK AO2 SLP108 P0004 T01170106
KUBE 242335Z AUTO 19004KT 7SM SCT008 12/11 A2985 RMK AO2
KUCP 242256Z AUTO 00000KT 10SM 12/03 A3001 RMK AO2 TSNO T01220033 SLP181 $
KUCY 242335Z AUTO 23003KT 10SM CLR 15/11 A3006 RMK
KUDG 242335Z AUTO 00000KT 10SM CLR 14/09 A2999 RMK AO1
KUES 242245Z 18004KT 7SM SKC 13/09 A2995
KUGN 242322Z 00000KT 2SM BR SCT095 10/09 A2994 RMK AO2 T01000089
KUIL 242253Z AUTO 05008KT 5SM HZ FEW120 12/08 A2990 RMK AO2 SLP124 T01220083
KUIN 242254Z AUTO 19007KT 10SM CLR 19/13 A2995 RMK AO2 SLP140 T01940128
KUKF 242335Z AUTO 00000KT 10SM CLR 11/06 A3005 RMK AO2
KUKI 242256Z AUTO 12013G18KT 10SM FEW050 23/11 A2985 RMK AO2 SLP103 T02280106
KUKT 242335Z AUTO 00000KT 10SM CLR 15/06 A2986 RMK AO1
KULM 242334Z AUTO 27003KT 10SM CLR 17/09 A2988 RMK AO2
KUNI 242335Z AUTO 00000KT 10SM CLR 11/04 A3003 RMK AO2 T01100041
KUNO 242253Z AUTO 20003KT 10SM SCT043 20/14 A3008 RMK AO2 SLP181 T02000139
KUNU 242335Z AUTO 16004KT 10SM BKN065 BKN075 OVC100 12/10 A2994 RMK AO2 T01200095
KUNV 242253Z 31004KT 10SM SKC 13/02 A2994
KUOX 242335Z AUTO 00000KT 10SM CLR 15/13 A3011 RMK AO2 PWINO PNO
KUSE 242335Z AUTO 19004KT 4SM HZ SCT031 OVC040 12/09 A3001 RMK AO2
KUTA 242335Z AUTO 23005KT 10SM CLR 18/12 A3009 RMK AO2
KUTS 242253Z AUTO VRB03KT 10SM CLR 26/14 A3010 RMK AO2 SLP187 T02610139
KUUU 242253Z AUTO 31009KT 10SM OVC033 12/06 A2974 RMK AO2 SLP068 T01220061
KUVA 242335Z AUTO 00000KT 10SM CLR 30/15 A3008 RMK AO2 T02970150
KUXL 242335Z AUTO 33003KT 10SM CLR 20/11 A3010 RMK AO2 T01980109
KUYF 242335Z AUTO 23005KT 10SM CLR 08/03 A3003 RMK AO2
KUZA 242254Z AUTO 00000KT 10SM CLR 14/09 A2999 RMK AO2 SLP155 T01440094
KVAD 242258Z AUTO 04002KT 10SM CLR 18/10 A2999 RMK AO2 SLP158 T01820100 $
KVAF 242335Z AUTO 32007KT 10SM CLR 24/13 A3007 RMK A01
KVAY 242254Z AUTO 00000KT 10SM CLR 16/08 A2982 RMK AO2 SLP098 T01560078
KVBG 242255Z VRB06KT 10SM FEW005 FEW200 21/13 A2996 RMK AO2A SLP134 T02060133
KVBT 242335Z AUTO 20004KT 10SM CLR 20/15 A3008 RMK AO1
KVCB 242253Z AUTO 20007KT 10SM CLR 26/10 A2987 RMK AO2 SLP115 T02560100 TSNO
KVCT 242251Z 08008KT 10SM CLR 29/14 A3007 RMK AO2 SLP181 T02890139
KVCV 242335Z AUTO 18016KT 10SM CLR 29/M02 A3000 RMK AO2
KVDI 242335Z AUTO 00000KT 10SM CLR 17/10 A2999 RMK AO2
KVEL 242253Z AUTO 12005KT 10SM CLR 21/02 A3020 RMK AO2 SLP190 T02060017
KVER 242335Z AUTO 18003KT 10SM CLR 22/15 A2996 RMK AO2 T02170147
KVES 242335Z AUTO 23003KT 10SM SCT043 12/06 A3002 RMK AO2
KVGT 242253Z 08006KT 10SM CLR 30/03 A2999 RMK AO2 SLP156 T03000028
KVIH 242253Z AUTO 18007KT 10SM CLR 19/14 A3001 RMK AO2 SLP157 T01940144
KVIS 242335Z 00000KT 10SM CLR 29/07 A2988 RMK AO1
KVJI 242335Z AUTO 00000KT 10SM CLR 11/05 A3007 RMK AO2 T01070045
KVLD 242253Z 00000KT 10SM CLR 18/09 A2998 RMK AO2 SLP160 T01830089
KVLL 242335Z AUTO 23005KT 10SM CLR 14/06 A3000 RMK AO2 T01400064
KVNC 242335Z AUTO 23/14 A2990 RMK AO2 TSNO
KVNY 242251Z 16010KT 10SM CLR 31/M07 A2994 RMK AO2 SLP129 T03061067
KVOA 242335Z AUTO 36006KT 10SM CLR 22/10 A3002 RMK A01
KVOK 242258Z AUTO 18007KT 10SM OVC024 16/13 A2989 RMK AO2 SLP127 T01600129
KVPC 242253Z AUTO 00000KT 10SM CLR 17/07 A3002 RMK AO2 SLP161 T01670067
KVPS 242255Z 34004KT 10SM CLR 22/08 A3000 RMK AO2A SLP165 T02230076 $
KVPZ 242256Z AUTO 25003KT 10SM CLR 15/08 A2998 RMK AO2 SLP153 T01500083 TSNO
KVQQ 242350Z 00000KT 10SM CLR 15/13 A2998
KVQT 242335Z AUTO 02012KT 10SM CLR 22/13 A3007 RMK A01
KVRB 242253Z 03011KT 10SM BKN044 23/15 A2989 RMK AO2 SLP121 T02330150
KVSF 242254Z AUTO 00000KT 10SM OVC025 08/04 A2978 RMK AO2 SLP088 T00830044
KVSH 242335Z AUTO 32003KT 10SM CLR 22/08 A3006 RMK AO1
KVTA 242254Z AUTO 00000KT 10SM CLR 12/05 A3002 RMK AO2 SLP170 T01170050
KVTI 242335Z AUTO 21004KT 3SM BR OVC005 16/15 A2993 RMK AO2 T01570150
KVTN 242252Z AUTO 02003KT 10SM CLR 26/01 A2997 RMK AO2 SLP142 T02610006
KVTP 242319Z AUTO 19007G17KT 10SM CLR 13/M09 A3050 RMK AO2
KVUJ 242335Z AUTO 00000KT 10SM CLR 13/09 A3002 RMK AO2 T01330086
KVUO 242253Z AUTO 02003KT 6SM -RA BR OVC080 13/11 A2986 RMK AO2 SLP112 P0004 T01280111
KVVG 242335Z AUTO 03005KT 10SM 21/13 A2985 RMK A01
KVVV 242334Z AUTO 28004KT 10SM CLR 21/04 A2987 RMK AO2
KVWU 242334Z AUTO 24010G14KT 10SM CLR 14/08 A2972 RMK AO2
KVYS 242335Z AUTO 19006KT 10SM CLR 15/06 A2996 RMK AO2 T01480064
KW13 242335Z AUTO 31003KT 10SM CLR 12/03 A2997 RMK AO1 T01220033
KW22 242335Z AUTO 00000KT 10SM CLR 11/04 A3004 RMK AO2
KW29 242337Z AUTO 28004KT 10SM 16/05 A2991 RMK AO1
KW31 242335Z AUTO 00000KT 10SM CLR 13/11 A2996 RMK AO1 T01300114
KW43 242335Z AUTO 03006KT 10SM OVC110 15/00 A3010 RMK AO2
KW63 242335Z AUTO 00000KT 10SM CLR 11/10 A2997 RMK AO1
KW75 242335Z AUTO 28008KT 10SM CLR 15/06 A2992 RMK AO1 T01450060
KW78 242335Z AUTO 00000KT 10SM CLR 12/10 A2997 RMK AO1 T01160098
KW81 242335Z AUTO 00000KT 10SM CLR 11/09 A2995 RMK AO1 T01110092
KW96 242335Z AUTO 00000KT 10SM CLR 11/08 A2994 RMK AO1 T01090081
KW99 242335Z AUTO 25003KT 10SM CLR 10/02 A3001 RMK AO2 T01030015
KWAL 242254Z AUTO 30007KT 10SM CLR 16/08 A2991 RMK AO2 SLP124 T01560078
KWDG 242250Z 18010KT 10SM SCT200 28/17 A2999
KWDR 242335Z AUTO 30003KT 10SM CLR 17/11 A3003 RMK AO2 T01660110
KWHP 242347Z 18005KT 10SM SKC 29/00 A2998
KWJF 242256Z 25011KT 10SM CLR 29/M01 A2999 RMK AO2 SLP144 T02941011
KWLD 242254Z AUTO 21009KT 10SM CLR 26/17 A3001 RMK AO2 SLP153 T02610172
KWMC 242256Z AUTO 21006KT 10SM CLR 26/M08 A2997 RMK AO2 SLP121 T02561078
KWRB 242258Z AUTO 13003KT 10SM CLR 17/12 A2997 RMK AO2 SLP151 T01700123
KWRI 242258Z AUTO 29005KT 10SM CLR 16/07 A2980 RMK AO2 SLP094 T01590066
KWRL 242253Z AUTO 00000KT 10SM CLR 25/M02 A2998 RMK AO2 SLP131 T02501022
KWST 242253Z AUTO VRB04KT 10SM OVC033 12/06 A2976 RMK AO2 SLP076 T01170056
KWVI 242253Z AUTO 26008G16KT 10SM BKN016 19/14 A2995 RMK AO2 SLP140 T01940139
KWVL 242335Z 33011KT 10SM OVC016 08/04 A2966 RMK AO1
KWWD 242335Z AUTO 28007KT 10SM CLR 17/08 A2987 RMK AO1
KWWR 242335Z AUTO 17008KT 10SM CLR 27/12 A3005 RMK AO2
KWYS 242335Z AUTO 23013G20KT 10SM CLR 12/M02 A3015 RMK AO2
KXBP 242335Z AUTO 17004KT 10SM CLR 28/16 A3007 RMK AO2 T02760158
KXFL 242335Z AUTO 00000KT CLR 19/14 A2995 RMK AO2 T01860138 PWINO
KXIH 242335Z AUTO 00000KT 10SM CLR 22/13 A3009 RMK A01
KXLL 242335Z AUTO 34005KT 10SM CLR 16/06 A2986 RMK AO2
KXMR 242258Z AUTO 04005KT 10SM SCT046 23/14 A2991 RMK AO2 SLP132 T02300137
KXNA 242253Z 20003KT 10SM CLR 21/17 A3007 RMK AO2 SLP177 T02110167
KXPY 242335Z AUTO 35008KT 10SM CLR 22/09 A3009 RMK A01
KXSA 242335Z AUTO 00000KT 10SM CLR 10/06 A2994 RMK AO2 T01020058
KXVG 242336Z AUTO 24003KT 10SM CLR 18/04 A2977 RMK AO2
KY19 242335Z AUTO 27009KT 10SM OVC110 15/02 A2998 RMK AO2
KY23 242335Z AUTO 00000KT 10SM OVC008 14/13 A2986 RMK AO2 T01350125
KY49 242335Z AUTO 25007KT 10SM CLR 18/04 A2977 RMK AO2 T01830041
KY50 242256Z AUTO 00000KT 10SM OVC001 14/11 A2991 RMK AO2 TSNO T01380105 SLP127
KY51 242335Z AUTO 23004KT 2 1/2SM OVC003 14/14 A2992 RMK AO1 T01400140
KY63 242335Z AUTO 25010KT 10SM CLR 20/06 A2983 RMK AO2 T01970061
KY70 242334Z AUTO 27004KT 10SM CLR 12/09 A2998 RMK AO2 T01170085
KYIP 242253Z 21007KT 10SM OVC040 16/07 A2999 RMK AO2 SLP155 T01560072
KYKM 242253Z 24003KT 10SM -RA OVC070 12/07 A3001 RMK AO2 RAB29 SLP166 P0000 T01170067
KYKN 242335Z AUTO 00000KT 10SM CLR 19/08 A2994 RMK AO1
KYNG 242251Z 27003KT 10SM FEW080 FEW250 12/04 A3000 RMK AO2 SLP163 T01170039 $
KZPH 242335Z AUTO 04003KT 10SM CLR 19/15 A2994 RMK AO2
KZZV 242253Z AUTO 00000KT 10SM CLR 13/03 A3003 RMK AO2 SLP171 T01330033